Darstellungsparameter: Aktuell verwendete Einstellungen:
Skalierung der Graphiken ... ?
xyx+y,   Skalierungsfaktor:      Skalierung: Modus: x, Faktor: 1
Darstellungszeitraum ... ?
Vom - - bis: - -   Zeitraum: 10.04.2020 - 08.05.2020
Min/Max/Avg-Anzeige ... ?
Zeige MMA aktuell
Zeige MMA Monat
Zeige MMA alles
Zeige --A aktuell
Zeige --A Monat
Zeige --A alles
Keine MMA-Anzeige
MMA:
Average (ber die Originaldaten)
MMA-Basis: 10.04.2020 - 08.05.2020
Quicknavigation für Darstellung... ?
Tage:      1T, 2T, 3T, 5T -1T -2T -3T -5T +1T +2T +3T +5T
Wochen: 1W, 2W, 3W -1W -2W -3W +1W +2W +3W
Monate: 1M, 3M, 6M -1M -3M -6M +1M +3M +6M
Jahre:    1J, 3J, 5J, 10J -1J -3J -5J -10J +1J +3J +5J +10J
Nutze für die Darstellung ... ?
Originaldaten oder Mittelwerte auf ...
Stundenbasis Tagesbasis Wochenbasis
Monatsbasis Jahresbasis      Datenbasis: Original-Daten
Darstellen als:
Statistik (Auto) Statistik J:M      Darstellung:
Zur Graphik,    zurück zur Übersicht aller Sensoren.
 
Tabellarische Datenbersicht: ?
 
Sensor: Nr:Datum:Temp:Feuchte:
Aussen-T/F 1 10-04-2020 00:01:17 12.7 C 29 %
2 10-04-2020 00:11:17 11.7 C 31 %
3 10-04-2020 00:21:18 11.8 C 31 %
4 10-04-2020 00:31:18 11.1 C 32 %
5 10-04-2020 00:41:18 10.7 C 34 %
6 10-04-2020 00:51:17 10.5 C 34 %
7 10-04-2020 01:01:17 10.1 C 35 %
8 10-04-2020 01:11:17 10 C 35 %
9 10-04-2020 01:21:17 9.7 C 36 %
10 10-04-2020 01:31:17 9.6 C 36 %
11 10-04-2020 01:41:17 9.5 C 36 %
12 10-04-2020 01:51:17 9 C 36 %
13 10-04-2020 02:01:17 9.2 C 36 %
14 10-04-2020 02:11:17 8.9 C 37 %
15 10-04-2020 02:21:18 8.7 C 37 %
16 10-04-2020 02:31:18 8.6 C 37 %
17 10-04-2020 02:41:18 8.3 C 38 %
18 10-04-2020 02:51:17 8.2 C 38 %
19 10-04-2020 03:01:18 8.3 C 38 %
20 10-04-2020 03:11:18 7.9 C 39 %
21 10-04-2020 03:21:17 7.6 C 39 %
22 10-04-2020 03:31:17 7.4 C 40 %
23 10-04-2020 03:41:17 7.2 C 40 %
24 10-04-2020 03:51:17 7.1 C 40 %
25 10-04-2020 04:01:18 7 C 40 %
Sensor: Nr:Datum:Temp:Feuchte:
Aussen-T/F 26 10-04-2020 04:11:18 6.8 C 41 %
27 10-04-2020 04:21:17 6.9 C 41 %
28 10-04-2020 04:31:17 6.6 C 41 %
29 10-04-2020 04:41:17 6.6 C 41 %
30 10-04-2020 04:51:18 6.6 C 41 %
31 10-04-2020 05:01:17 6.3 C 41 %
32 10-04-2020 05:11:17 6.3 C 42 %
33 10-04-2020 05:21:18 6.4 C 42 %
34 10-04-2020 05:31:17 6.2 C 42 %
35 10-04-2020 05:41:17 5.9 C 43 %
36 10-04-2020 05:51:17 5.7 C 43 %
37 10-04-2020 06:01:17 5.8 C 44 %
38 10-04-2020 06:11:17 5.8 C 44 %
39 10-04-2020 06:21:17 5.6 C 44 %
40 10-04-2020 06:31:18 5.4 C 44 %
41 10-04-2020 06:41:18 5.4 C 44 %
42 10-04-2020 06:51:17 5.4 C 44 %
43 10-04-2020 07:01:18 5.3 C 44 %
44 10-04-2020 07:11:18 5.3 C 45 %
45 10-04-2020 07:21:17 5.3 C 45 %
46 10-04-2020 07:31:18 5.3 C 45 %
47 10-04-2020 07:41:18 5.3 C 45 %
48 10-04-2020 07:51:17 5.9 C 46 %
49 10-04-2020 08:01:17 5.8 C 45 %
50 10-04-2020 08:11:17 5.8 C 45 %
Sensor: Nr:Datum:Temp:Feuchte:
Aussen-T/F 51 10-04-2020 08:21:17 6 C 44 %
52 10-04-2020 08:31:17 6.1 C 45 %
53 10-04-2020 08:41:17 6.2 C 44 %
54 10-04-2020 08:51:17 6.5 C 45 %
55 10-04-2020 09:01:17 6.9 C 45 %
56 10-04-2020 09:11:17 7.8 C 42 %
57 10-04-2020 09:21:18 8.2 C 41 %
58 10-04-2020 09:31:18 8.5 C 40 %
59 10-04-2020 09:41:18 9.1 C 39 %
60 10-04-2020 09:51:17 9.4 C 39 %
61 10-04-2020 10:01:17 9.9 C 38 %
62 10-04-2020 10:11:17 10.2 C 37 %
63 10-04-2020 10:21:17 10.8 C 37 %
64 10-04-2020 10:31:17 11.6 C 36 %
65 10-04-2020 10:41:17 12.3 C 35 %
66 10-04-2020 10:51:17 13.4 C 33 %
67 10-04-2020 11:01:17 14 C 31 %
68 10-04-2020 11:11:17 14.7 C 31 %
69 10-04-2020 11:21:17 15.9 C 28 %
70 10-04-2020 11:31:17 16.3 C 27 %
71 10-04-2020 11:41:17 16.8 C 26 %
72 10-04-2020 11:51:17 17.5 C 25 %
73 10-04-2020 12:01:17 17.9 C 24 %
74 10-04-2020 12:11:17 18.4 C 21 %
75 10-04-2020 12:21:17 19.2 C 20 %
Sensor: Nr:Datum:Temp:Feuchte:
Aussen-T/F 76 10-04-2020 12:31:17 19.7 C 20 %
77 10-04-2020 12:41:17 20.6 C 20 %
78 10-04-2020 12:51:17 20.4 C 20 %
79 10-04-2020 13:01:17 20.8 C 20 %
80 10-04-2020 13:11:17 20.2 C 20 %
81 10-04-2020 13:21:17 20.4 C 20 %
82 10-04-2020 13:31:17 20.2 C 20 %
83 10-04-2020 13:41:17 20.4 C 20 %
84 10-04-2020 13:51:17 20.7 C 20 %
85 10-04-2020 14:01:17 21.7 C 20 %
86 10-04-2020 14:11:17 21.6 C 20 %
87 10-04-2020 14:21:18 22 C 20 %
88 10-04-2020 14:31:18 25.1 C 20 %
89 10-04-2020 14:41:18 29.1 C 20 %
90 10-04-2020 14:51:17 27.6 C 20 %
91 10-04-2020 15:01:17 27.9 C 20 %
92 10-04-2020 15:11:17 31.6 C 20 %
93 10-04-2020 15:21:17 30.1 C 20 %
94 10-04-2020 15:31:17 30.5 C 20 %
95 10-04-2020 15:41:17 30.2 C 20 %
96 10-04-2020 15:51:17 29.1 C 20 %
97 10-04-2020 16:01:17 29.8 C 20 %
98 10-04-2020 16:11:17 30.3 C 20 %
99 10-04-2020 16:21:17 28.8 C 20 %
100 10-04-2020 16:31:17 29.1 C 20 %
Sensor: Nr:Datum:Temp:Feuchte:
Aussen-T/F 101 10-04-2020 16:41:17 28.3 C 20 %
102 10-04-2020 16:51:17 30.8 C 20 %
103 10-04-2020 17:01:17 29.6 C 20 %
104 10-04-2020 17:11:17 28.8 C 20 %
105 10-04-2020 17:21:17 26.8 C 20 %
106 10-04-2020 17:31:17 28.5 C 20 %
107 10-04-2020 17:41:17 27.6 C 20 %
108 10-04-2020 17:51:18 26.4 C 20 %
109 10-04-2020 18:01:17 23.6 C 20 %
110 10-04-2020 18:11:17 23 C 20 %
111 10-04-2020 18:21:18 22.5 C 20 %
112 10-04-2020 18:31:18 22.2 C 20 %
113 10-04-2020 18:41:18 22.3 C 20 %
114 10-04-2020 18:51:17 22 C 20 %
115 10-04-2020 19:01:17 21.6 C 20 %
116 10-04-2020 19:11:17 21.4 C 20 %
117 10-04-2020 19:21:17 21.1 C 20 %
118 10-04-2020 19:31:17 20.9 C 20 %
119 10-04-2020 19:41:17 20.7 C 20 %
120 10-04-2020 19:51:18 20.2 C 20 %
121 10-04-2020 20:01:17 19.6 C 20 %
122 10-04-2020 20:11:17 18.5 C 20 %
123 10-04-2020 20:21:18 16 C 20 %
124 10-04-2020 20:31:17 15.9 C 20 %
125 10-04-2020 20:41:17 15.3 C 20 %
Sensor: Nr:Datum:Temp:Feuchte:
Aussen-T/F 126 10-04-2020 20:51:17 15 C 20 %
127 10-04-2020 21:01:17 15.3 C 20 %
128 10-04-2020 21:11:17 14.7 C 20 %
129 10-04-2020 21:21:17 14.3 C 21 %
130 10-04-2020 21:31:17 13.8 C 21 %
131 10-04-2020 21:41:17 14.2 C 21 %
132 10-04-2020 21:51:17 14.3 C 21 %
133 10-04-2020 22:01:18 14.5 C 21 %
134 10-04-2020 22:11:18 14.9 C 20 %
135 10-04-2020 22:21:18 14.5 C 22 %
136 10-04-2020 22:31:17 14.5 C 22 %
137 10-04-2020 22:41:17 13.9 C 24 %
138 10-04-2020 22:51:17 13.1 C 25 %
139 10-04-2020 23:01:17 12.7 C 25 %
140 10-04-2020 23:11:17 12.8 C 25 %
141 10-04-2020 23:21:17 12 C 26 %
142 10-04-2020 23:31:17 12.2 C 26 %
143 10-04-2020 23:41:17 11.2 C 28 %
144 10-04-2020 23:51:17 11.1 C 29 %
145 11-04-2020 00:01:18 10.5 C 30 %
146 11-04-2020 00:11:18 10.8 C 30 %
147 11-04-2020 00:21:17 10.8 C 30 %
148 11-04-2020 00:31:17 10.1 C 31 %
149 11-04-2020 00:41:18 9.9 C 32 %
150 11-04-2020 00:51:18 10 C 31 %
Sensor: Nr:Datum:Temp:Feuchte:
Aussen-T/F 151 11-04-2020 01:01:17 9.6 C 31 %
152 11-04-2020 01:11:17 9.6 C 32 %
153 11-04-2020 01:21:17 9.1 C 32 %
154 11-04-2020 01:31:18 9.2 C 32 %
155 11-04-2020 01:41:18 9 C 32 %
156 11-04-2020 01:51:18 8.7 C 32 %
157 11-04-2020 02:01:17 8.4 C 32 %
158 11-04-2020 02:11:17 8.2 C 32 %
159 11-04-2020 02:21:18 8.1 C 32 %
160 11-04-2020 02:31:17 8.3 C 32 %
161 11-04-2020 02:41:17 8.1 C 32 %
162 11-04-2020 02:51:17 7.9 C 33 %
163 11-04-2020 03:01:17 8.5 C 31 %
164 11-04-2020 03:11:17 8.7 C 31 %
165 11-04-2020 03:21:17 8.8 C 30 %
166 11-04-2020 03:31:18 8.8 C 30 %
167 11-04-2020 03:41:18 8.2 C 30 %
168 11-04-2020 03:51:17 8.6 C 30 %
169 11-04-2020 04:01:17 8.3 C 30 %
170 11-04-2020 04:11:17 8.3 C 30 %
171 11-04-2020 04:21:17 7.7 C 30 %
172 11-04-2020 04:31:17 7.4 C 30 %
173 11-04-2020 04:41:17 7.5 C 30 %
174 11-04-2020 04:51:17 7.6 C 29 %
175 11-04-2020 05:01:17 7.4 C 29 %
Sensor: Nr:Datum:Temp:Feuchte:
Aussen-T/F 176 11-04-2020 05:11:17 6.9 C 30 %
177 11-04-2020 05:21:17 6.8 C 30 %
178 11-04-2020 05:31:18 6.1 C 31 %
179 11-04-2020 05:41:18 5.8 C 32 %
180 11-04-2020 05:51:17 5.7 C 32 %
181 11-04-2020 06:01:17 5.6 C 32 %
182 11-04-2020 06:11:17 5 C 33 %
183 11-04-2020 06:21:17 4.9 C 35 %
184 11-04-2020 06:31:18 5 C 33 %
185 11-04-2020 06:41:18 4.6 C 35 %
186 11-04-2020 06:51:17 4.6 C 35 %
187 11-04-2020 07:01:18 4.4 C 35 %
188 11-04-2020 07:11:18 4.5 C 35 %
189 11-04-2020 07:21:17 4.4 C 35 %
190 11-04-2020 07:31:18 4.4 C 36 %
191 11-04-2020 07:41:18 4.7 C 35 %
192 11-04-2020 07:51:17 5 C 34 %
193 11-04-2020 08:01:18 5 C 34 %
194 11-04-2020 08:11:18 5 C 35 %
195 11-04-2020 08:21:18 5.1 C 35 %
196 11-04-2020 08:31:18 5.5 C 34 %
197 11-04-2020 08:41:18 6 C 33 %
198 11-04-2020 08:51:18 6.4 C 32 %
199 11-04-2020 09:01:17 6.5 C 33 %
200 11-04-2020 09:11:18 7.1 C 31 %
Sensor: Nr:Datum:Temp:Feuchte:
Aussen-T/F 201 11-04-2020 09:21:17 7.3 C 31 %
202 11-04-2020 09:31:18 7.8 C 31 %
203 11-04-2020 09:41:18 8.2 C 30 %
204 11-04-2020 09:51:17 8.6 C 30 %
205 11-04-2020 10:01:17 9.1 C 29 %
206 11-04-2020 10:11:17 9.5 C 29 %
207 11-04-2020 10:21:17 10.2 C 26 %
208 11-04-2020 10:31:17 10.7 C 27 %
209 11-04-2020 10:41:17 11.5 C 25 %
210 11-04-2020 10:51:17 12.3 C 21 %
211 11-04-2020 11:01:18 12.9 C 20 %
212 11-04-2020 11:11:18 13.7 C 20 %
213 11-04-2020 11:21:17 14.5 C 20 %
214 11-04-2020 11:31:17 15.3 C 20 %
215 11-04-2020 11:41:18 16 C 20 %
216 11-04-2020 11:51:17 16.5 C 20 %
217 11-04-2020 12:01:17 17.2 C 20 %
218 11-04-2020 12:11:17 17.5 C 20 %
219 11-04-2020 12:21:18 18.1 C 20 %
220 11-04-2020 12:31:17 19.1 C 20 %
221 11-04-2020 12:41:17 19.4 C 20 %
222 11-04-2020 12:51:17 19.5 C 20 %
223 11-04-2020 13:01:17 19.6 C 20 %
224 11-04-2020 13:11:17 19.5 C 20 %
225 11-04-2020 13:21:17 19.5 C 20 %
Sensor: Nr:Datum:Temp:Feuchte:
Aussen-T/F 226 11-04-2020 13:31:17 19.6 C 20 %
227 11-04-2020 13:41:17 19.9 C 20 %
228 11-04-2020 13:51:17 20.2 C 20 %
229 11-04-2020 14:01:18 20.9 C 20 %
230 11-04-2020 14:11:18 21.3 C 20 %
231 11-04-2020 14:21:17 21.5 C 20 %
232 11-04-2020 14:31:17 24.4 C 20 %
233 11-04-2020 14:41:17 27.5 C 20 %
234 11-04-2020 14:51:18 27.4 C 20 %
235 11-04-2020 15:01:18 28.6 C 20 %
236 11-04-2020 15:11:18 30.4 C 20 %
237 11-04-2020 15:21:17 29.9 C 20 %
238 11-04-2020 15:31:17 30.4 C 20 %
239 11-04-2020 15:41:17 31.2 C 20 %
240 11-04-2020 15:51:18 31.8 C 20 %
241 11-04-2020 16:01:17 28.5 C 20 %
242 11-04-2020 16:11:17 31.4 C 20 %
243 11-04-2020 16:21:18 30.7 C 20 %
244 11-04-2020 16:31:17 31.5 C 20 %
245 11-04-2020 16:41:17 31.3 C 20 %
246 11-04-2020 16:51:17 32.1 C 20 %
247 11-04-2020 17:01:17 31.8 C 20 %
248 11-04-2020 17:11:17 29.5 C 20 %
249 11-04-2020 17:21:17 29.8 C 20 %
250 11-04-2020 17:31:17 28.7 C 20 %
Sensor: Nr:Datum:Temp:Feuchte:
Aussen-T/F 251 11-04-2020 17:41:17 26.5 C 20 %
252 11-04-2020 17:51:17 27.5 C 20 %
253 11-04-2020 18:01:17 24.2 C 20 %
254 11-04-2020 18:11:17 23.4 C 20 %
255 11-04-2020 18:21:17 23.6 C 20 %
256 11-04-2020 18:31:17 23.6 C 20 %
257 11-04-2020 18:41:17 23.3 C 20 %
258 11-04-2020 18:51:17 22.9 C 20 %
259 11-04-2020 19:01:17 22.9 C 20 %
260 11-04-2020 19:11:17 22.7 C 20 %
261 11-04-2020 19:21:18 22 C 20 %
262 11-04-2020 19:31:17 21.7 C 20 %
263 11-04-2020 19:41:17 21.2 C 20 %
264 11-04-2020 19:51:17 18.9 C 20 %
265 11-04-2020 20:01:17 18 C 20 %
266 11-04-2020 20:11:17 17.1 C 20 %
267 11-04-2020 20:21:17 16.6 C 20 %
268 11-04-2020 20:31:17 16.5 C 20 %
269 11-04-2020 20:41:17 16.5 C 20 %
270 11-04-2020 20:51:17 16.2 C 20 %
271 11-04-2020 21:01:18 16 C 20 %
272 11-04-2020 21:11:18 15.5 C 20 %
273 11-04-2020 21:21:18 15.4 C 20 %
274 11-04-2020 21:31:17 15.1 C 20 %
275 11-04-2020 21:41:17 14.8 C 20 %
Sensor: Nr:Datum:Temp:Feuchte:
Aussen-T/F 276 11-04-2020 21:51:17 14.5 C 20 %
277 11-04-2020 22:01:17 14.3 C 20 %
278 11-04-2020 22:11:17 14.4 C 20 %
279 11-04-2020 22:21:17 14 C 20 %
280 11-04-2020 22:31:18 14 C 21 %
281 11-04-2020 22:41:18 14.4 C 21 %
282 11-04-2020 22:51:17 14.4 C 22 %
283 11-04-2020 23:01:17 13.7 C 23 %
284 11-04-2020 23:11:17 13 C 24 %
285 11-04-2020 23:21:18 12.3 C 26 %
286 11-04-2020 23:31:18 12.1 C 26 %
287 11-04-2020 23:41:18 11.8 C 27 %
288 11-04-2020 23:51:17 11.7 C 28 %
289 12-04-2020 00:01:17 11.6 C 29 %
290 12-04-2020 00:11:17 11.3 C 28 %
291 12-04-2020 00:21:17 11.3 C 29 %
292 12-04-2020 00:31:17 11.5 C 29 %
293 12-04-2020 00:41:17 11.6 C 29 %
294 12-04-2020 00:51:17 11.4 C 28 %
295 12-04-2020 01:01:17 11.3 C 28 %
296 12-04-2020 01:11:17 11 C 28 %
297 12-04-2020 01:21:17 10.6 C 29 %
298 12-04-2020 01:31:18 10.3 C 29 %
299 12-04-2020 01:41:18 10.2 C 30 %
300 12-04-2020 01:51:17 10.6 C 29 %
Sensor: Nr:Datum:Temp:Feuchte:
Aussen-T/F 301 12-04-2020 02:01:18 10.8 C 30 %
302 12-04-2020 02:11:18 10.7 C 31 %
303 12-04-2020 02:21:18 10.3 C 31 %
304 12-04-2020 02:31:17 10.4 C 30 %
305 12-04-2020 02:41:17 10.2 C 31 %
306 12-04-2020 02:51:17 10.1 C 31 %
307 12-04-2020 03:01:17 10.3 C 31 %
308 12-04-2020 03:11:17 10.2 C 31 %
309 12-04-2020 03:21:17 10.1 C 32 %
310 12-04-2020 03:31:17 10 C 32 %
311 12-04-2020 03:41:18 9.9 C 33 %
312 12-04-2020 03:51:17 10 C 32 %
313 12-04-2020 04:01:17 9.8 C 33 %
314 12-04-2020 04:11:17 9.7 C 33 %
315 12-04-2020 04:21:17 8.9 C 35 %
316 12-04-2020 04:31:17 8.8 C 34 %
317 12-04-2020 04:41:17 8.9 C 35 %
318 12-04-2020 04:51:17 8.5 C 35 %
319 12-04-2020 05:01:18 8.2 C 36 %
320 12-04-2020 05:11:18 8.4 C 36 %
321 12-04-2020 05:21:17 8.5 C 36 %
322 12-04-2020 05:31:17 8.2 C 36 %
323 12-04-2020 05:41:17 8 C 36 %
324 12-04-2020 05:51:17 7.6 C 37 %
325 12-04-2020 06:01:17 7.7 C 37 %
Sensor: Nr:Datum:Temp:Feuchte:
Aussen-T/F 326 12-04-2020 06:11:17 7.5 C 38 %
327 12-04-2020 06:21:17 7.2 C 38 %
328 12-04-2020 06:31:17 7.1 C 39 %
329 12-04-2020 06:41:17 7.2 C 39 %
330 12-04-2020 06:51:17 7.3 C 39 %
331 12-04-2020 07:01:17 6.9 C 39 %
332 12-04-2020 07:11:17 6.7 C 40 %
333 12-04-2020 07:21:17 6.5 C 40 %
334 12-04-2020 07:31:17 6.7 C 40 %
335 12-04-2020 07:41:17 7.1 C 40 %
336 12-04-2020 07:51:18 7 C 40 %
337 12-04-2020 08:01:17 7.3 C 40 %
338 12-04-2020 08:11:17 7.5 C 40 %
339 12-04-2020 08:21:17 7.5 C 40 %
340 12-04-2020 08:31:17 7.6 C 40 %
341 12-04-2020 08:41:18 7.9 C 40 %
342 12-04-2020 08:51:17 8.2 C 40 %
343 12-04-2020 09:01:18 8.8 C 39 %
344 12-04-2020 09:11:18 9.2 C 38 %
345 12-04-2020 09:21:17 9.5 C 38 %
346 12-04-2020 09:31:17 10 C 37 %
347 12-04-2020 09:41:17 10.1 C 37 %
348 12-04-2020 09:51:17 11 C 36 %
349 12-04-2020 10:01:17 11.3 C 36 %
350 12-04-2020 10:11:17 11.7 C 35 %
Sensor: Nr:Datum:Temp:Feuchte:
Aussen-T/F 351 12-04-2020 10:21:17 12.2 C 35 %
352 12-04-2020 10:31:18 13.2 C 33 %
353 12-04-2020 10:41:18 14.4 C 31 %
354 12-04-2020 10:51:17 14.9 C 31 %
355 12-04-2020 11:01:17 15.6 C 30 %
356 12-04-2020 11:11:17 17 C 27 %
357 12-04-2020 11:21:17 17.6 C 27 %
358 12-04-2020 11:31:17 18 C 26 %
359 12-04-2020 11:41:17 18.5 C 24 %
360 12-04-2020 11:51:17 19.1 C 20 %
361 12-04-2020 12:01:17 20.6 C 20 %
362 12-04-2020 12:11:17 20.8 C 20 %
363 12-04-2020 12:21:17 21.7 C 20 %
364 12-04-2020 12:31:17 21.6 C 20 %
365 12-04-2020 12:41:17 21.8 C 20 %
366 12-04-2020 12:51:18 21.2 C 20 %
367 12-04-2020 13:01:17 21.7 C 20 %
368 12-04-2020 13:11:17 21.7 C 20 %
369 12-04-2020 13:21:17 22 C 20 %
370 12-04-2020 13:31:17 21.7 C 20 %
371 12-04-2020 13:41:17 22 C 20 %
372 12-04-2020 13:51:17 22.1 C 20 %
373 12-04-2020 14:01:17 22.4 C 20 %
374 12-04-2020 14:11:17 22.8 C 20 %
375 12-04-2020 14:21:17 22.9 C 20 %
Sensor: Nr:Datum:Temp:Feuchte:
Aussen-T/F 376 12-04-2020 14:31:17 26.2 C 20 %
377 12-04-2020 14:41:17 28.6 C 20 %
378 12-04-2020 14:51:17 28.5 C 20 %
379 12-04-2020 15:01:17 30.3 C 20 %
380 12-04-2020 15:11:17 27.7 C 20 %
381 12-04-2020 15:21:17 27.9 C 20 %
382 12-04-2020 15:31:18 30.7 C 20 %
383 12-04-2020 15:41:18 30.5 C 20 %
384 12-04-2020 15:51:18 28.3 C 20 %
385 12-04-2020 16:01:17 30.5 C 20 %
386 12-04-2020 16:11:17 33.2 C 20 %
387 12-04-2020 16:21:17 32.8 C 20 %
388 12-04-2020 16:31:17 27.8 C 20 %
389 12-04-2020 16:41:17 26 C 20 %
390 12-04-2020 16:51:17 24.7 C 20 %
391 12-04-2020 17:01:17 29.6 C 20 %
392 12-04-2020 17:11:18 29.6 C 20 %
393 12-04-2020 17:21:17 29.5 C 20 %
394 12-04-2020 17:31:17 26.5 C 20 %
395 12-04-2020 17:41:17 29.3 C 20 %
396 12-04-2020 17:51:17 29.8 C 20 %
397 12-04-2020 18:01:18 24.6 C 20 %
398 12-04-2020 18:11:18 24 C 20 %
399 12-04-2020 18:21:17 24 C 20 %
400 12-04-2020 18:31:17 23.6 C 20 %
Sensor: Nr:Datum:Temp:Feuchte:
Aussen-T/F 401 12-04-2020 18:41:17 22.9 C 20 %
402 12-04-2020 18:51:17 22.4 C 20 %
403 12-04-2020 19:01:17 22.5 C 20 %
404 12-04-2020 19:11:17 22.4 C 20 %
405 12-04-2020 19:21:17 22 C 20 %
406 12-04-2020 19:31:17 21.6 C 20 %
407 12-04-2020 19:41:17 20.3 C 20 %
408 12-04-2020 19:51:18 19.1 C 20 %
409 12-04-2020 20:01:18 18.2 C 20 %
410 12-04-2020 20:11:18 17.9 C 20 %
411 12-04-2020 20:21:17 17.5 C 20 %
412 12-04-2020 20:31:18 17 C 20 %
413 12-04-2020 20:41:18 16.8 C 20 %
414 12-04-2020 20:51:17 16 C 20 %
415 12-04-2020 21:01:17 15.5 C 20 %
416 12-04-2020 21:11:17 14 C 20 %
417 12-04-2020 21:22:17 13.5 C 20 %
418 12-04-2020 21:31:17 13.2 C 21 %
419 12-04-2020 21:41:17 13.2 C 20 %
420 12-04-2020 21:51:17 13.3 C 21 %
421 12-04-2020 22:01:17 13.4 C 20 %
422 12-04-2020 22:11:17 13 C 21 %
423 12-04-2020 22:22:17 12.9 C 22 %
424 12-04-2020 22:32:17 12.2 C 23 %
425 12-04-2020 22:42:17 11.8 C 26 %
Sensor: Nr:Datum:Temp:Feuchte:
Aussen-T/F 426 12-04-2020 22:51:17 11.7 C 25 %
427 12-04-2020 23:01:18 11.5 C 25 %
428 12-04-2020 23:11:18 11.1 C 26 %
429 12-04-2020 23:21:17 10.9 C 27 %
430 12-04-2020 23:32:17 10.7 C 28 %
431 12-04-2020 23:41:17 10.3 C 28 %
432 12-04-2020 23:52:17 10.5 C 28 %
433 13-04-2020 00:01:17 10.6 C 28 %
434 13-04-2020 00:11:17 10.4 C 29 %
435 13-04-2020 00:21:18 10.4 C 30 %
436 13-04-2020 00:31:17 10.1 C 30 %
437 13-04-2020 00:41:17 9.9 C 31 %
438 13-04-2020 00:51:17 9.7 C 31 %
439 13-04-2020 01:01:18 9.5 C 31 %
440 13-04-2020 01:11:18 9.4 C 32 %
441 13-04-2020 01:21:18 9 C 32 %
442 13-04-2020 01:31:18 9.3 C 32 %
443 13-04-2020 01:41:18 9.2 C 32 %
444 13-04-2020 01:51:18 9.3 C 32 %
445 13-04-2020 02:02:17 9.2 C 32 %
446 13-04-2020 02:12:17 9.2 C 32 %
447 13-04-2020 02:21:17 9.1 C 32 %
448 13-04-2020 02:31:18 9 C 33 %
449 13-04-2020 02:41:18 8.6 C 34 %
450 13-04-2020 02:51:17 8.6 C 34 %
Sensor: Nr:Datum:Temp:Feuchte:
Aussen-T/F 451 13-04-2020 03:01:18 8.4 C 34 %
452 13-04-2020 03:11:18 8.2 C 35 %
453 13-04-2020 03:22:17 7.9 C 35 %
454 13-04-2020 03:32:17 8.1 C 35 %
455 13-04-2020 03:42:17 8 C 35 %
456 13-04-2020 03:51:17 7.8 C 35 %
457 13-04-2020 04:02:17 7.5 C 36 %
458 13-04-2020 04:12:17 7.2 C 36 %
459 13-04-2020 04:21:18 6.8 C 38 %
460 13-04-2020 04:32:17 6.8 C 38 %
461 13-04-2020 04:41:17 6.7 C 39 %
462 13-04-2020 04:52:17 7.7 C 37 %
463 13-04-2020 05:02:17 7.3 C 37 %
464 13-04-2020 05:12:17 7.5 C 38 %
465 13-04-2020 05:22:17 7.8 C 38 %
466 13-04-2020 05:32:17 7.6 C 37 %
467 13-04-2020 05:42:17 7.4 C 37 %
468 13-04-2020 05:52:17 7.2 C 38 %
469 13-04-2020 06:02:17 7.2 C 38 %
470 13-04-2020 06:12:17 6.6 C 39 %
471 13-04-2020 06:22:17 6.2 C 39 %
472 13-04-2020 06:32:17 6.3 C 40 %
473 13-04-2020 06:42:17 6.3 C 40 %
474 13-04-2020 06:52:17 6.4 C 40 %
475 13-04-2020 07:02:17 6.5 C 40 %
Sensor: Nr:Datum:Temp:Feuchte:
Aussen-T/F 476 13-04-2020 07:12:17 7.2 C 39 %
477 13-04-2020 07:22:17 7.6 C 38 %
478 13-04-2020 07:32:17 8.1 C 37 %
479 13-04-2020 07:42:17 8.3 C 37 %
480 13-04-2020 07:52:17 8.5 C 37 %
481 13-04-2020 08:02:17 8.6 C 36 %
482 13-04-2020 08:12:18 8.9 C 36 %
483 13-04-2020 08:22:17 9 C 36 %
484 13-04-2020 08:32:17 9.4 C 36 %
485 13-04-2020 08:42:17 10.7 C 37 %
486 13-04-2020 08:52:17 11.1 C 36 %
487 13-04-2020 09:02:17 10.7 C 37 %
488 13-04-2020 09:12:17 10.7 C 37 %
489 13-04-2020 09:22:17 11 C 36 %
490 13-04-2020 09:32:17 11.5 C 36 %
491 13-04-2020 09:42:17 11.9 C 35 %
492 13-04-2020 09:52:17 11.4 C 35 %
493 13-04-2020 10:02:17 11.2 C 35 %
494 13-04-2020 10:12:17 11.1 C 35 %
495 13-04-2020 10:22:17 11 C 34 %
496 13-04-2020 10:32:17 11.1 C 34 %
497 13-04-2020 10:42:17 11.3 C 34 %
498 13-04-2020 10:52:17 11.6 C 33 %
499 13-04-2020 11:02:17 11.6 C 33 %
500 13-04-2020 11:12:17 11.4 C 32 %
Sensor: Nr:Datum:Temp:Feuchte:
Aussen-T/F 501 13-04-2020 11:22:17 11.8 C 32 %
502 13-04-2020 11:32:17 11.5 C 31 %
503 13-04-2020 11:42:17 11.1 C 31 %
504 13-04-2020 11:52:16 10.8 C 32 %
505 13-04-2020 12:02:17 10.9 C 32 %
506 13-04-2020 12:12:17 10.5 C 33 %
507 13-04-2020 12:22:17 10.4 C 33 %
508 13-04-2020 12:32:17 10.7 C 32 %
509 13-04-2020 12:42:17 11.1 C 32 %
510 13-04-2020 12:52:17 10.6 C 32 %
511 13-04-2020 13:02:16 10.3 C 32 %
512 13-04-2020 13:12:16 10.2 C 32 %
513 13-04-2020 13:22:17 10.2 C 32 %
514 13-04-2020 13:32:17 9.6 C 33 %
515 13-04-2020 13:42:17 8.6 C 35 %
516 13-04-2020 13:52:17 7.6 C 39 %
517 13-04-2020 14:02:17 7.5 C 40 %
518 13-04-2020 14:12:17 7.7 C 38 %
519 13-04-2020 14:22:16 8.7 C 36 %
520 13-04-2020 14:32:17 9.2 C 35 %
521 13-04-2020 14:42:17 9.6 C 34 %
522 13-04-2020 14:52:16 10.9 C 31 %
523 13-04-2020 15:02:17 12.4 C 26 %
524 13-04-2020 15:12:17 12.3 C 25 %
525 13-04-2020 15:22:17 12.7 C 20 %
Sensor: Nr:Datum:Temp:Feuchte:
Aussen-T/F 526 13-04-2020 15:32:17 11.8 C 20 %
527 13-04-2020 15:42:17 12.4 C 20 %
528 13-04-2020 15:52:16 13.2 C 20 %
529 13-04-2020 16:02:16 12.2 C 20 %
530 13-04-2020 16:12:16 14.4 C 20 %
531 13-04-2020 16:22:16 15 C 20 %
532 13-04-2020 16:32:17 16 C 20 %
533 13-04-2020 16:42:17 14.9 C 20 %
534 13-04-2020 16:52:16 16.5 C 20 %
535 13-04-2020 17:02:17 15.2 C 20 %
536 13-04-2020 17:12:17 15.6 C 20 %
537 13-04-2020 17:22:16 15 C 20 %
538 13-04-2020 17:32:16 15 C 20 %
539 13-04-2020 17:42:16 14.5 C 20 %
540 13-04-2020 17:52:16 15.4 C 20 %
541 13-04-2020 18:02:16 13.2 C 20 %
542 13-04-2020 18:12:16 12.5 C 20 %
543 13-04-2020 18:22:17 12.1 C 20 %
544 13-04-2020 18:32:17 11.9 C 20 %
545 13-04-2020 18:42:18 11.1 C 20 %
546 13-04-2020 18:52:16 11.1 C 20 %
547 13-04-2020 19:02:16 10.8 C 20 %
548 13-04-2020 19:12:16 10.5 C 20 %
549 13-04-2020 19:22:16 10.2 C 20 %
550 13-04-2020 19:32:17 10 C 20 %
Sensor: Nr:Datum:Temp:Feuchte:
Aussen-T/F 551 13-04-2020 19:42:17 9.8 C 20 %
552 13-04-2020 19:52:16 9.6 C 20 %
553 13-04-2020 20:02:16 9 C 20 %
554 13-04-2020 20:12:16 8.6 C 20 %
555 13-04-2020 20:22:16 8.5 C 20 %
556 13-04-2020 20:32:16 8.4 C 20 %
557 13-04-2020 20:42:16 8.2 C 20 %
558 13-04-2020 20:52:16 7.5 C 20 %
559 13-04-2020 21:02:16 7.5 C 20 %
560 13-04-2020 21:12:16 7.4 C 20 %
561 13-04-2020 21:22:16 7.3 C 20 %
562 13-04-2020 21:32:17 7.2 C 20 %
563 13-04-2020 21:42:17 6.7 C 20 %
564 13-04-2020 21:52:16 6.5 C 20 %
565 13-04-2020 22:02:16 6.1 C 20 %
566 13-04-2020 22:12:16 5.5 C 20 %
567 13-04-2020 22:22:16 5.1 C 20 %
568 13-04-2020 22:32:16 4.6 C 23 %
569 13-04-2020 22:42:16 4.4 C 25 %
570 13-04-2020 22:52:16 4.1 C 25 %
571 13-04-2020 23:02:16 3.9 C 26 %
572 13-04-2020 23:12:16 3.8 C 27 %
573 13-04-2020 23:22:16 3.5 C 30 %
574 13-04-2020 23:32:17 3.3 C 29 %
575 13-04-2020 23:42:17 4 C 26 %
Sensor: Nr:Datum:Temp:Feuchte:
Aussen-T/F 576 13-04-2020 23:52:16 4 C 25 %
577 14-04-2020 00:02:16 3.3 C 28 %
578 14-04-2020 00:12:16 4.1 C 25 %
579 14-04-2020 00:22:16 3.2 C 27 %
580 14-04-2020 00:32:16 3.3 C 27 %
581 14-04-2020 00:42:16 2.8 C 29 %
582 14-04-2020 00:52:16 2.9 C 29 %
583 14-04-2020 01:02:16 3.1 C 27 %
584 14-04-2020 01:12:16 3.4 C 27 %
585 14-04-2020 01:22:16 2.8 C 28 %
586 14-04-2020 01:32:16 2.1 C 30 %
587 14-04-2020 01:42:16 1.9 C 33 %
588 14-04-2020 01:52:16 1.2 C 35 %
589 14-04-2020 02:02:16 1.6 C 35 %
590 14-04-2020 02:12:16 1.3 C 35 %
591 14-04-2020 02:22:16 0.9 C 36 %
592 14-04-2020 02:32:16 0.8 C 36 %
593 14-04-2020 02:42:16 1.1 C 35 %
594 14-04-2020 02:52:18 1 C 35 %
595 14-04-2020 03:02:18 1.1 C 35 %
596 14-04-2020 03:12:18 1.1 C 35 %
597 14-04-2020 03:22:17 0.7 C 36 %
598 14-04-2020 03:32:18 1.1 C 36 %
599 14-04-2020 03:42:18 0.9 C 36 %
600 14-04-2020 03:52:17 1 C 35 %
Sensor: Nr:Datum:Temp:Feuchte:
Aussen-T/F 601 14-04-2020 04:02:18 0.9 C 36 %
602 14-04-2020 04:12:18 0.9 C 36 %
603 14-04-2020 04:22:17 0.6 C 36 %
604 14-04-2020 04:32:17 0.7 C 36 %
605 14-04-2020 04:42:17 0.7 C 36 %
606 14-04-2020 04:52:18 0.6 C 36 %
607 14-04-2020 05:02:17 0 C 37 %
608 14-04-2020 05:12:17 0 C 38 %
609 14-04-2020 05:22:17 0.6 C 38 %
610 14-04-2020 05:32:17 0.6 C 39 %
611 14-04-2020 05:42:17 0.7 C 39 %
612 14-04-2020 05:52:17 0 C 39 %
613 14-04-2020 06:02:17 -0.2 C 40 %
614 14-04-2020 06:12:17 -0.7 C 41 %
615 14-04-2020 06:22:17 -0.9 C 41 %
616 14-04-2020 06:32:17 -0.4 C 41 %
617 14-04-2020 06:42:17 -0.1 C 41 %
618 14-04-2020 06:52:17 0.5 C 41 %
619 14-04-2020 07:02:17 0.7 C 41 %
620 14-04-2020 07:12:17 1.1 C 40 %
621 14-04-2020 07:22:17 1.3 C 39 %
622 14-04-2020 07:32:17 1.6 C 39 %
623 14-04-2020 07:42:17 1.8 C 39 %
624 14-04-2020 07:52:18 2.1 C 37 %
625 14-04-2020 08:02:17 2.2 C 38 %
Sensor: Nr:Datum:Temp:Feuchte:
Aussen-T/F 626 14-04-2020 08:12:17 2.3 C 37 %
627 14-04-2020 08:22:18 1.7 C 39 %
628 14-04-2020 08:32:17 1.7 C 40 %
629 14-04-2020 08:42:17 2.2 C 38 %
630 14-04-2020 08:52:17 2.4 C 38 %
631 14-04-2020 09:02:18 3 C 37 %
632 14-04-2020 09:12:18 3.8 C 36 %
633 14-04-2020 09:22:17 4.7 C 34 %
634 14-04-2020 09:32:18 5.7 C 32 %
635 14-04-2020 09:42:18 5.3 C 31 %
636 14-04-2020 09:52:17 6 C 31 %
637 14-04-2020 10:02:17 6.6 C 30 %
638 14-04-2020 10:12:17 5.8 C 30 %
639 14-04-2020 10:22:17 5.9 C 30 %
640 14-04-2020 10:32:17 6.7 C 30 %
641 14-04-2020 10:42:17 7.4 C 26 %
642 14-04-2020 10:52:18 8.4 C 23 %
643 14-04-2020 11:02:17 8.2 C 21 %
644 14-04-2020 11:12:17 8 C 20 %
645 14-04-2020 11:22:17 7.9 C 20 %
646 14-04-2020 11:32:17 8.2 C 20 %
647 14-04-2020 11:42:17 9.1 C 20 %
648 14-04-2020 11:52:18 8.4 C 20 %
649 14-04-2020 12:02:17 8.5 C 20 %
650 14-04-2020 12:12:17 8.6 C 20 %
Sensor: Nr:Datum:Temp:Feuchte:
Aussen-T/F 651 14-04-2020 12:22:17 8.9 C 20 %
652 14-04-2020 12:32:17 8.6 C 20 %
653 14-04-2020 12:42:17 9.8 C 20 %
654 14-04-2020 12:52:17 10.6 C 20 %
655 14-04-2020 13:02:18 10.2 C 20 %
656 14-04-2020 13:12:18 10 C 20 %
657 14-04-2020 13:22:17 10.4 C 20 %
658 14-04-2020 13:32:17 10.7 C 20 %
659 14-04-2020 13:42:17 10 C 20 %
660 14-04-2020 13:52:18 9.5 C 20 %
661 14-04-2020 14:02:17 9.8 C 20 %
662 14-04-2020 14:12:18 10.3 C 20 %
663 14-04-2020 14:22:18 11.8 C 20 %
664 14-04-2020 14:32:18 14.5 C 20 %
665 14-04-2020 14:42:18 17.4 C 20 %
666 14-04-2020 14:52:17 16.8 C 20 %
667 14-04-2020 15:02:17 17.6 C 20 %
668 14-04-2020 15:12:18 21 C 20 %
669 14-04-2020 15:22:17 14.7 C 20 %
670 14-04-2020 15:32:17 16.7 C 20 %
671 14-04-2020 15:42:17 14 C 20 %
672 14-04-2020 15:52:17 14 C 20 %
673 14-04-2020 16:02:17 15 C 20 %
674 14-04-2020 16:12:17 17.2 C 20 %
675 14-04-2020 16:22:17 17.7 C 20 %
Sensor: Nr:Datum:Temp:Feuchte:
Aussen-T/F 676 14-04-2020 16:32:18 16.3 C 20 %
677 14-04-2020 16:42:18 14 C 20 %
678 14-04-2020 16:52:17 14.5 C 20 %
679 14-04-2020 17:02:18 12.2 C 20 %
680 14-04-2020 17:12:18 14.2 C 20 %
681 14-04-2020 17:22:17 19.2 C 20 %
682 14-04-2020 17:32:17 16.8 C 20 %
683 14-04-2020 17:42:18 15.5 C 20 %
684 14-04-2020 17:52:17 16 C 20 %
685 14-04-2020 18:02:18 13.4 C 20 %
686 14-04-2020 18:12:18 12.4 C 20 %
687 14-04-2020 18:22:17 12.1 C 20 %
688 14-04-2020 18:32:18 11.9 C 20 %
689 14-04-2020 18:42:18 11.7 C 20 %
690 14-04-2020 18:52:17 11.3 C 20 %
691 14-04-2020 19:02:17 11.2 C 20 %
692 14-04-2020 19:12:18 11 C 20 %
693 14-04-2020 19:22:18 10.6 C 20 %
694 14-04-2020 19:32:18 10.3 C 20 %
695 14-04-2020 19:42:18 10.1 C 20 %
696 14-04-2020 19:52:17 9.7 C 20 %
697 14-04-2020 20:02:17 9.3 C 20 %
698 14-04-2020 20:12:17 8.9 C 20 %
699 14-04-2020 20:22:17 7.7 C 20 %
700 14-04-2020 20:32:17 7 C 23 %
Sensor: Nr:Datum:Temp:Feuchte:
Aussen-T/F 701 14-04-2020 20:42:18 6.7 C 25 %
702 14-04-2020 20:52:17 6.8 C 25 %
703 14-04-2020 21:02:17 6.5 C 25 %
704 14-04-2020 21:12:17 6.3 C 25 %
705 14-04-2020 21:22:17 6 C 26 %
706 14-04-2020 21:32:17 6.1 C 26 %
707 14-04-2020 21:42:17 5.8 C 27 %
708 14-04-2020 21:52:17 5.6 C 27 %
709 14-04-2020 22:02:18 5.6 C 27 %
710 14-04-2020 22:12:18 5.1 C 29 %
711 14-04-2020 22:22:17 5.2 C 28 %
712 14-04-2020 22:32:18 5 C 29 %
713 14-04-2020 22:42:18 4.7 C 30 %
714 14-04-2020 22:52:18 4.7 C 30 %
715 14-04-2020 23:02:18 4.3 C 32 %
716 14-04-2020 23:12:18 3.6 C 34 %
717 14-04-2020 23:22:17 3.2 C 35 %
718 14-04-2020 23:32:17 3 C 35 %
719 14-04-2020 23:42:17 2.8 C 36 %
720 14-04-2020 23:52:17 2.6 C 36 %
721 15-04-2020 00:02:18 2.4 C 37 %
722 15-04-2020 00:12:18 2.1 C 37 %
723 15-04-2020 00:22:17 1.7 C 39 %
724 15-04-2020 00:32:18 1.6 C 39 %
725 15-04-2020 00:42:18 1.6 C 40 %
Sensor: Nr:Datum:Temp:Feuchte:
Aussen-T/F 726 15-04-2020 00:52:17 1.6 C 39 %
727 15-04-2020 01:02:17 1.5 C 40 %
728 15-04-2020 01:12:17 1.3 C 40 %
729 15-04-2020 01:22:17 1.2 C 40 %
730 15-04-2020 01:32:17 1.3 C 40 %
731 15-04-2020 01:42:17 1.2 C 40 %
732 15-04-2020 01:52:17 1 C 40 %
733 15-04-2020 02:02:17 0.8 C 41 %
734 15-04-2020 02:12:17 0.8 C 42 %
735 15-04-2020 02:22:17 0.8 C 42 %
736 15-04-2020 02:32:17 0.7 C 42 %
737 15-04-2020 02:42:17 0.6 C 42 %
738 15-04-2020 02:52:17 0.1 C 42 %
739 15-04-2020 03:02:17 0.2 C 43 %
740 15-04-2020 03:12:17 0.3 C 43 %
741 15-04-2020 03:22:17 0.2 C 43 %
742 15-04-2020 03:32:18 0.5 C 43 %
743 15-04-2020 03:42:18 0.1 C 43 %
744 15-04-2020 03:52:18 0 C 43 %
745 15-04-2020 04:02:18 0.2 C 43 %
746 15-04-2020 04:12:18 -0.2 C 43 %
747 15-04-2020 04:22:17 0 C 44 %
748 15-04-2020 04:32:18 -0.2 C 43 %
749 15-04-2020 04:42:18 -0.3 C 44 %
750 15-04-2020 04:52:17 -0.4 C 44 %
Sensor: Nr:Datum:Temp:Feuchte:
Aussen-T/F 751 15-04-2020 05:02:18 -0.4 C 44 %
752 15-04-2020 05:12:18 -0.3 C 44 %
753 15-04-2020 05:22:17 -0.4 C 45 %
754 15-04-2020 05:32:17 -0.5 C 45 %
755 15-04-2020 05:42:17 -0.4 C 45 %
756 15-04-2020 05:52:17 -0.7 C 45 %
757 15-04-2020 06:02:17 -0.7 C 45 %
758 15-04-2020 06:12:17 -0.7 C 45 %
759 15-04-2020 06:22:17 -0.7 C 45 %
760 15-04-2020 06:32:17 -0.6 C 45 %
761 15-04-2020 06:42:17 -0.7 C 45 %
762 15-04-2020 06:52:17 -0.9 C 45 %
763 15-04-2020 07:02:17 -0.7 C 45 %
764 15-04-2020 07:12:17 -0.6 C 45 %
765 15-04-2020 07:22:17 -0.5 C 45 %
766 15-04-2020 07:32:17 -0.1 C 46 %
767 15-04-2020 07:42:17 0.1 C 45 %
768 15-04-2020 07:52:18 0.4 C 45 %
769 15-04-2020 08:02:17 0.7 C 45 %
770 15-04-2020 08:12:17 1 C 43 %
771 15-04-2020 08:22:18 1.4 C 42 %
772 15-04-2020 08:32:18 1.6 C 41 %
773 15-04-2020 08:42:18 1.9 C 41 %
774 15-04-2020 08:52:18 2.4 C 40 %
775 15-04-2020 09:02:17 2.8 C 40 %
Sensor: Nr:Datum:Temp:Feuchte:
Aussen-T/F 776 15-04-2020 09:12:17 3 C 38 %
777 15-04-2020 09:22:18 3.4 C 38 %
778 15-04-2020 09:32:18 3.5 C 37 %
779 15-04-2020 09:42:18 4.2 C 36 %
780 15-04-2020 09:52:17 4.4 C 36 %
781 15-04-2020 10:02:18 4.9 C 35 %
782 15-04-2020 10:12:18 5.4 C 35 %
783 15-04-2020 10:22:18 6.2 C 34 %
784 15-04-2020 10:32:18 6.9 C 33 %
785 15-04-2020 10:42:18 7.4 C 31 %
786 15-04-2020 10:52:18 8.1 C 30 %
787 15-04-2020 11:02:17 8.5 C 30 %
788 15-04-2020 11:12:17 9.2 C 29 %
789 15-04-2020 11:22:18 9.9 C 28 %
790 15-04-2020 11:32:17 10.4 C 26 %
791 15-04-2020 11:42:17 11 C 22 %
792 15-04-2020 11:52:18 11.6 C 20 %
793 15-04-2020 12:02:17 12.3 C 20 %
794 15-04-2020 12:12:17 12.2 C 20 %
795 15-04-2020 12:22:18 13.3 C 20 %
796 15-04-2020 12:32:18 13.2 C 20 %
797 15-04-2020 12:42:18 13.3 C 20 %
798 15-04-2020 12:52:17 13.2 C 20 %
799 15-04-2020 13:02:17 13.4 C 20 %
800 15-04-2020 13:12:17 13.5 C 20 %
Sensor: Nr:Datum:Temp:Feuchte:
Aussen-T/F 801 15-04-2020 13:22:18 13.4 C 20 %
802 15-04-2020 13:32:18 14.2 C 20 %
803 15-04-2020 13:42:18 14.4 C 20 %
804 15-04-2020 13:52:17 14.7 C 20 %
805 15-04-2020 14:02:17 15.2 C 20 %
806 15-04-2020 14:12:17 15.5 C 20 %
807 15-04-2020 14:22:17 16.9 C 20 %
808 15-04-2020 14:32:17 21.6 C 20 %
809 15-04-2020 14:42:17 23.9 C 20 %
810 15-04-2020 14:52:17 25.2 C 20 %
811 15-04-2020 15:02:18 24.8 C 20 %
812 15-04-2020 15:12:18 23.5 C 20 %
813 15-04-2020 15:22:18 24.4 C 20 %
814 15-04-2020 15:32:18 23.9 C 20 %
815 15-04-2020 15:42:18 24.5 C 20 %
816 15-04-2020 15:52:17 24.4 C 20 %
817 15-04-2020 16:02:18 24.8 C 20 %
818 15-04-2020 16:12:18 24.6 C 20 %
819 15-04-2020 16:22:17 23.3 C 20 %
820 15-04-2020 16:32:18 23.7 C 20 %
821 15-04-2020 16:42:18 25.4 C 20 %
822 15-04-2020 16:52:18 25.9 C 20 %
823 15-04-2020 17:02:17 25.4 C 20 %
824 15-04-2020 17:12:17 26.8 C 20 %
825 15-04-2020 17:22:18 24.8 C 20 %
Sensor: Nr:Datum:Temp:Feuchte:
Aussen-T/F 826 15-04-2020 17:32:17 24 C 20 %
827 15-04-2020 17:42:17 22.4 C 20 %
828 15-04-2020 17:52:18 24.4 C 20 %
829 15-04-2020 18:02:18 20.6 C 20 %
830 15-04-2020 18:12:18 20.2 C 20 %
831 15-04-2020 18:22:18 19.7 C 20 %
832 15-04-2020 18:32:18 19.1 C 20 %
833 15-04-2020 18:42:18 19.4 C 20 %
834 15-04-2020 18:52:17 19.4 C 20 %
835 15-04-2020 19:02:17 18.8 C 20 %
836 15-04-2020 19:12:17 18.7 C 20 %
837 15-04-2020 19:22:17 18.2 C 20 %
838 15-04-2020 19:32:17 18 C 20 %
839 15-04-2020 19:42:18 17.3 C 20 %
840 15-04-2020 19:52:17 15.3 C 20 %
841 15-04-2020 20:02:18 14 C 20 %
842 15-04-2020 20:12:18 13.6 C 20 %
843 15-04-2020 20:22:18 13.4 C 20 %
844 15-04-2020 20:32:17 13.1 C 20 %
845 15-04-2020 20:42:18 12.7 C 20 %
846 15-04-2020 20:52:17 12 C 20 %
847 15-04-2020 21:02:18 12 C 20 %
848 15-04-2020 21:12:18 11 C 20 %
849 15-04-2020 21:22:17 11 C 20 %
850 15-04-2020 21:32:17 10.5 C 20 %
Sensor: Nr:Datum:Temp:Feuchte:
Aussen-T/F 851 15-04-2020 21:42:17 9.4 C 25 %
852 15-04-2020 21:52:17 9 C 26 %
853 15-04-2020 22:02:17 8.9 C 27 %
854 15-04-2020 22:12:17 8.6 C 28 %
855 15-04-2020 22:22:17 8.8 C 28 %
856 15-04-2020 22:32:18 8.1 C 28 %
857 15-04-2020 22:42:18 7.7 C 29 %
858 15-04-2020 22:52:17 7.3 C 30 %
859 15-04-2020 23:02:17 7.1 C 30 %
860 15-04-2020 23:12:17 7.2 C 30 %
861 15-04-2020 23:22:17 7 C 30 %
862 15-04-2020 23:32:17 6.6 C 31 %
863 15-04-2020 23:42:18 6.4 C 32 %
864 15-04-2020 23:52:17 6.2 C 32 %
865 16-04-2020 00:02:17 6.2 C 32 %
866 16-04-2020 00:12:17 6 C 33 %
867 16-04-2020 00:22:17 5.8 C 34 %
868 16-04-2020 00:32:18 5.5 C 35 %
869 16-04-2020 00:42:18 5.3 C 35 %
870 16-04-2020 00:52:17 5.2 C 35 %
871 16-04-2020 01:02:17 4.8 C 35 %
872 16-04-2020 01:12:17 4.8 C 35 %
873 16-04-2020 01:22:17 5.1 C 35 %
874 16-04-2020 01:32:18 5.1 C 35 %
875 16-04-2020 01:42:18 4.7 C 36 %
Sensor: Nr:Datum:Temp:Feuchte:
Aussen-T/F 876 16-04-2020 01:52:17 4.8 C 36 %
877 16-04-2020 02:02:18 4.6 C 36 %
878 16-04-2020 02:12:18 4.3 C 36 %
879 16-04-2020 02:22:18 3.9 C 38 %
880 16-04-2020 02:32:17 4.1 C 38 %
881 16-04-2020 02:42:17 4 C 38 %
882 16-04-2020 02:52:17 3.7 C 39 %
883 16-04-2020 03:02:17 3.6 C 40 %
884 16-04-2020 03:12:17 3.6 C 39 %
885 16-04-2020 03:22:17 3.5 C 39 %
886 16-04-2020 03:32:17 3.3 C 39 %
887 16-04-2020 03:42:17 3 C 40 %
888 16-04-2020 03:52:17 2.9 C 41 %
889 16-04-2020 04:02:17 3.2 C 40 %
890 16-04-2020 04:12:17 3.2 C 40 %
891 16-04-2020 04:22:17 2.7 C 41 %
892 16-04-2020 04:32:18 2.6 C 41 %
893 16-04-2020 04:42:18 3 C 41 %
894 16-04-2020 04:52:17 2.6 C 42 %
895 16-04-2020 05:02:17 2.7 C 42 %
896 16-04-2020 05:12:17 2.7 C 42 %
897 16-04-2020 05:22:17 2.6 C 42 %
898 16-04-2020 05:32:17 2.3 C 42 %
899 16-04-2020 05:42:17 2 C 42 %
900 16-04-2020 05:52:17 2.1 C 43 %
Sensor: Nr:Datum:Temp:Feuchte:
Aussen-T/F 901 16-04-2020 06:02:18 2.4 C 43 %
902 16-04-2020 06:12:18 2 C 42 %
903 16-04-2020 06:22:17 1.6 C 44 %
904 16-04-2020 06:32:17 1.4 C 44 %
905 16-04-2020 06:42:17 1.8 C 45 %
906 16-04-2020 06:52:17 1.8 C 45 %
907 16-04-2020 07:02:17 1.8 C 45 %
908 16-04-2020 07:12:17 1.8 C 45 %
909 16-04-2020 07:22:17 2.2 C 44 %
910 16-04-2020 07:32:17 2.1 C 44 %
911 16-04-2020 07:42:17 2.1 C 44 %
912 16-04-2020 07:52:17 2.5 C 44 %
913 16-04-2020 08:02:17 2.5 C 44 %
914 16-04-2020 08:12:17 2.6 C 44 %
915 16-04-2020 08:22:17 3 C 43 %
916 16-04-2020 08:32:18 3.2 C 42 %
917 16-04-2020 08:42:18 3.5 C 42 %
918 16-04-2020 08:52:17 3.6 C 41 %
919 16-04-2020 09:02:18 3.9 C 41 %
920 16-04-2020 09:12:18 4.2 C 41 %
921 16-04-2020 09:22:17 4.5 C 40 %
922 16-04-2020 09:32:17 5.1 C 40 %
923 16-04-2020 09:42:17 5.8 C 39 %
924 16-04-2020 09:52:17 6.6 C 37 %
925 16-04-2020 10:02:18 7 C 36 %
Sensor: Nr:Datum:Temp:Feuchte:
Aussen-T/F 926 16-04-2020 10:12:18 7.5 C 36 %
927 16-04-2020 10:22:17 8.1 C 35 %
928 16-04-2020 10:32:17 9.4 C 34 %
929 16-04-2020 10:42:18 10.4 C 31 %
930 16-04-2020 10:52:17 11.2 C 30 %
931 16-04-2020 11:02:18 12.2 C 29 %
932 16-04-2020 11:12:18 14.2 C 25 %
933 16-04-2020 11:22:17 15.5 C 20 %
934 16-04-2020 11:32:17 16.8 C 20 %
935 16-04-2020 11:42:17 17.6 C 20 %
936 16-04-2020 11:52:17 18 C 20 %
937 16-04-2020 12:02:18 18.4 C 20 %
938 16-04-2020 12:12:18 18.7 C 20 %
939 16-04-2020 12:22:17 19.1 C 20 %
940 16-04-2020 12:32:18 19.3 C 20 %
941 16-04-2020 12:42:18 19.5 C 20 %
942 16-04-2020 12:52:17 19.6 C 20 %
943 16-04-2020 13:02:18 20.1 C 20 %
944 16-04-2020 13:12:18 20.5 C 20 %
945 16-04-2020 13:22:17 20.8 C 20 %
946 16-04-2020 13:32:18 21.1 C 20 %
947 16-04-2020 13:42:18 21.5 C 20 %
948 16-04-2020 13:52:17 21.7 C 20 %
949 16-04-2020 14:02:17 22 C 20 %
950 16-04-2020 14:12:17 22.4 C 20 %
Sensor: Nr:Datum:Temp:Feuchte:
Aussen-T/F 951 16-04-2020 14:22:17 22.8 C 20 %
952 16-04-2020 14:32:17 26.2 C 20 %
953 16-04-2020 14:42:17 28 C 20 %
954 16-04-2020 14:52:17 29.6 C 20 %
955 16-04-2020 15:02:17 29.8 C 20 %
956 16-04-2020 15:12:17 29.5 C 20 %
957 16-04-2020 15:22:17 28.5 C 20 %
958 16-04-2020 15:32:18 30.1 C 20 %
959 16-04-2020 15:42:18 25.8 C 20 %
960 16-04-2020 15:52:17 27.1 C 20 %
961 16-04-2020 16:02:17 29.5 C 20 %
962 16-04-2020 16:12:17 28.4 C 20 %
963 16-04-2020 16:22:17 26.5 C 20 %
964 16-04-2020 16:32:17 26.6 C 20 %
965 16-04-2020 16:42:18 27.2 C 20 %
966 16-04-2020 16:52:17 24.9 C 20 %
967 16-04-2020 17:02:17 25 C 20 %
968 16-04-2020 17:12:17 26.1 C 20 %
969 16-04-2020 17:22:18 28.3 C 20 %
970 16-04-2020 17:32:17 27.6 C 20 %
971 16-04-2020 17:42:17 27.3 C 20 %
972 16-04-2020 17:52:17 26.5 C 20 %
973 16-04-2020 18:02:17 25.6 C 20 %
974 16-04-2020 18:12:17 24.3 C 20 %
975 16-04-2020 18:22:17 24.4 C 20 %
Sensor: Nr:Datum:Temp:Feuchte:
Aussen-T/F 976 16-04-2020 18:32:17 24.2 C 20 %
977 16-04-2020 18:42:17 23.9 C 20 %
978 16-04-2020 18:52:17 24 C 20 %
979 16-04-2020 19:02:17 23.2 C 20 %
980 16-04-2020 19:12:17 22.9 C 20 %
981 16-04-2020 19:22:17 22.2 C 20 %
982 16-04-2020 19:32:18 21.9 C 20 %
983 16-04-2020 19:42:18 21.2 C 20 %
984 16-04-2020 19:52:17 20.5 C 20 %
985 16-04-2020 20:02:17 19.5 C 20 %
986 16-04-2020 20:12:17 19.2 C 20 %
987 16-04-2020 20:22:17 19.3 C 20 %
988 16-04-2020 20:32:18 19.1 C 20 %
989 16-04-2020 20:42:18 18.9 C 20 %
990 16-04-2020 20:52:18 18.5 C 20 %
991 16-04-2020 21:02:17 17.9 C 20 %
992 16-04-2020 21:12:17 16.5 C 20 %
993 16-04-2020 21:22:17 16.1 C 20 %
994 16-04-2020 21:32:18 15.5 C 20 %
995 16-04-2020 21:42:18 14.7 C 21 %
996 16-04-2020 21:52:17 14.4 C 22 %
997 16-04-2020 22:02:17 14.5 C 22 %
998 16-04-2020 22:12:17 13.5 C 25 %
999 16-04-2020 22:22:17 14.1 C 25 %
1000 16-04-2020 22:32:17 13.8 C 25 %
Sensor: Nr:Datum:Temp:Feuchte:
Aussen-T/F 1001 16-04-2020 22:42:18 13.1 C 26 %
1002 16-04-2020 22:52:17 12.4 C 28 %
1003 16-04-2020 23:02:17 12.5 C 29 %
1004 16-04-2020 23:12:17 12.2 C 30 %
1005 16-04-2020 23:22:17 11.7 C 30 %
1006 16-04-2020 23:32:18 11.6 C 31 %
1007 16-04-2020 23:42:18 11.6 C 31 %
1008 16-04-2020 23:52:17 11.8 C 31 %
1009 17-04-2020 00:02:18 11.4 C 31 %
1010 17-04-2020 00:12:18 11 C 31 %
1011 17-04-2020 00:22:17 11 C 32 %
1012 17-04-2020 00:32:17 11 C 32 %
1013 17-04-2020 00:42:17 11 C 32 %
1014 17-04-2020 00:52:18 10.4 C 33 %
1015 17-04-2020 01:02:17 10.1 C 34 %
1016 17-04-2020 01:12:18 10.1 C 34 %
1017 17-04-2020 01:22:18 9.8 C 35 %
1018 17-04-2020 01:32:18 10 C 35 %
1019 17-04-2020 01:42:18 10 C 35 %
1020 17-04-2020 01:52:17 9.5 C 36 %
1021 17-04-2020 02:02:17 9.7 C 36 %
1022 17-04-2020 02:12:17 9.6 C 36 %
1023 17-04-2020 02:22:17 9.1 C 36 %
1024 17-04-2020 02:32:17 8.9 C 37 %
1025 17-04-2020 02:42:17 8.5 C 38 %
Sensor: Nr:Datum:Temp:Feuchte:
Aussen-T/F 1026 17-04-2020 02:52:17 8.1 C 38 %
1027 17-04-2020 03:02:17 7.9 C 39 %
1028 17-04-2020 03:12:18 7.9 C 40 %
1029 17-04-2020 03:22:18 7.8 C 40 %
1030 17-04-2020 03:32:17 7.8 C 40 %
1031 17-04-2020 03:42:18 7.8 C 40 %
1032 17-04-2020 03:52:18 8.5 C 39 %
1033 17-04-2020 04:02:17 8.4 C 39 %
1034 17-04-2020 04:12:17 8.3 C 39 %
1035 17-04-2020 04:22:17 8 C 39 %
1036 17-04-2020 04:32:17 7.9 C 40 %
1037 17-04-2020 04:42:17 8 C 40 %
1038 17-04-2020 04:52:17 7.8 C 40 %
1039 17-04-2020 05:02:17 7.5 C 40 %
1040 17-04-2020 05:12:18 6.9 C 41 %
1041 17-04-2020 05:22:17 6.7 C 42 %
1042 17-04-2020 05:32:18 6.6 C 42 %
1043 17-04-2020 05:42:18 6.7 C 43 %
1044 17-04-2020 05:52:18 6.5 C 42 %
1045 17-04-2020 06:02:18 6.5 C 43 %
1046 17-04-2020 06:12:18 6.2 C 43 %
1047 17-04-2020 06:22:17 6 C 43 %
1048 17-04-2020 06:32:17 6 C 44 %
1049 17-04-2020 06:42:17 5.8 C 44 %
1050 17-04-2020 06:52:17 5.8 C 44 %
Sensor: Nr:Datum:Temp:Feuchte:
Aussen-T/F 1051 17-04-2020 07:02:18 5.8 C 45 %
1052 17-04-2020 07:12:18 5.9 C 45 %
1053 17-04-2020 07:22:18 6.1 C 45 %
1054 17-04-2020 07:32:17 6.1 C 45 %
1055 17-04-2020 07:42:17 6.3 C 45 %
1056 17-04-2020 07:52:17 6.3 C 45 %
1057 17-04-2020 08:02:17 6.5 C 45 %
1058 17-04-2020 08:12:17 6.7 C 45 %
1059 17-04-2020 08:22:17 6.9 C 45 %
1060 17-04-2020 08:32:18 7 C 44 %
1061 17-04-2020 08:42:18 7.6 C 44 %
1062 17-04-2020 08:52:17 7.9 C 44 %
1063 17-04-2020 09:02:18 8.4 C 42 %
1064 17-04-2020 09:12:18 8.6 C 42 %
1065 17-04-2020 09:22:17 8.8 C 41 %
1066 17-04-2020 09:32:17 9.3 C 41 %
1067 17-04-2020 09:42:17 9.6 C 40 %
1068 17-04-2020 09:52:18 10.3 C 39 %
1069 17-04-2020 10:02:17 10.8 C 38 %
1070 17-04-2020 10:12:17 11 C 37 %
1071 17-04-2020 10:22:18 11.8 C 36 %
1072 17-04-2020 10:32:18 12.4 C 35 %
1073 17-04-2020 10:42:18 13 C 34 %
1074 17-04-2020 10:52:17 13.9 C 34 %
1075 17-04-2020 11:02:17 14.6 C 32 %
Sensor: Nr:Datum:Temp:Feuchte:
Aussen-T/F 1076 17-04-2020 11:12:17 15.8 C 30 %
1077 17-04-2020 11:22:18 16.5 C 28 %
1078 17-04-2020 11:32:17 17.1 C 28 %
1079 17-04-2020 11:42:17 17.7 C 26 %
1080 17-04-2020 11:52:17 17.9 C 25 %
1081 17-04-2020 12:02:18 18.5 C 25 %
1082 17-04-2020 12:12:18 18.7 C 24 %
1083 17-04-2020 12:22:17 19.1 C 22 %
1084 17-04-2020 12:32:17 19.7 C 20 %
1085 17-04-2020 12:42:17 19.7 C 20 %
1086 17-04-2020 12:52:17 19.7 C 20 %
1087 17-04-2020 13:02:18 20 C 20 %
1088 17-04-2020 13:12:18 20.4 C 20 %
1089 17-04-2020 13:22:17 20.6 C 20 %
1090 17-04-2020 13:32:17 20.8 C 20 %
1091 17-04-2020 13:42:17 21.1 C 20 %
1092 17-04-2020 13:52:17 21.6 C 20 %
1093 17-04-2020 14:02:18 21.8 C 20 %
1094 17-04-2020 14:12:18 22.6 C 20 %
1095 17-04-2020 14:22:17 23.2 C 20 %
1096 17-04-2020 14:32:17 25.2 C 20 %
1097 17-04-2020 14:42:17 29 C 20 %
1098 17-04-2020 14:52:17 32.1 C 20 %
1099 17-04-2020 15:02:17 30.9 C 20 %
1100 17-04-2020 15:12:17 31.4 C 20 %
Sensor: Nr:Datum:Temp:Feuchte:
Aussen-T/F 1101 17-04-2020 15:22:17 29.6 C 20 %
1102 17-04-2020 15:32:17 29.2 C 20 %
1103 17-04-2020 15:42:17 29 C 20 %
1104 17-04-2020 15:52:18 25.7 C 20 %
1105 17-04-2020 16:02:17 30.3 C 20 %
1106 17-04-2020 16:12:17 30.2 C 20 %
1107 17-04-2020 16:22:17 27.5 C 20 %
1108 17-04-2020 16:32:17 28.2 C 20 %
1109 17-04-2020 16:42:17 28.2 C 20 %
1110 17-04-2020 16:52:17 27.7 C 20 %
1111 17-04-2020 17:02:18 29.6 C 20 %
1112 17-04-2020 17:12:18 29.4 C 20 %
1113 17-04-2020 17:22:17 29.5 C 20 %
1114 17-04-2020 17:32:17 30.4 C 20 %
1115 17-04-2020 17:42:18 27.7 C 20 %
1116 17-04-2020 17:52:17 28.5 C 20 %
1117 17-04-2020 18:02:17 26.6 C 20 %
1118 17-04-2020 18:12:17 26.2 C 20 %
1119 17-04-2020 18:22:17 25.7 C 20 %
1120 17-04-2020 18:32:17 24.8 C 20 %
1121 17-04-2020 18:42:17 24.7 C 20 %
1122 17-04-2020 18:52:18 24.2 C 20 %
1123 17-04-2020 19:02:17 24.1 C 20 %
1124 17-04-2020 19:12:17 23.7 C 20 %
1125 17-04-2020 19:22:17 23 C 20 %
Sensor: Nr:Datum:Temp:Feuchte:
Aussen-T/F 1126 17-04-2020 19:32:17 22.2 C 20 %
1127 17-04-2020 19:42:17 21.7 C 20 %
1128 17-04-2020 19:52:17 20.7 C 20 %
1129 17-04-2020 20:02:17 20 C 20 %
1130 17-04-2020 20:12:17 19.5 C 20 %
1131 17-04-2020 20:22:17 18.8 C 21 %
1132 17-04-2020 20:32:17 18.4 C 21 %
1133 17-04-2020 20:42:17 18.2 C 21 %
1134 17-04-2020 20:52:17 17.7 C 23 %
1135 17-04-2020 21:02:17 17.5 C 23 %
1136 17-04-2020 21:12:17 17.7 C 24 %
1137 17-04-2020 21:22:17 17.6 C 25 %
1138 17-04-2020 21:32:18 17.8 C 24 %
1139 17-04-2020 21:42:18 17 C 25 %
1140 17-04-2020 21:52:18 16.8 C 25 %
1141 17-04-2020 22:02:17 16 C 26 %
1142 17-04-2020 22:12:17 16 C 26 %
1143 17-04-2020 22:22:17 15.8 C 26 %
1144 17-04-2020 22:32:17 15.7 C 26 %
1145 17-04-2020 22:42:17 15.1 C 27 %
1146 17-04-2020 22:52:17 14.6 C 29 %
1147 17-04-2020 23:02:17 14.7 C 30 %
1148 17-04-2020 23:12:17 14.4 C 29 %
1149 17-04-2020 23:22:18 14.1 C 30 %
1150 17-04-2020 23:32:17 14 C 30 %
Sensor: Nr:Datum:Temp:Feuchte:
Aussen-T/F 1151 17-04-2020 23:42:17 13.6 C 31 %
1152 17-04-2020 23:52:17 13.5 C 31 %
1153 18-04-2020 00:02:17 13.4 C 31 %
1154 18-04-2020 00:12:17 13.1 C 32 %
1155 18-04-2020 00:22:18 12.6 C 33 %
1156 18-04-2020 00:32:17 12.2 C 33 %
1157 18-04-2020 00:42:18 12 C 33 %
1158 18-04-2020 00:52:17 11.8 C 34 %
1159 18-04-2020 01:02:18 11.8 C 34 %
1160 18-04-2020 01:12:18 11.8 C 34 %
1161 18-04-2020 01:22:17 11.4 C 34 %
1162 18-04-2020 01:32:18 11.1 C 35 %
1163 18-04-2020 01:42:18 10.9 C 36 %
1164 18-04-2020 01:52:17 10.9 C 36 %
1165 18-04-2020 02:02:18 10.8 C 36 %
1166 18-04-2020 02:12:18 10.6 C 36 %
1167 18-04-2020 02:22:17 10.7 C 36 %
1168 18-04-2020 02:32:17 10.1 C 37 %
1169 18-04-2020 02:42:17 10 C 38 %
1170 18-04-2020 02:52:18 9.8 C 38 %
1171 18-04-2020 03:02:17 9.7 C 39 %
1172 18-04-2020 03:12:17 9.6 C 39 %
1173 18-04-2020 03:22:18 9.2 C 39 %
1174 18-04-2020 03:32:18 9 C 39 %
1175 18-04-2020 03:42:18 9 C 39 %
Sensor: Nr:Datum:Temp:Feuchte:
Aussen-T/F 1176 18-04-2020 03:52:18 8.9 C 40 %
1177 18-04-2020 04:02:17 9 C 40 %
1178 18-04-2020 04:12:17 9 C 40 %
1179 18-04-2020 04:22:17 9 C 40 %
1180 18-04-2020 04:32:18 8.9 C 41 %
1181 18-04-2020 04:42:18 8.8 C 41 %
1182 18-04-2020 04:52:17 8.6 C 41 %
1183 18-04-2020 05:02:17 8.4 C 41 %
1184 18-04-2020 05:12:17 8.5 C 41 %
1185 18-04-2020 05:22:17 8.7 C 40 %
1186 18-04-2020 05:32:17 8.6 C 41 %
1187 18-04-2020 05:42:17 8.3 C 41 %
1188 18-04-2020 05:52:18 8.6 C 41 %
1189 18-04-2020 06:02:17 8.7 C 41 %
1190 18-04-2020 06:12:17 8.6 C 41 %
1191 18-04-2020 06:22:17 8.7 C 41 %
1192 18-04-2020 06:32:17 8.3 C 41 %
1193 18-04-2020 06:42:17 8.1 C 41 %
1194 18-04-2020 06:52:17 8.2 C 41 %
1195 18-04-2020 07:02:17 8.4 C 42 %
1196 18-04-2020 07:12:17 8.7 C 42 %
1197 18-04-2020 07:22:17 9.4 C 42 %
1198 18-04-2020 07:32:17 9.6 C 41 %
1199 18-04-2020 07:42:17 9.7 C 41 %
1200 18-04-2020 07:52:17 9.7 C 41 %
Sensor: Nr:Datum:Temp:Feuchte:
Aussen-T/F 1201 18-04-2020 08:02:18 9.7 C 41 %
1202 18-04-2020 08:12:18 10 C 40 %
1203 18-04-2020 08:22:17 10.1 C 40 %
1204 18-04-2020 08:32:17 10.2 C 40 %
1205 18-04-2020 08:42:18 10.6 C 40 %
1206 18-04-2020 08:52:18 11.1 C 39 %
1207 18-04-2020 09:02:17 11.7 C 38 %
1208 18-04-2020 09:12:17 12.1 C 37 %
1209 18-04-2020 09:22:17 12.5 C 36 %
1210 18-04-2020 09:32:18 13.4 C 35 %
1211 18-04-2020 09:42:18 13.8 C 34 %
1212 18-04-2020 09:52:18 14.4 C 32 %
1213 18-04-2020 10:02:18 15 C 31 %
1214 18-04-2020 10:12:18 14.9 C 31 %
1215 18-04-2020 10:22:18 16.2 C 30 %
1216 18-04-2020 10:32:18 15.8 C 30 %
1217 18-04-2020 10:42:18 17.2 C 29 %
1218 18-04-2020 10:52:18 17.9 C 29 %
1219 18-04-2020 11:02:18 18.5 C 27 %
1220 18-04-2020 11:12:18 18.3 C 27 %
1221 18-04-2020 11:22:17 18.5 C 26 %
1222 18-04-2020 11:32:18 17.8 C 27 %
1223 18-04-2020 11:42:18 18.6 C 26 %
1224 18-04-2020 11:52:18 18.9 C 27 %
1225 18-04-2020 12:02:17 19.1 C 26 %
Sensor: Nr:Datum:Temp:Feuchte:
Aussen-T/F 1226 18-04-2020 12:12:17 20 C 25 %
1227 18-04-2020 12:22:18 20.2 C 24 %
1228 18-04-2020 12:32:18 20.1 C 24 %
1229 18-04-2020 12:42:18 19.6 C 25 %
1230 18-04-2020 12:52:17 19.3 C 25 %
1231 18-04-2020 13:02:17 20.8 C 24 %
1232 18-04-2020 13:12:17 21.8 C 21 %
1233 18-04-2020 13:22:18 21.5 C 20 %
1234 18-04-2020 13:32:18 21.8 C 20 %
1235 18-04-2020 13:42:18 22.4 C 20 %
1236 18-04-2020 13:52:18 21.6 C 20 %
1237 18-04-2020 14:02:18 21.2 C 20 %
1238 18-04-2020 14:12:18 21.7 C 20 %
1239 18-04-2020 14:22:18 22.4 C 20 %
1240 18-04-2020 14:32:17 22.4 C 20 %
1241 18-04-2020 14:42:17 22.8 C 20 %
1242 18-04-2020 14:52:17 22.6 C 20 %
1243 18-04-2020 15:02:17 25.4 C 20 %
1244 18-04-2020 15:12:18 30.4 C 20 %
1245 18-04-2020 15:22:17 28.2 C 20 %
1246 18-04-2020 15:32:17 23.8 C 20 %
1247 18-04-2020 15:42:17 23.2 C 20 %
1248 18-04-2020 15:52:17 22.2 C 20 %
1249 18-04-2020 16:02:18 21.8 C 20 %
1250 18-04-2020 16:12:18 21.8 C 20 %
Sensor: Nr:Datum:Temp:Feuchte:
Aussen-T/F 1251 18-04-2020 16:22:18 20.6 C 20 %
1252 18-04-2020 16:32:17 19.7 C 25 %
1253 18-04-2020 16:42:17 20 C 25 %
1254 18-04-2020 16:52:17 19.9 C 25 %
1255 18-04-2020 17:02:17 19.1 C 26 %
1256 18-04-2020 17:12:17 18.9 C 27 %
1257 18-04-2020 17:22:17 18.7 C 28 %
1258 18-04-2020 17:32:18 17.6 C 33 %
1259 18-04-2020 17:42:18 17.5 C 33 %
1260 18-04-2020 17:52:18 17.4 C 33 %
1261 18-04-2020 18:02:18 17.3 C 34 %
1262 18-04-2020 18:12:18 17.1 C 34 %
1263 18-04-2020 18:22:17 17.3 C 33 %
1264 18-04-2020 18:32:18 17.7 C 31 %
1265 18-04-2020 18:42:18 17.7 C 31 %
1266 18-04-2020 18:52:17 17.9 C 30 %
1267 18-04-2020 19:02:18 18.1 C 30 %
1268 18-04-2020 19:12:18 17.9 C 30 %
1269 18-04-2020 19:22:17 17.6 C 30 %
1270 18-04-2020 19:32:17 17.8 C 30 %
1271 18-04-2020 19:42:17 18.1 C 29 %
1272 18-04-2020 19:52:18 17.7 C 30 %
1273 18-04-2020 20:02:17 17.3 C 30 %
1274 18-04-2020 20:12:17 16.5 C 30 %
1275 18-04-2020 20:22:17 15.9 C 31 %
Sensor: Nr:Datum:Temp:Feuchte:
Aussen-T/F 1276 18-04-2020 20:32:17 15 C 32 %
1277 18-04-2020 20:42:17 14.8 C 34 %
1278 18-04-2020 20:52:17 14.5 C 34 %
1279 18-04-2020 21:02:18 14.5 C 35 %
1280 18-04-2020 21:12:18 14.9 C 34 %
1281 18-04-2020 21:22:17 15 C 33 %
1282 18-04-2020 21:32:17 15.1 C 33 %
1283 18-04-2020 21:42:17 15 C 33 %
1284 18-04-2020 21:52:18 14.8 C 34 %
1285 18-04-2020 22:02:17 14.4 C 34 %
1286 18-04-2020 22:12:17 14.5 C 35 %
1287 18-04-2020 22:22:17 13.7 C 35 %
1288 18-04-2020 22:32:18 13.4 C 36 %
1289 18-04-2020 22:42:18 12.8 C 37 %
1290 18-04-2020 22:52:17 12.8 C 37 %
1291 18-04-2020 23:02:18 12.7 C 38 %
1292 18-04-2020 23:12:18 12.3 C 38 %
1293 18-04-2020 23:22:17 12.1 C 38 %
1294 18-04-2020 23:32:17 11.7 C 40 %
1295 18-04-2020 23:42:17 11.1 C 40 %
1296 18-04-2020 23:52:17 10.9 C 42 %
1297 19-04-2020 00:02:18 10.6 C 43 %
1298 19-04-2020 00:12:18 10.7 C 43 %
1299 19-04-2020 00:22:17 10.2 C 43 %
1300 19-04-2020 00:32:17 10.2 C 43 %
Sensor: Nr:Datum:Temp:Feuchte:
Aussen-T/F 1301 19-04-2020 00:42:17 10.1 C 44 %
1302 19-04-2020 00:52:17 9.8 C 44 %
1303 19-04-2020 01:02:17 9.8 C 45 %
1304 19-04-2020 01:12:17 9.9 C 45 %
1305 19-04-2020 01:22:17 9.6 C 44 %
1306 19-04-2020 01:32:17 9.6 C 45 %
1307 19-04-2020 01:42:17 9.9 C 45 %
1308 19-04-2020 01:52:17 9.5 C 45 %
1309 19-04-2020 02:02:17 9.5 C 45 %
1310 19-04-2020 02:12:18 9.6 C 45 %
1311 19-04-2020 02:22:17 9.7 C 45 %
1312 19-04-2020 02:32:17 10 C 45 %
1313 19-04-2020 02:42:17 10 C 44 %
1314 19-04-2020 02:52:17 9.8 C 45 %
1315 19-04-2020 03:02:17 9.6 C 45 %
1316 19-04-2020 03:12:17 9.3 C 44 %
1317 19-04-2020 03:22:17 9.1 C 45 %
1318 19-04-2020 03:32:17 8.9 C 45 %
1319 19-04-2020 03:42:17 8.7 C 45 %
1320 19-04-2020 03:52:17 8.7 C 45 %
1321 19-04-2020 04:02:17 8.5 C 45 %
1322 19-04-2020 04:12:17 9.2 C 45 %
1323 19-04-2020 04:22:17 9.2 C 45 %
1324 19-04-2020 04:32:17 9.4 C 45 %
1325 19-04-2020 04:42:17 9.6 C 45 %
Sensor: Nr:Datum:Temp:Feuchte:
Aussen-T/F 1326 19-04-2020 04:52:17 9.6 C 45 %
1327 19-04-2020 05:02:17 9.7 C 45 %
1328 19-04-2020 05:12:17 9.6 C 45 %
1329 19-04-2020 05:22:18 9.6 C 45 %
1330 19-04-2020 05:32:17 9.7 C 45 %
1331 19-04-2020 05:42:17 9.7 C 45 %
1332 19-04-2020 05:52:17 9.8 C 45 %
1333 19-04-2020 06:02:17 9.9 C 45 %
1334 19-04-2020 06:12:17 10.1 C 44 %
1335 19-04-2020 06:22:17 10.1 C 44 %
1336 19-04-2020 06:32:17 10.2 C 44 %
1337 19-04-2020 06:42:17 10.2 C 44 %
1338 19-04-2020 06:52:18 10.3 C 44 %
1339 19-04-2020 07:02:18 10.3 C 44 %
1340 19-04-2020 07:12:18 10.4 C 44 %
1341 19-04-2020 07:22:17 10.6 C 44 %
1342 19-04-2020 07:32:18 10.5 C 43 %
1343 19-04-2020 07:42:18 10.6 C 43 %
1344 19-04-2020 07:52:17 10.6 C 43 %
1345 19-04-2020 08:02:17 10.7 C 43 %
1346 19-04-2020 08:12:17 11.3 C 42 %
1347 19-04-2020 08:22:17 11.5 C 41 %
1348 19-04-2020 08:32:17 12 C 40 %
1349 19-04-2020 08:42:17 12.4 C 39 %
1350 19-04-2020 08:52:17 13.2 C 37 %
Sensor: Nr:Datum:Temp:Feuchte:
Aussen-T/F 1351 19-04-2020 09:02:17 12.5 C 38 %
1352 19-04-2020 09:12:18 13 C 37 %
1353 19-04-2020 09:22:18 13.2 C 36 %
1354 19-04-2020 09:32:17 13.5 C 36 %
1355 19-04-2020 09:42:17 13.8 C 36 %
1356 19-04-2020 09:52:17 13.8 C 35 %
1357 19-04-2020 10:02:17 13.7 C 35 %
1358 19-04-2020 10:12:17 14.2 C 35 %
1359 19-04-2020 10:22:17 14.7 C 34 %
1360 19-04-2020 10:32:17 15.5 C 33 %
1361 19-04-2020 10:42:17 16.4 C 31 %
1362 19-04-2020 10:52:17 16.4 C 31 %
1363 19-04-2020 11:02:17 15.7 C 32 %
1364 19-04-2020 11:12:17 14.7 C 33 %
1365 19-04-2020 11:22:17 14.7 C 33 %
1366 19-04-2020 11:32:17 14.4 C 34 %
1367 19-04-2020 11:42:17 14 C 34 %
1368 19-04-2020 11:52:17 13.8 C 35 %
1369 19-04-2020 12:02:17 14.2 C 34 %
1370 19-04-2020 12:12:17 14.7 C 34 %
1371 19-04-2020 12:22:17 16 C 31 %
1372 19-04-2020 12:32:18 16 C 31 %
1373 19-04-2020 12:42:18 16.3 C 30 %
1374 19-04-2020 12:52:17 16.9 C 30 %
1375 19-04-2020 13:02:17 17.4 C 28 %
Sensor: Nr:Datum:Temp:Feuchte:
Aussen-T/F 1376 19-04-2020 13:12:17 16.9 C 29 %
1377 19-04-2020 13:22:17 17.4 C 27 %
1378 19-04-2020 13:32:17 18.8 C 26 %
1379 19-04-2020 13:42:17 19.1 C 25 %
1380 19-04-2020 13:52:17 19.3 C 25 %
1381 19-04-2020 14:02:18 18.8 C 25 %
1382 19-04-2020 14:12:18 18.6 C 25 %
1383 19-04-2020 14:22:17 18.1 C 25 %
1384 19-04-2020 14:32:17 17.4 C 26 %
1385 19-04-2020 14:42:17 18 C 26 %
1386 19-04-2020 14:52:17 17.1 C 26 %
1387 19-04-2020 15:02:18 16.9 C 26 %
1388 19-04-2020 15:12:18 16.6 C 26 %
1389 19-04-2020 15:22:17 17 C 25 %
1390 19-04-2020 15:32:17 17.2 C 25 %
1391 19-04-2020 15:42:18 17.8 C 25 %
1392 19-04-2020 15:52:18 18.1 C 24 %
1393 19-04-2020 16:02:17 19.2 C 22 %
1394 19-04-2020 16:12:17 22.2 C 20 %
1395 19-04-2020 16:22:17 20.2 C 20 %
1396 19-04-2020 16:32:17 18.6 C 20 %
1397 19-04-2020 16:42:17 20.5 C 20 %
1398 19-04-2020 16:52:17 21.3 C 20 %
1399 19-04-2020 17:02:17 17.5 C 20 %
1400 19-04-2020 17:12:17 18.6 C 20 %
Sensor: Nr:Datum:Temp:Feuchte:
Aussen-T/F 1401 19-04-2020 17:22:17 19.7 C 20 %
1402 19-04-2020 17:32:18 18.9 C 20 %
1403 19-04-2020 17:42:18 19.2 C 20 %
1404 19-04-2020 17:52:17 18.6 C 20 %
1405 19-04-2020 18:02:18 17.4 C 20 %
1406 19-04-2020 18:12:18 17.3 C 20 %
1407 19-04-2020 18:22:17 17.3 C 20 %
1408 19-04-2020 18:32:17 17.3 C 20 %
1409 19-04-2020 18:42:17 16.8 C 20 %
1410 19-04-2020 18:52:17 16.8 C 20 %
1411 19-04-2020 19:02:17 16.8 C 20 %
1412 19-04-2020 19:12:17 16.7 C 20 %
1413 19-04-2020 19:22:17 16.3 C 20 %
1414 19-04-2020 19:32:18 16 C 20 %
1415 19-04-2020 19:42:18 15.6 C 20 %
1416 19-04-2020 19:52:17 15.1 C 20 %
1417 19-04-2020 20:02:18 14.7 C 20 %
1418 19-04-2020 20:12:18 13.7 C 23 %
1419 19-04-2020 20:22:17 13.3 C 24 %
1420 19-04-2020 20:32:17 13 C 25 %
1421 19-04-2020 20:42:17 12.5 C 26 %
1422 19-04-2020 20:52:17 12.3 C 26 %
1423 19-04-2020 21:02:18 12 C 26 %
1424 19-04-2020 21:12:18 12 C 26 %
1425 19-04-2020 21:22:17 11.7 C 27 %
Sensor: Nr:Datum:Temp:Feuchte:
Aussen-T/F 1426 19-04-2020 21:32:17 11.5 C 27 %
1427 19-04-2020 21:42:17 11.4 C 27 %
1428 19-04-2020 21:52:17 11 C 27 %
1429 19-04-2020 22:02:17 11.2 C 26 %
1430 19-04-2020 22:12:17 11 C 26 %
1431 19-04-2020 22:22:17 11.1 C 26 %
1432 19-04-2020 22:32:17 10.9 C 26 %
1433 19-04-2020 22:42:17 10.3 C 26 %
1434 19-04-2020 22:52:17 10.2 C 26 %
1435 19-04-2020 23:02:18 11.1 C 25 %
1436 19-04-2020 23:12:18 10.1 C 25 %
1437 19-04-2020 23:22:18 9.7 C 27 %
1438 19-04-2020 23:32:17 10.3 C 22 %
1439 19-04-2020 23:42:17 10.3 C 25 %
1440 19-04-2020 23:52:17 10.3 C 23 %
1441 20-04-2020 00:02:17 10.1 C 25 %
1442 20-04-2020 00:12:17 9.6 C 25 %
1443 20-04-2020 00:22:17 10.1 C 21 %
1444 20-04-2020 00:32:18 9.9 C 23 %
1445 20-04-2020 00:42:18 9.6 C 25 %
1446 20-04-2020 00:52:18 9.3 C 25 %
1447 20-04-2020 01:02:17 9.8 C 23 %
1448 20-04-2020 01:12:17 9.3 C 23 %
1449 20-04-2020 01:22:17 9.1 C 21 %
1450 20-04-2020 01:32:17 9.6 C 21 %
Sensor: Nr:Datum:Temp:Feuchte:
Aussen-T/F 1451 20-04-2020 01:42:17 9.1 C 21 %
1452 20-04-2020 01:52:17 8.5 C 25 %
1453 20-04-2020 02:02:18 8.1 C 26 %
1454 20-04-2020 02:12:18 7.9 C 26 %
1455 20-04-2020 02:22:17 7.5 C 27 %
1456 20-04-2020 02:32:18 7.3 C 27 %
1457 20-04-2020 02:42:18 7.3 C 27 %
1458 20-04-2020 02:52:17 7.3 C 27 %
1459 20-04-2020 03:02:17 7 C 27 %
1460 20-04-2020 03:12:17 6.9 C 28 %
1461 20-04-2020 03:22:17 6.7 C 29 %
1462 20-04-2020 03:32:17 6.9 C 28 %
1463 20-04-2020 03:42:17 6.9 C 28 %
1464 20-04-2020 03:52:17 6.7 C 29 %
1465 20-04-2020 04:02:17 6.6 C 28 %
1466 20-04-2020 04:12:17 6.5 C 28 %
1467 20-04-2020 04:22:17 6.4 C 29 %
1468 20-04-2020 04:32:18 6.4 C 28 %
1469 20-04-2020 04:42:18 6.4 C 28 %
1470 20-04-2020 04:52:17 6.2 C 29 %
1471 20-04-2020 05:02:18 6.4 C 29 %
1472 20-04-2020 05:12:18 6.3 C 29 %
1473 20-04-2020 05:22:17 6.3 C 29 %
1474 20-04-2020 05:32:17 6.2 C 30 %
1475 20-04-2020 05:42:18 6.3 C 29 %
Sensor: Nr:Datum:Temp:Feuchte:
Aussen-T/F 1476 20-04-2020 05:52:17 6.3 C 29 %
1477 20-04-2020 06:02:18 6 C 30 %
1478 20-04-2020 06:12:18 5.9 C 30 %
1479 20-04-2020 06:22:17 5.9 C 30 %
1480 20-04-2020 06:32:17 6.1 C 30 %
1481 20-04-2020 06:42:17 6.1 C 30 %
1482 20-04-2020 06:52:17 5.9 C 30 %
1483 20-04-2020 07:02:17 6.1 C 30 %
1484 20-04-2020 07:12:17 6.2 C 30 %
1485 20-04-2020 07:22:17 6.2 C 30 %
1486 20-04-2020 07:32:17 6.4 C 30 %
1487 20-04-2020 07:42:17 7.2 C 27 %
1488 20-04-2020 07:52:17 7.4 C 27 %
1489 20-04-2020 08:02:18 7.3 C 27 %
1490 20-04-2020 08:12:18 7.9 C 26 %
1491 20-04-2020 08:22:17 7.8 C 27 %
1492 20-04-2020 08:32:17 7.7 C 28 %
1493 20-04-2020 08:42:18 7.9 C 26 %
1494 20-04-2020 08:52:18 8.1 C 26 %
1495 20-04-2020 09:02:17 8.3 C 26 %
1496 20-04-2020 09:12:17 8.2 C 27 %
1497 20-04-2020 09:22:17 8.4 C 27 %
1498 20-04-2020 09:32:17 9 C 25 %
1499 20-04-2020 09:42:17 9.4 C 25 %
1500 20-04-2020 09:52:18 9.4 C 26 %
Sensor: Nr:Datum:Temp:Feuchte:
Aussen-T/F 1501 20-04-2020 10:02:18 9.9 C 26 %
1502 20-04-2020 10:12:18 10.7 C 22 %
1503 20-04-2020 10:22:17 11.4 C 20 %
1504 20-04-2020 10:32:17 12.1 C 20 %
1505 20-04-2020 10:42:18 12.7 C 20 %
1506 20-04-2020 10:52:17 13.1 C 20 %
1507 20-04-2020 11:02:18 13.7 C 20 %
1508 20-04-2020 11:12:18 14 C 20 %
1509 20-04-2020 11:22:17 14.4 C 20 %
1510 20-04-2020 11:32:17 14.7 C 20 %
1511 20-04-2020 11:42:18 14.8 C 20 %
1512 20-04-2020 11:52:17 15 C 20 %
1513 20-04-2020 12:02:17 15.2 C 20 %
1514 20-04-2020 12:12:17 15 C 20 %
1515 20-04-2020 12:22:17 15 C 20 %
1516 20-04-2020 12:32:17 15.1 C 20 %
1517 20-04-2020 12:42:17 15.1 C 20 %
1518 20-04-2020 12:52:17 15.4 C 20 %
1519 20-04-2020 13:02:17 15.4 C 20 %
1520 20-04-2020 13:12:17 16 C 20 %
1521 20-04-2020 13:22:17 15.8 C 20 %
1522 20-04-2020 13:32:17 16.1 C 20 %
1523 20-04-2020 13:42:17 16.1 C 20 %
1524 20-04-2020 13:52:17 16.8 C 20 %
1525 20-04-2020 14:02:17 16.9 C 20 %
Sensor: Nr:Datum:Temp:Feuchte:
Aussen-T/F 1526 20-04-2020 14:12:17 17.3 C 20 %
1527 20-04-2020 14:22:17 18.3 C 20 %
1528 20-04-2020 14:32:18 21 C 20 %
1529 20-04-2020 14:42:18 23 C 20 %
1530 20-04-2020 14:52:18 23.2 C 20 %
1531 20-04-2020 15:02:17 22.9 C 20 %
1532 20-04-2020 15:12:17 21.8 C 20 %
1533 20-04-2020 15:22:17 22.9 C 20 %
1534 20-04-2020 15:32:17 23.3 C 20 %
1535 20-04-2020 15:42:17 24.7 C 20 %
1536 20-04-2020 15:52:17 22.5 C 20 %
1537 20-04-2020 16:02:17 24.5 C 20 %
1538 20-04-2020 16:12:17 22.7 C 20 %
1539 20-04-2020 16:22:17 23 C 20 %
1540 20-04-2020 16:32:17 23.5 C 20 %
1541 20-04-2020 16:42:17 23.6 C 20 %
1542 20-04-2020 16:52:17 23.4 C 20 %
1543 20-04-2020 17:02:17 23.7 C 20 %
1544 20-04-2020 17:12:17 22.3 C 20 %
1545 20-04-2020 17:22:17 21.6 C 20 %
1546 20-04-2020 17:32:17 20.4 C 20 %
1547 20-04-2020 17:42:17 22.4 C 20 %
1548 20-04-2020 17:52:17 20.9 C 20 %
1549 20-04-2020 18:02:18 19.1 C 20 %
1550 20-04-2020 18:12:18 19 C 20 %
Sensor: Nr:Datum:Temp:Feuchte:
Aussen-T/F 1551 20-04-2020 18:22:18 18.5 C 20 %
1552 20-04-2020 18:32:17 18.4 C 20 %
1553 20-04-2020 18:42:18 18.2 C 20 %
1554 20-04-2020 18:52:18 18.3 C 20 %
1555 20-04-2020 19:02:17 17.8 C 20 %
1556 20-04-2020 19:12:17 17.6 C 20 %
1557 20-04-2020 19:22:17 17.2 C 20 %
1558 20-04-2020 19:32:17 17 C 20 %
1559 20-04-2020 19:42:17 16.6 C 20 %
1560 20-04-2020 19:52:17 16.3 C 20 %
1561 20-04-2020 20:02:17 16 C 20 %
1562 20-04-2020 20:12:17 15.6 C 20 %
1563 20-04-2020 20:22:17 15 C 20 %
1564 20-04-2020 20:32:17 14.4 C 20 %
1565 20-04-2020 20:42:17 14.5 C 20 %
1566 20-04-2020 20:52:17 13.8 C 20 %
1567 20-04-2020 21:02:17 13.7 C 20 %
1568 20-04-2020 21:12:17 12.9 C 20 %
1569 20-04-2020 21:22:17 12.6 C 20 %
1570 20-04-2020 21:32:17 12 C 20 %
1571 20-04-2020 21:42:17 12.2 C 20 %
1572 20-04-2020 21:52:17 12.6 C 20 %
1573 20-04-2020 22:02:17 11.8 C 20 %
1574 20-04-2020 22:12:17 11.9 C 20 %
1575 20-04-2020 22:22:17 12.1 C 20 %
Sensor: Nr:Datum:Temp:Feuchte:
Aussen-T/F 1576 20-04-2020 22:32:17 12.2 C 20 %
1577 20-04-2020 22:42:17 11.9 C 20 %
1578 20-04-2020 22:52:18 11.5 C 20 %
1579 20-04-2020 23:02:17 11.5 C 20 %
1580 20-04-2020 23:12:17 11.6 C 20 %
1581 20-04-2020 23:22:17 11 C 20 %
1582 20-04-2020 23:32:18 11.6 C 20 %
1583 20-04-2020 23:42:18 11 C 20 %
1584 20-04-2020 23:52:17 11 C 20 %
1585 21-04-2020 00:02:17 10.9 C 20 %
1586 21-04-2020 00:12:17 10.3 C 20 %
1587 21-04-2020 00:22:17 10.4 C 20 %
1588 21-04-2020 00:32:17 9.9 C 20 %
1589 21-04-2020 00:42:17 10.5 C 20 %
1590 21-04-2020 00:52:17 10 C 20 %
1591 21-04-2020 01:02:18 9.4 C 20 %
1592 21-04-2020 01:12:18 8.9 C 20 %
1593 21-04-2020 01:22:18 9 C 20 %
1594 21-04-2020 01:32:18 8.9 C 20 %
1595 21-04-2020 01:42:18 9.2 C 20 %
1596 21-04-2020 01:52:17 8.4 C 20 %
1597 21-04-2020 02:02:17 9.2 C 20 %
1598 21-04-2020 02:12:18 9.1 C 20 %
1599 21-04-2020 02:22:17 9.1 C 20 %
1600 21-04-2020 02:32:18 8.9 C 20 %
Sensor: Nr:Datum:Temp:Feuchte:
Aussen-T/F 1601 21-04-2020 02:42:18 9.2 C 20 %
1602 21-04-2020 02:52:17 9 C 20 %
1603 21-04-2020 03:02:17 9.3 C 20 %
1604 21-04-2020 03:12:17 9.1 C 20 %
1605 21-04-2020 03:22:18 9.2 C 20 %
1606 21-04-2020 03:32:17 9.1 C 20 %
1607 21-04-2020 03:42:17 8.3 C 20 %
1608 21-04-2020 03:52:18 8.6 C 20 %
1609 21-04-2020 04:02:18 8.1 C 20 %
1610 21-04-2020 04:12:18 7.4 C 23 %
1611 21-04-2020 04:22:17 7.8 C 20 %
1612 21-04-2020 04:32:17 7.7 C 23 %
1613 21-04-2020 04:42:17 7.5 C 25 %
1614 21-04-2020 04:52:17 7.5 C 25 %
1615 21-04-2020 05:02:17 7.1 C 25 %
1616 21-04-2020 05:12:17 7.7 C 25 %
1617 21-04-2020 05:22:17 7.3 C 25 %
1618 21-04-2020 05:32:18 7 C 25 %
1619 21-04-2020 05:42:18 6.8 C 26 %
1620 21-04-2020 05:52:17 6.5 C 27 %
1621 21-04-2020 06:02:17 6.9 C 27 %
1622 21-04-2020 06:12:17 6.6 C 27 %
1623 21-04-2020 06:22:18 6.6 C 27 %
1624 21-04-2020 06:32:18 6.3 C 28 %
1625 21-04-2020 06:42:18 6.4 C 28 %
Sensor: Nr:Datum:Temp:Feuchte:
Aussen-T/F 1626 21-04-2020 06:52:17 6.3 C 29 %
1627 21-04-2020 07:02:18 6.1 C 30 %
1628 21-04-2020 07:12:18 6.2 C 29 %
1629 21-04-2020 07:22:17 6.3 C 30 %
1630 21-04-2020 07:32:17 6.5 C 30 %
1631 21-04-2020 07:42:17 7.3 C 27 %
1632 21-04-2020 07:52:17 6.9 C 29 %
1633 21-04-2020 08:02:17 7.4 C 27 %
1634 21-04-2020 08:12:17 7.7 C 26 %
1635 21-04-2020 08:22:17 7.6 C 26 %
1636 21-04-2020 08:32:17 7.2 C 28 %
1637 21-04-2020 08:42:18 7.5 C 27 %
1638 21-04-2020 08:52:17 8.3 C 27 %
1639 21-04-2020 09:02:17 8.7 C 25 %
1640 21-04-2020 09:12:17 9.2 C 23 %
1641 21-04-2020 09:22:17 9.7 C 21 %
1642 21-04-2020 09:32:17 10.2 C 20 %
1643 21-04-2020 09:42:17 10.7 C 20 %
1644 21-04-2020 09:52:17 10.9 C 20 %
1645 21-04-2020 10:02:17 10.9 C 20 %
1646 21-04-2020 10:12:17 11.7 C 20 %
1647 21-04-2020 10:22:17 12.2 C 20 %
1648 21-04-2020 10:32:17 12.8 C 20 %
1649 21-04-2020 10:42:17 13.2 C 20 %
1650 21-04-2020 10:52:17 13.5 C 20 %
Sensor: Nr:Datum:Temp:Feuchte:
Aussen-T/F 1651 21-04-2020 11:02:17 13.9 C 20 %
1652 21-04-2020 11:12:17 14.6 C 20 %
1653 21-04-2020 11:22:17 14.6 C 20 %
1654 21-04-2020 11:32:18 14.7 C 20 %
1655 21-04-2020 11:42:18 15.2 C 20 %
1656 21-04-2020 11:52:18 15.7 C 20 %
1657 21-04-2020 12:02:17 16.4 C 20 %
1658 21-04-2020 12:12:18 16.1 C 20 %
1659 21-04-2020 12:22:17 16.1 C 20 %
1660 21-04-2020 12:32:17 16.2 C 20 %
1661 21-04-2020 12:42:17 16.4 C 20 %
1662 21-04-2020 12:52:17 16.6 C 20 %
1663 21-04-2020 13:02:17 16.9 C 20 %
1664 21-04-2020 13:12:17 17.4 C 20 %
1665 21-04-2020 13:22:17 17.2 C 20 %
1666 21-04-2020 13:32:17 17.3 C 20 %
1667 21-04-2020 13:42:17 17.9 C 20 %
1668 21-04-2020 13:52:17 18.1 C 20 %
1669 21-04-2020 14:02:17 18.5 C 20 %
1670 21-04-2020 14:12:17 19 C 20 %
1671 21-04-2020 14:22:17 19.4 C 20 %
1672 21-04-2020 14:32:17 22 C 20 %
1673 21-04-2020 14:42:17 24.4 C 20 %
1674 21-04-2020 14:52:17 24.2 C 20 %
1675 21-04-2020 15:02:17 24.5 C 20 %
Sensor: Nr:Datum:Temp:Feuchte:
Aussen-T/F 1676 21-04-2020 15:12:17 22.2 C 20 %
1677 21-04-2020 15:22:17 23.7 C 20 %
1678 21-04-2020 15:32:18 23.2 C 20 %
1679 21-04-2020 15:42:18 24 C 20 %
1680 21-04-2020 15:52:17 23.4 C 20 %
1681 21-04-2020 16:02:18 22.8 C 20 %
1682 21-04-2020 16:12:18 23.2 C 20 %
1683 21-04-2020 16:22:17 22.9 C 20 %
1684 21-04-2020 16:32:17 23.2 C 20 %
1685 21-04-2020 16:42:17 24.3 C 20 %
1686 21-04-2020 16:52:17 22.8 C 20 %
1687 21-04-2020 17:02:17 23.6 C 20 %
1688 21-04-2020 17:12:17 24.8 C 20 %
1689 21-04-2020 17:22:18 22.8 C 20 %
1690 21-04-2020 17:32:17 21.9 C 20 %
1691 21-04-2020 17:42:17 22.3 C 20 %
1692 21-04-2020 17:52:17 22.9 C 20 %
1693 21-04-2020 18:02:18 21.1 C 20 %
1694 21-04-2020 18:12:18 20.9 C 20 %
1695 21-04-2020 18:22:17 20.5 C 20 %
1696 21-04-2020 18:32:17 20.3 C 20 %
1697 21-04-2020 18:42:17 20 C 20 %
1698 21-04-2020 18:52:18 20 C 20 %
1699 21-04-2020 19:02:17 19.6 C 20 %
1700 21-04-2020 19:12:17 19.4 C 20 %
Sensor: Nr:Datum:Temp:Feuchte:
Aussen-T/F 1701 21-04-2020 19:22:17 19.1 C 20 %
1702 21-04-2020 19:32:18 18.9 C 20 %
1703 21-04-2020 19:42:18 18.7 C 20 %
1704 21-04-2020 19:52:17 18.3 C 20 %
1705 21-04-2020 20:02:17 17.9 C 20 %
1706 21-04-2020 20:12:17 17.4 C 20 %
1707 21-04-2020 20:22:17 16.7 C 20 %
1708 21-04-2020 20:32:17 16.2 C 20 %
1709 21-04-2020 20:42:17 15.5 C 20 %
1710 21-04-2020 20:52:17 14.8 C 20 %
1711 21-04-2020 21:02:18 14.2 C 20 %
1712 21-04-2020 21:12:18 14.5 C 20 %
1713 21-04-2020 21:22:17 14.1 C 20 %
1714 21-04-2020 21:32:17 13.9 C 20 %
1715 21-04-2020 21:42:17 13.2 C 20 %
1716 21-04-2020 21:52:18 12.9 C 20 %
1717 21-04-2020 22:02:17 13.2 C 20 %
1718 21-04-2020 22:12:17 13 C 20 %
1719 21-04-2020 22:22:17 13.4 C 20 %
1720 21-04-2020 22:32:17 12.6 C 20 %
1721 21-04-2020 22:42:17 12 C 20 %
1722 21-04-2020 22:52:18 11.8 C 20 %
1723 21-04-2020 23:02:18 12.1 C 20 %
1724 21-04-2020 23:12:18 11.8 C 20 %
1725 21-04-2020 23:22:17 11.5 C 20 %
Sensor: Nr:Datum:Temp:Feuchte:
Aussen-T/F 1726 21-04-2020 23:32:18 11.3 C 20 %
1727 21-04-2020 23:42:18 11.3 C 20 %
1728 21-04-2020 23:52:18 11.1 C 20 %
1729 22-04-2020 00:02:18 11.1 C 20 %
1730 22-04-2020 00:12:18 10.6 C 20 %
1731 22-04-2020 00:22:17 11.1 C 20 %
1732 22-04-2020 00:32:18 11.4 C 20 %
1733 22-04-2020 00:42:18 10.9 C 20 %
1734 22-04-2020 00:52:17 11 C 20 %
1735 22-04-2020 01:02:17 10.8 C 20 %
1736 22-04-2020 01:12:17 10 C 21 %
1737 22-04-2020 01:22:17 9.9 C 25 %
1738 22-04-2020 01:32:18 9.7 C 25 %
1739 22-04-2020 01:42:18 10.2 C 21 %
1740 22-04-2020 01:52:17 9.9 C 23 %
1741 22-04-2020 02:02:17 9.9 C 23 %
1742 22-04-2020 02:12:17 9.8 C 25 %
1743 22-04-2020 02:22:17 9.5 C 25 %
1744 22-04-2020 02:32:17 9.3 C 25 %
1745 22-04-2020 02:42:17 9.7 C 25 %
1746 22-04-2020 02:52:17 9.3 C 25 %
1747 22-04-2020 03:02:17 9.5 C 25 %
1748 22-04-2020 03:12:17 9 C 25 %
1749 22-04-2020 03:22:18 8.8 C 26 %
1750 22-04-2020 03:32:18 8.5 C 27 %
Sensor: Nr:Datum:Temp:Feuchte:
Aussen-T/F 1751 22-04-2020 03:42:18 8.4 C 27 %
1752 22-04-2020 03:52:17 8.3 C 27 %
1753 22-04-2020 04:02:18 8.4 C 27 %
1754 22-04-2020 04:12:18 8.3 C 27 %
1755 22-04-2020 04:22:17 8 C 27 %
1756 22-04-2020 04:32:18 7.9 C 27 %
1757 22-04-2020 04:42:18 7.9 C 27 %
1758 22-04-2020 04:52:17 7.4 C 28 %
1759 22-04-2020 05:02:18 7.5 C 28 %
1760 22-04-2020 05:12:18 7.3 C 28 %
1761 22-04-2020 05:22:17 7.1 C 29 %
1762 22-04-2020 05:32:17 7.1 C 29 %
1763 22-04-2020 05:42:18 6.9 C 30 %
1764 22-04-2020 05:52:17 6.7 C 30 %
1765 22-04-2020 06:02:18 6.7 C 30 %
1766 22-04-2020 06:12:18 6.1 C 31 %
1767 22-04-2020 06:22:17 5.8 C 32 %
1768 22-04-2020 06:32:17 5.6 C 33 %
1769 22-04-2020 06:42:17 5.3 C 35 %
1770 22-04-2020 06:52:17 5.6 C 35 %
1771 22-04-2020 07:02:17 5.6 C 35 %
1772 22-04-2020 07:12:17 5.4 C 35 %
1773 22-04-2020 07:22:18 5.9 C 35 %
1774 22-04-2020 07:32:17 5.5 C 35 %
1775 22-04-2020 07:42:17 5.7 C 35 %
Sensor: Nr:Datum:Temp:Feuchte:
Aussen-T/F 1776 22-04-2020 07:52:17 5.9 C 35 %
1777 22-04-2020 08:02:17 6.5 C 34 %
1778 22-04-2020 08:12:17 6.6 C 34 %
1779 22-04-2020 08:22:17 7 C 33 %
1780 22-04-2020 08:32:17 7.5 C 32 %
1781 22-04-2020 08:42:17 8 C 31 %
1782 22-04-2020 08:52:18 8.9 C 30 %
1783 22-04-2020 09:02:18 9.1 C 30 %
1784 22-04-2020 09:12:18 9.1 C 30 %
1785 22-04-2020 09:22:17 10.1 C 26 %
1786 22-04-2020 09:32:17 10.7 C 26 %
1787 22-04-2020 09:42:17 10.7 C 26 %
1788 22-04-2020 09:52:17 11.3 C 24 %
1789 22-04-2020 10:02:17 11.5 C 24 %
1790 22-04-2020 10:12:17 12.5 C 20 %
1791 22-04-2020 10:22:17 13 C 20 %
1792 22-04-2020 10:32:17 13.7 C 20 %
1793 22-04-2020 10:42:17 14.2 C 20 %
1794 22-04-2020 10:52:17 14.8 C 20 %
1795 22-04-2020 11:02:17 15.4 C 20 %
1796 22-04-2020 11:12:17 15.7 C 20 %
1797 22-04-2020 11:22:17 16.2 C 20 %
1798 22-04-2020 11:32:17 16.4 C 20 %
1799 22-04-2020 11:42:17 17.1 C 20 %
1800 22-04-2020 11:52:18 17.1 C 20 %
Sensor: Nr:Datum:Temp:Feuchte:
Aussen-T/F 1801 22-04-2020 12:02:18 17.9 C 20 %
1802 22-04-2020 12:12:18 17.6 C 20 %
1803 22-04-2020 12:22:17 17.7 C 20 %
1804 22-04-2020 12:32:17 17.7 C 20 %
1805 22-04-2020 12:42:17 17.7 C 20 %
1806 22-04-2020 12:52:18 18 C 20 %
1807 22-04-2020 13:02:17 18.6 C 20 %
1808 22-04-2020 13:12:17 19.3 C 20 %
1809 22-04-2020 13:22:17 19 C 20 %
1810 22-04-2020 13:32:17 18.9 C 20 %
1811 22-04-2020 13:42:17 19.1 C 20 %
1812 22-04-2020 13:52:17 19.4 C 20 %
1813 22-04-2020 14:02:17 19.8 C 20 %
1814 22-04-2020 14:12:17 20.3 C 20 %
1815 22-04-2020 14:22:17 21.2 C 20 %
1816 22-04-2020 14:32:17 25.4 C 20 %
1817 22-04-2020 14:42:17 27.1 C 20 %
1818 22-04-2020 14:52:17 25.8 C 20 %
1819 22-04-2020 15:02:17 24.9 C 20 %
1820 22-04-2020 15:12:18 26.4 C 20 %
1821 22-04-2020 15:22:17 27.6 C 20 %
1822 22-04-2020 15:32:17 27 C 20 %
1823 22-04-2020 15:42:17 25.4 C 20 %
1824 22-04-2020 15:52:17 25.7 C 20 %
1825 22-04-2020 16:02:17 25.3 C 20 %
Sensor: Nr:Datum:Temp:Feuchte:
Aussen-T/F 1826 22-04-2020 16:12:17 27.2 C 20 %
1827 22-04-2020 16:22:17 26.8 C 20 %
1828 22-04-2020 16:32:18 27.7 C 20 %
1829 22-04-2020 16:42:18 25.2 C 20 %
1830 22-04-2020 16:52:17 26.3 C 20 %
1831 22-04-2020 17:02:17 25.2 C 20 %
1832 22-04-2020 17:12:17 24.6 C 20 %
1833 22-04-2020 17:22:17 25.1 C 20 %
1834 22-04-2020 17:32:17 25.5 C 20 %
1835 22-04-2020 17:42:17 25.6 C 20 %
1836 22-04-2020 17:52:17 25.2 C 20 %
1837 22-04-2020 18:02:17 23.1 C 20 %
1838 22-04-2020 18:12:17 22 C 20 %
1839 22-04-2020 18:22:17 22.1 C 20 %
1840 22-04-2020 18:32:17 21.9 C 20 %
1841 22-04-2020 18:42:17 21.9 C 20 %
1842 22-04-2020 18:52:17 21.6 C 20 %
1843 22-04-2020 19:02:17 21.1 C 20 %
1844 22-04-2020 19:12:17 21.2 C 20 %
1845 22-04-2020 19:22:17 20.8 C 20 %
1846 22-04-2020 19:32:18 20.4 C 20 %
1847 22-04-2020 19:42:18 20.3 C 20 %
1848 22-04-2020 19:52:17 20 C 20 %
1849 22-04-2020 20:02:18 19.4 C 20 %
1850 22-04-2020 20:12:18 18.4 C 20 %
Sensor: Nr:Datum:Temp:Feuchte:
Aussen-T/F 1851 22-04-2020 20:22:17 17 C 20 %
1852 22-04-2020 20:32:17 16.3 C 20 %
1853 22-04-2020 20:42:17 16.2 C 20 %
1854 22-04-2020 20:52:17 15.9 C 20 %
1855 22-04-2020 21:02:17 15.7 C 20 %
1856 22-04-2020 21:12:17 15 C 20 %
1857 22-04-2020 21:22:17 14.6 C 20 %
1858 22-04-2020 21:32:17 14.4 C 20 %
1859 22-04-2020 21:42:17 14.4 C 20 %
1860 22-04-2020 21:52:17 14.1 C 20 %
1861 22-04-2020 22:02:17 13.7 C 20 %
1862 22-04-2020 22:12:17 13.8 C 20 %
1863 22-04-2020 22:22:17 14.2 C 20 %
1864 22-04-2020 22:32:17 13.6 C 20 %
1865 22-04-2020 22:42:17 13.5 C 20 %
1866 22-04-2020 22:52:18 13.5 C 20 %
1867 22-04-2020 23:02:17 13.7 C 20 %
1868 22-04-2020 23:12:17 13.5 C 20 %
1869 22-04-2020 23:22:17 13.2 C 20 %
1870 22-04-2020 23:32:17 12.9 C 20 %
1871 22-04-2020 23:42:17 13.2 C 20 %
1872 22-04-2020 23:52:18 12.8 C 20 %
1873 23-04-2020 00:02:17 12.6 C 20 %
1874 23-04-2020 00:12:17 12.4 C 20 %
1875 23-04-2020 00:22:17 12.4 C 20 %
Sensor: Nr:Datum:Temp:Feuchte:
Aussen-T/F 1876 23-04-2020 00:32:17 12.2 C 20 %
1877 23-04-2020 00:42:17 12.2 C 20 %
1878 23-04-2020 00:52:17 12.3 C 20 %
1879 23-04-2020 01:02:17 12.1 C 20 %
1880 23-04-2020 01:12:17 11.9 C 20 %
1881 23-04-2020 01:22:18 11 C 20 %
1882 23-04-2020 01:32:17 12 C 20 %
1883 23-04-2020 01:42:17 10.9 C 20 %
1884 23-04-2020 01:52:17 10.5 C 22 %
1885 23-04-2020 02:02:17 9.7 C 25 %
1886 23-04-2020 02:12:17 9.7 C 26 %
1887 23-04-2020 02:22:18 9.7 C 25 %
1888 23-04-2020 02:32:17 9.8 C 26 %
1889 23-04-2020 02:42:17 9.6 C 25 %
1890 23-04-2020 02:52:17 9.3 C 26 %
1891 23-04-2020 03:02:18 9.2 C 26 %
1892 23-04-2020 03:12:18 9.2 C 26 %
1893 23-04-2020 03:22:17 9.4 C 26 %
1894 23-04-2020 03:32:17 9.4 C 26 %
1895 23-04-2020 03:42:17 9.3 C 26 %
1896 23-04-2020 03:52:17 9.1 C 26 %
1897 23-04-2020 04:02:17 8.6 C 27 %
1898 23-04-2020 04:12:17 8.1 C 29 %
1899 23-04-2020 04:22:17 7.5 C 30 %
1900 23-04-2020 04:32:17 7.2 C 32 %
Sensor: Nr:Datum:Temp:Feuchte:
Aussen-T/F 1901 23-04-2020 04:42:17 7.2 C 32 %
1902 23-04-2020 04:52:17 6.9 C 33 %
1903 23-04-2020 05:02:17 6.4 C 34 %
1904 23-04-2020 05:12:17 6.2 C 34 %
1905 23-04-2020 05:22:17 5.9 C 35 %
1906 23-04-2020 05:32:17 6 C 35 %
1907 23-04-2020 05:42:17 6 C 35 %
1908 23-04-2020 05:52:17 5.8 C 36 %
1909 23-04-2020 06:02:17 5.8 C 36 %
1910 23-04-2020 06:12:18 5.4 C 36 %
1911 23-04-2020 06:22:17 5.4 C 36 %
1912 23-04-2020 06:32:18 5.3 C 36 %
1913 23-04-2020 06:42:18 5.3 C 36 %
1914 23-04-2020 06:52:17 5.3 C 36 %
1915 23-04-2020 07:02:17 5.3 C 37 %
1916 23-04-2020 07:12:17 5.3 C 37 %
1917 23-04-2020 07:22:17 5.2 C 37 %
1918 23-04-2020 07:32:17 5.2 C 39 %
1919 23-04-2020 07:42:17 5.2 C 39 %
1920 23-04-2020 07:52:17 5.3 C 39 %
1921 23-04-2020 08:02:17 5.4 C 39 %
1922 23-04-2020 08:12:18 5.5 C 39 %
1923 23-04-2020 08:22:18 5.9 C 39 %
1924 23-04-2020 08:32:18 6.2 C 38 %
1925 23-04-2020 08:42:18 6.5 C 38 %
Sensor: Nr:Datum:Temp:Feuchte:
Aussen-T/F 1926 23-04-2020 08:52:17 6.9 C 38 %
1927 23-04-2020 09:02:17 7.7 C 36 %
1928 23-04-2020 09:12:17 8.1 C 36 %
1929 23-04-2020 09:22:17 8.6 C 35 %
1930 23-04-2020 09:32:17 9.2 C 35 %
1931 23-04-2020 09:42:17 9.7 C 34 %
1932 23-04-2020 09:52:17 9.9 C 34 %
1933 23-04-2020 10:02:18 10.5 C 33 %
1934 23-04-2020 10:12:18 11 C 32 %
1935 23-04-2020 10:22:17 11.8 C 30 %
1936 23-04-2020 10:32:17 12.7 C 28 %
1937 23-04-2020 10:42:17 13.2 C 27 %
1938 23-04-2020 10:52:17 14.8 C 22 %
1939 23-04-2020 11:02:18 16 C 20 %
1940 23-04-2020 11:12:18 16.3 C 20 %
1941 23-04-2020 11:22:17 17.2 C 20 %
1942 23-04-2020 11:32:17 17.4 C 20 %
1943 23-04-2020 11:42:17 17.7 C 20 %
1944 23-04-2020 11:52:18 17.9 C 20 %
1945 23-04-2020 12:02:17 18.9 C 20 %
1946 23-04-2020 12:12:17 18.2 C 20 %
1947 23-04-2020 12:22:17 18 C 20 %
1948 23-04-2020 12:32:18 18.5 C 20 %
1949 23-04-2020 12:42:18 18.3 C 20 %
1950 23-04-2020 12:52:17 18.4 C 20 %
Sensor: Nr:Datum:Temp:Feuchte:
Aussen-T/F 1951 23-04-2020 13:02:17 19.2 C 20 %
1952 23-04-2020 13:12:17 19.5 C 20 %
1953 23-04-2020 13:22:17 19.1 C 20 %
1954 23-04-2020 13:32:17 19.2 C 20 %
1955 23-04-2020 13:42:17 19.7 C 20 %
1956 23-04-2020 13:52:17 20.1 C 20 %
1957 23-04-2020 14:02:17 20.4 C 20 %
1958 23-04-2020 14:12:17 20.7 C 20 %
1959 23-04-2020 14:22:17 21.6 C 20 %
1960 23-04-2020 14:32:17 27.4 C 20 %
1961 23-04-2020 14:42:17 29.1 C 20 %
1962 23-04-2020 14:52:17 29 C 20 %
1963 23-04-2020 15:02:17 29.3 C 20 %
1964 23-04-2020 15:12:17 29.5 C 20 %
1965 23-04-2020 15:22:18 28.8 C 20 %
1966 23-04-2020 15:32:17 30.3 C 20 %
1967 23-04-2020 15:42:17 31.4 C 20 %
1968 23-04-2020 15:52:17 28.9 C 20 %
1969 23-04-2020 16:02:18 27.7 C 20 %
1970 23-04-2020 16:12:18 28.1 C 20 %
1971 23-04-2020 16:22:17 28.4 C 20 %
1972 23-04-2020 16:32:18 28.3 C 20 %
1973 23-04-2020 16:42:18 29 C 20 %
1974 23-04-2020 16:52:17 29.2 C 20 %
1975 23-04-2020 17:02:17 31.6 C 20 %
Sensor: Nr:Datum:Temp:Feuchte:
Aussen-T/F 1976 23-04-2020 17:12:18 28.2 C 20 %
1977 23-04-2020 17:22:17 28.6 C 20 %
1978 23-04-2020 17:32:18 28.1 C 20 %
1979 23-04-2020 17:42:18 28 C 20 %
1980 23-04-2020 17:52:18 30.1 C 20 %
1981 23-04-2020 18:02:17 27.1 C 20 %
1982 23-04-2020 18:12:17 24.5 C 20 %
1983 23-04-2020 18:22:17 23.9 C 20 %
1984 23-04-2020 18:32:17 23.6 C 20 %
1985 23-04-2020 18:42:17 23.7 C 20 %
1986 23-04-2020 18:52:17 23.2 C 20 %
1987 23-04-2020 19:02:17 22.5 C 20 %
1988 23-04-2020 19:12:17 22.4 C 20 %
1989 23-04-2020 19:22:17 22 C 20 %
1990 23-04-2020 19:32:18 21.2 C 20 %
1991 23-04-2020 19:42:18 20 C 20 %
1992 23-04-2020 19:52:17 18.6 C 20 %
1993 23-04-2020 20:02:18 18.6 C 20 %
1994 23-04-2020 20:12:18 17.9 C 20 %
1995 23-04-2020 20:22:17 17.2 C 20 %
1996 23-04-2020 20:32:18 16.5 C 20 %
1997 23-04-2020 20:42:18 15.5 C 20 %
1998 23-04-2020 20:52:18 14.3 C 20 %
1999 23-04-2020 21:02:18 14 C 20 %
2000 23-04-2020 21:12:18 14.1 C 20 %
Sensor: Nr:Datum:Temp:Feuchte:
Aussen-T/F 2001 23-04-2020 21:22:17 13.5 C 20 %
2002 23-04-2020 21:32:17 13.1 C 20 %
2003 23-04-2020 21:42:17 12.9 C 20 %
2004 23-04-2020 21:52:17 12.5 C 20 %
2005 23-04-2020 22:02:17 12 C 23 %
2006 23-04-2020 22:12:17 11.6 C 25 %
2007 23-04-2020 22:22:17 11.5 C 25 %
2008 23-04-2020 22:32:18 11 C 26 %
2009 23-04-2020 22:42:18 11.1 C 26 %
2010 23-04-2020 22:52:18 10.8 C 26 %
2011 23-04-2020 23:02:18 10.4 C 27 %
2012 23-04-2020 23:12:18 10.3 C 27 %
2013 23-04-2020 23:22:18 9.6 C 29 %
2014 23-04-2020 23:32:17 9.6 C 29 %
2015 23-04-2020 23:42:17 9.6 C 29 %
2016 23-04-2020 23:52:17 9.2 C 30 %
2017 24-04-2020 00:02:18 9.2 C 30 %
2018 24-04-2020 00:12:18 9.3 C 30 %
2019 24-04-2020 00:22:17 9.2 C 30 %
2020 24-04-2020 00:32:18 8.6 C 31 %
2021 24-04-2020 00:42:18 8.4 C 31 %
2022 24-04-2020 00:52:17 8.3 C 32 %
2023 24-04-2020 01:02:18 8.1 C 32 %
2024 24-04-2020 01:12:18 8.3 C 33 %
2025 24-04-2020 01:22:17 8.1 C 32 %
Sensor: Nr:Datum:Temp:Feuchte:
Aussen-T/F 2026 24-04-2020 01:32:18 8.1 C 33 %
2027 24-04-2020 01:42:18 8.2 C 33 %
2028 24-04-2020 01:52:17 7.8 C 33 %
2029 24-04-2020 02:02:17 7.5 C 34 %
2030 24-04-2020 02:12:17 7.1 C 34 %
2031 24-04-2020 02:22:17 7 C 35 %
2032 24-04-2020 02:32:18 7.2 C 35 %
2033 24-04-2020 02:42:18 6.8 C 36 %
2034 24-04-2020 02:52:18 7 C 35 %
2035 24-04-2020 03:02:17 7 C 35 %
2036 24-04-2020 03:12:18 6.8 C 36 %
2037 24-04-2020 03:22:17 6.2 C 36 %
2038 24-04-2020 03:32:17 6.4 C 37 %
2039 24-04-2020 03:42:17 6.3 C 37 %
2040 24-04-2020 03:52:17 6.2 C 37 %
2041 24-04-2020 04:02:17 6.2 C 37 %
2042 24-04-2020 04:12:17 6.1 C 37 %
2043 24-04-2020 04:22:17 6 C 37 %
2044 24-04-2020 04:32:17 5.9 C 38 %
2045 24-04-2020 04:42:17 6.2 C 38 %
2046 24-04-2020 04:52:17 6.3 C 38 %
2047 24-04-2020 05:02:17 6.2 C 38 %
2048 24-04-2020 05:12:17 6 C 38 %
2049 24-04-2020 05:22:17 5.9 C 39 %
2050 24-04-2020 05:32:18 6.3 C 38 %
Sensor: Nr:Datum:Temp:Feuchte:
Aussen-T/F 2051 24-04-2020 05:42:18 6.2 C 38 %
2052 24-04-2020 05:52:17 6.1 C 38 %
2053 24-04-2020 06:02:17 6.1 C 38 %
2054 24-04-2020 06:12:17 5.9 C 39 %
2055 24-04-2020 06:22:18 6 C 39 %
2056 24-04-2020 06:32:17 6 C 38 %
2057 24-04-2020 06:42:17 6 C 39 %
2058 24-04-2020 06:52:17 6.2 C 39 %
2059 24-04-2020 07:02:17 6.3 C 38 %
2060 24-04-2020 07:12:17 6.3 C 39 %
2061 24-04-2020 07:22:17 6.3 C 39 %
2062 24-04-2020 07:32:18 6.3 C 39 %
2063 24-04-2020 07:42:18 6.5 C 39 %
2064 24-04-2020 07:52:17 6.7 C 39 %
2065 24-04-2020 08:02:18 6.8 C 39 %
2066 24-04-2020 08:12:18 7.3 C 38 %
2067 24-04-2020 08:22:17 8.2 C 36 %
2068 24-04-2020 08:32:17 9 C 35 %
2069 24-04-2020 08:42:17 9.6 C 35 %
2070 24-04-2020 08:52:17 9.9 C 34 %
2071 24-04-2020 09:02:17 10.4 C 33 %
2072 24-04-2020 09:12:18 11 C 32 %
2073 24-04-2020 09:22:17 11.5 C 31 %
2074 24-04-2020 09:32:18 11.9 C 31 %
2075 24-04-2020 09:42:18 12.5 C 30 %
Sensor: Nr:Datum:Temp:Feuchte:
Aussen-T/F 2076 24-04-2020 09:52:17 12.4 C 30 %
2077 24-04-2020 10:02:17 12.8 C 30 %
2078 24-04-2020 10:12:17 13.1 C 29 %
2079 24-04-2020 10:22:17 14 C 28 %
2080 24-04-2020 10:32:17 14.2 C 28 %
2081 24-04-2020 10:42:17 14.6 C 27 %
2082 24-04-2020 10:52:17 15 C 26 %
2083 24-04-2020 11:02:17 15.6 C 26 %
2084 24-04-2020 11:12:18 15.6 C 26 %
2085 24-04-2020 11:22:17 16.5 C 25 %
2086 24-04-2020 11:32:18 16.6 C 24 %
2087 24-04-2020 11:42:18 17 C 24 %
2088 24-04-2020 11:52:17 17 C 23 %
2089 24-04-2020 12:02:17 17.9 C 23 %
2090 24-04-2020 12:12:17 18.1 C 21 %
2091 24-04-2020 12:22:17 18.2 C 21 %
2092 24-04-2020 12:32:18 18.4 C 21 %
2093 24-04-2020 12:42:18 18.9 C 20 %
2094 24-04-2020 12:52:18 19.3 C 20 %
2095 24-04-2020 13:02:17 19.6 C 20 %
2096 24-04-2020 13:12:17 20.2 C 20 %
2097 24-04-2020 13:22:17 20.5 C 20 %
2098 24-04-2020 13:32:18 20.7 C 20 %
2099 24-04-2020 13:42:18 21 C 20 %
2100 24-04-2020 13:52:17 21.3 C 20 %
Sensor: Nr:Datum:Temp:Feuchte:
Aussen-T/F 2101 24-04-2020 14:02:17 21.8 C 20 %
2102 24-04-2020 14:12:17 22.2 C 20 %
2103 24-04-2020 14:22:17 23.5 C 20 %
2104 24-04-2020 14:32:17 26.8 C 20 %
2105 24-04-2020 14:42:17 28.5 C 20 %
2106 24-04-2020 14:52:17 27.1 C 20 %
2107 24-04-2020 15:02:18 28 C 20 %
2108 24-04-2020 15:12:18 31 C 20 %
2109 24-04-2020 15:22:17 27.6 C 20 %
2110 24-04-2020 15:32:17 28.1 C 20 %
2111 24-04-2020 15:42:18 27.5 C 20 %
2112 24-04-2020 15:52:17 28.8 C 20 %
2113 24-04-2020 16:02:18 28.7 C 20 %
2114 24-04-2020 16:12:18 28.7 C 20 %
2115 24-04-2020 16:22:18 27.2 C 20 %
2116 24-04-2020 16:32:18 26.8 C 20 %
2117 24-04-2020 16:42:18 28 C 20 %
2118 24-04-2020 16:52:17 26.3 C 20 %
2119 24-04-2020 17:02:17 26 C 20 %
2120 24-04-2020 17:12:17 26.7 C 20 %
2121 24-04-2020 17:22:18 26.4 C 20 %
2122 24-04-2020 17:32:18 26.3 C 20 %
2123 24-04-2020 17:42:18 24.2 C 20 %
2124 24-04-2020 17:52:17 26 C 20 %
2125 24-04-2020 18:02:18 24.1 C 20 %
Sensor: Nr:Datum:Temp:Feuchte:
Aussen-T/F 2126 24-04-2020 18:12:18 22.3 C 20 %
2127 24-04-2020 18:22:17 22.2 C 20 %
2128 24-04-2020 18:32:17 22 C 20 %
2129 24-04-2020 18:42:17 20.9 C 20 %
2130 24-04-2020 18:52:18 21 C 20 %
2131 24-04-2020 19:02:17 20.5 C 20 %
2132 24-04-2020 19:12:17 20.3 C 20 %
2133 24-04-2020 19:23:17 20 C 20 %
2134 24-04-2020 19:32:17 19.9 C 20 %
2135 24-04-2020 19:42:18 19.6 C 20 %
2136 24-04-2020 19:53:17 19.2 C 20 %
2137 24-04-2020 20:02:18 19 C 20 %
2138 24-04-2020 20:12:18 18.5 C 20 %
2139 24-04-2020 20:22:17 17.7 C 20 %
2140 24-04-2020 20:32:18 17.3 C 20 %
2141 24-04-2020 20:42:18 16.8 C 20 %
2142 24-04-2020 20:52:18 16.1 C 20 %
2143 24-04-2020 21:02:18 15.9 C 20 %
2144 24-04-2020 21:12:18 15.5 C 20 %
2145 24-04-2020 21:23:17 15.4 C 20 %
2146 24-04-2020 21:33:17 15 C 20 %
2147 24-04-2020 21:42:17 15.1 C 20 %
2148 24-04-2020 21:52:17 14.7 C 20 %
2149 24-04-2020 22:03:17 14.4 C 20 %
2150 24-04-2020 22:13:17 14.1 C 20 %
Sensor: Nr:Datum:Temp:Feuchte:
Aussen-T/F 2151 24-04-2020 22:22:18 14.2 C 20 %
2152 24-04-2020 22:32:18 14.4 C 20 %
2153 24-04-2020 22:42:18 13.9 C 20 %
2154 24-04-2020 22:52:18 13.3 C 20 %
2155 24-04-2020 23:02:18 13.2 C 20 %
2156 24-04-2020 23:12:18 13.2 C 20 %
2157 24-04-2020 23:22:17 12.7 C 20 %
2158 24-04-2020 23:33:17 12.5 C 20 %
2159 24-04-2020 23:43:17 13 C 20 %
2160 24-04-2020 23:53:17 12.4 C 20 %
2161 25-04-2020 00:02:18 12.6 C 20 %
2162 25-04-2020 00:12:18 12.7 C 20 %
2163 25-04-2020 00:23:17 12.6 C 20 %
2164 25-04-2020 00:32:18 12.3 C 20 %
2165 25-04-2020 00:42:18 11.8 C 20 %
2166 25-04-2020 00:52:18 11.7 C 20 %
2167 25-04-2020 01:03:17 11.7 C 20 %
2168 25-04-2020 01:12:17 11.7 C 20 %
2169 25-04-2020 01:23:17 11.3 C 22 %
2170 25-04-2020 01:33:17 11 C 25 %
2171 25-04-2020 01:43:17 11.1 C 25 %
2172 25-04-2020 01:52:17 11.1 C 25 %
2173 25-04-2020 02:02:18 10.4 C 26 %
2174 25-04-2020 02:12:18 10.3 C 26 %
2175 25-04-2020 02:23:17 9.7 C 29 %
Sensor: Nr:Datum:Temp:Feuchte:
Aussen-T/F 2176 25-04-2020 02:33:17 9.5 C 29 %
2177 25-04-2020 02:43:17 9.4 C 30 %
2178 25-04-2020 02:53:17 9.8 C 29 %
2179 25-04-2020 03:03:17 10.1 C 28 %
2180 25-04-2020 03:13:17 10 C 28 %
2181 25-04-2020 03:22:18 10 C 28 %
2182 25-04-2020 03:33:17 9.7 C 30 %
2183 25-04-2020 03:43:17 9 C 30 %
2184 25-04-2020 03:53:17 9 C 30 %
2185 25-04-2020 04:02:18 9.3 C 30 %
2186 25-04-2020 04:12:18 8.9 C 30 %
2187 25-04-2020 04:23:17 8.9 C 30 %
2188 25-04-2020 04:33:18 8.7 C 31 %
2189 25-04-2020 04:42:18 8.2 C 32 %
2190 25-04-2020 04:53:17 8.3 C 33 %
2191 25-04-2020 05:03:17 8.1 C 33 %
2192 25-04-2020 05:13:18 7.5 C 35 %
2193 25-04-2020 05:23:18 7 C 36 %
2194 25-04-2020 05:32:18 7.1 C 37 %
2195 25-04-2020 05:42:18 7.2 C 38 %
2196 25-04-2020 05:53:18 7.6 C 38 %
2197 25-04-2020 06:02:18 8 C 36 %
2198 25-04-2020 06:12:18 8.2 C 36 %
2199 25-04-2020 06:23:17 8.3 C 36 %
2200 25-04-2020 06:33:17 8.3 C 36 %
Sensor: Nr:Datum:Temp:Feuchte:
Aussen-T/F 2201 25-04-2020 06:43:18 8.4 C 35 %
2202 25-04-2020 06:53:17 8.3 C 35 %
2203 25-04-2020 07:03:18 8.3 C 35 %
2204 25-04-2020 07:12:18 8.4 C 35 %
2205 25-04-2020 07:23:17 8.3 C 35 %
2206 25-04-2020 07:32:18 8.4 C 35 %
2207 25-04-2020 07:42:18 8.4 C 35 %
2208 25-04-2020 07:52:18 8.4 C 35 %
2209 25-04-2020 08:03:17 8.4 C 34 %
2210 25-04-2020 08:13:17 8.7 C 34 %
2211 25-04-2020 08:23:17 8.6 C 34 %
2212 25-04-2020 08:33:17 8.7 C 34 %
2213 25-04-2020 08:43:17 8.8 C 34 %
2214 25-04-2020 08:53:17 8.8 C 32 %
2215 25-04-2020 09:03:17 9.3 C 32 %
2216 25-04-2020 09:13:17 9.6 C 31 %
2217 25-04-2020 09:23:17 9.7 C 31 %
2218 25-04-2020 09:33:17 9.8 C 31 %
2219 25-04-2020 09:43:17 10.2 C 30 %
2220 25-04-2020 09:53:17 10.4 C 30 %
2221 25-04-2020 10:03:17 10.8 C 30 %
2222 25-04-2020 10:13:17 10.5 C 28 %
2223 25-04-2020 10:23:17 11 C 28 %
2224 25-04-2020 10:32:18 11.1 C 27 %
2225 25-04-2020 10:42:18 10.5 C 27 %
Sensor: Nr:Datum:Temp:Feuchte:
Aussen-T/F 2226 25-04-2020 10:53:17 11.5 C 26 %
2227 25-04-2020 11:03:17 12.4 C 25 %
2228 25-04-2020 11:13:18 12 C 24 %
2229 25-04-2020 11:23:17 10.9 C 25 %
2230 25-04-2020 11:32:18 11.6 C 25 %
2231 25-04-2020 11:42:18 11.2 C 25 %
2232 25-04-2020 11:53:17 11.8 C 25 %
2233 25-04-2020 12:03:18 11.2 C 25 %
2234 25-04-2020 12:13:18 11.5 C 25 %
2235 25-04-2020 12:23:18 11.7 C 25 %
2236 25-04-2020 12:33:17 11.7 C 25 %
2237 25-04-2020 12:43:18 11.4 C 25 %
2238 25-04-2020 12:53:17 12.3 C 24 %
2239 25-04-2020 13:03:17 12.4 C 22 %
2240 25-04-2020 13:13:17 12.5 C 23 %
2241 25-04-2020 13:23:17 13.2 C 21 %
2242 25-04-2020 13:33:17 13.1 C 21 %
2243 25-04-2020 13:43:17 13.2 C 21 %
2244 25-04-2020 13:53:17 13.7 C 20 %
2245 25-04-2020 14:03:17 13.8 C 20 %
2246 25-04-2020 14:13:17 14.1 C 20 %
2247 25-04-2020 14:23:17 15.8 C 20 %
2248 25-04-2020 14:33:17 21 C 20 %
2249 25-04-2020 14:43:17 22.5 C 20 %
2250 25-04-2020 14:53:17 20.7 C 20 %
Sensor: Nr:Datum:Temp:Feuchte:
Aussen-T/F 2251 25-04-2020 15:03:17 23.8 C 20 %
2252 25-04-2020 15:13:17 23.8 C 20 %
2253 25-04-2020 15:23:17 23.7 C 20 %
2254 25-04-2020 15:33:18 25.7 C 20 %
2255 25-04-2020 15:43:18 25.7 C 20 %
2256 25-04-2020 15:53:18 26.3 C 20 %
2257 25-04-2020 16:03:17 23.2 C 20 %
2258 25-04-2020 16:13:17 24.8 C 20 %
2259 25-04-2020 16:23:17 23.9 C 20 %
2260 25-04-2020 16:33:17 25.3 C 20 %
2261 25-04-2020 16:43:17 22.5 C 20 %
2262 25-04-2020 16:53:17 23.9 C 20 %
2263 25-04-2020 17:03:17 25.1 C 20 %
2264 25-04-2020 17:13:17 25.9 C 20 %
2265 25-04-2020 17:23:17 26.4 C 20 %
2266 25-04-2020 17:33:18 27.1 C 20 %
2267 25-04-2020 17:43:18 22.5 C 20 %
2268 25-04-2020 17:53:17 23.3 C 20 %
2269 25-04-2020 18:03:17 20.1 C 20 %
2270 25-04-2020 18:13:17 18.5 C 20 %
2271 25-04-2020 18:23:17 18.6 C 20 %
2272 25-04-2020 18:33:17 18.3 C 20 %
2273 25-04-2020 18:43:17 17.9 C 20 %
2274 25-04-2020 18:53:17 17.7 C 20 %
2275 25-04-2020 19:03:17 17.5 C 20 %
Sensor: Nr:Datum:Temp:Feuchte:
Aussen-T/F 2276 25-04-2020 19:13:17 17.1 C 20 %
2277 25-04-2020 19:23:17 16.9 C 20 %
2278 25-04-2020 19:33:17 16.4 C 20 %
2279 25-04-2020 19:43:18 16.2 C 20 %
2280 25-04-2020 19:53:17 15.7 C 20 %
2281 25-04-2020 20:03:18 15.4 C 20 %
2282 25-04-2020 20:13:18 14.7 C 20 %
2283 25-04-2020 20:23:17 13.9 C 20 %
2284 25-04-2020 20:33:17 13.8 C 20 %
2285 25-04-2020 20:43:17 12.7 C 20 %
2286 25-04-2020 20:53:17 12.4 C 20 %
2287 25-04-2020 21:03:18 12.1 C 20 %
2288 25-04-2020 21:13:18 12 C 20 %
2289 25-04-2020 21:23:17 11.4 C 21 %
2290 25-04-2020 21:33:17 11.1 C 22 %
2291 25-04-2020 21:43:18 11.2 C 21 %
2292 25-04-2020 21:53:17 11 C 22 %
2293 25-04-2020 22:03:17 11 C 22 %
2294 25-04-2020 22:13:17 10.9 C 23 %
2295 25-04-2020 22:23:17 10.1 C 25 %
2296 25-04-2020 22:33:17 10.1 C 25 %
2297 25-04-2020 22:43:17 9.9 C 26 %
2298 25-04-2020 22:53:18 9.8 C 27 %
2299 25-04-2020 23:03:17 9.6 C 27 %
2300 25-04-2020 23:13:17 9.5 C 27 %
Sensor: Nr:Datum:Temp:Feuchte:
Aussen-T/F 2301 25-04-2020 23:23:17 9.1 C 28 %
2302 25-04-2020 23:33:18 8.7 C 30 %
2303 25-04-2020 23:43:18 8.2 C 31 %
2304 25-04-2020 23:53:17 7.7 C 32 %
2305 26-04-2020 00:03:18 7.1 C 33 %
2306 26-04-2020 00:13:18 6.8 C 35 %
2307 26-04-2020 00:23:17 6.6 C 35 %
2308 26-04-2020 00:33:18 6.3 C 35 %
2309 26-04-2020 00:43:18 6.2 C 36 %
2310 26-04-2020 00:53:17 5.9 C 37 %
2311 26-04-2020 01:03:17 5.8 C 37 %
2312 26-04-2020 01:13:18 5.5 C 38 %
2313 26-04-2020 01:23:17 5.6 C 38 %
2314 26-04-2020 01:33:17 5.2 C 38 %
2315 26-04-2020 01:43:17 5.1 C 38 %
2316 26-04-2020 01:53:17 5.1 C 39 %
2317 26-04-2020 02:03:17 4.7 C 40 %
2318 26-04-2020 02:13:17 4.7 C 40 %
2319 26-04-2020 02:23:17 4.6 C 40 %
2320 26-04-2020 02:33:17 4.5 C 40 %
2321 26-04-2020 02:43:17 4.8 C 41 %
2322 26-04-2020 02:53:18 4.7 C 41 %
2323 26-04-2020 03:03:17 4.4 C 41 %
2324 26-04-2020 03:13:18 4.3 C 41 %
2325 26-04-2020 03:23:17 4.1 C 41 %
Sensor: Nr:Datum:Temp:Feuchte:
Aussen-T/F 2326 26-04-2020 03:33:18 4 C 41 %
2327 26-04-2020 03:43:18 3.8 C 42 %
2328 26-04-2020 03:53:17 3.6 C 43 %
2329 26-04-2020 04:03:18 3.9 C 44 %
2330 26-04-2020 04:13:18 3.6 C 43 %
2331 26-04-2020 04:23:17 3.4 C 43 %
2332 26-04-2020 04:33:17 3.2 C 43 %
2333 26-04-2020 04:43:17 3.3 C 44 %
2334 26-04-2020 04:53:17 3.1 C 44 %
2335 26-04-2020 05:03:18 3.1 C 45 %
2336 26-04-2020 05:13:18 3 C 44 %
2337 26-04-2020 05:23:17 2.7 C 45 %
2338 26-04-2020 05:33:17 2.6 C 45 %
2339 26-04-2020 05:43:17 2.7 C 46 %
2340 26-04-2020 05:53:17 2.5 C 46 %
2341 26-04-2020 06:03:17 2.3 C 46 %
2342 26-04-2020 06:13:17 2.4 C 46 %
2343 26-04-2020 06:23:17 2.4 C 46 %
2344 26-04-2020 06:33:17 2.4 C 46 %
2345 26-04-2020 06:43:18 2.3 C 46 %
2346 26-04-2020 06:53:17 2.3 C 46 %
2347 26-04-2020 07:03:17 2.3 C 46 %
2348 26-04-2020 07:13:17 2.6 C 47 %
2349 26-04-2020 07:23:17 2.7 C 47 %
2350 26-04-2020 07:33:17 2.8 C 46 %
Sensor: Nr:Datum:Temp:Feuchte:
Aussen-T/F 2351 26-04-2020 07:43:17 2.8 C 46 %
2352 26-04-2020 07:53:17 2.9 C 47 %
2353 26-04-2020 08:03:17 3.2 C 46 %
2354 26-04-2020 08:13:17 3.4 C 46 %
2355 26-04-2020 08:23:17 3.6 C 46 %
2356 26-04-2020 08:33:17 4 C 45 %
2357 26-04-2020 08:43:17 4.3 C 45 %
2358 26-04-2020 08:53:17 4.5 C 45 %
2359 26-04-2020 09:03:17 4.9 C 45 %
2360 26-04-2020 09:13:17 5.2 C 43 %
2361 26-04-2020 09:23:17 5.8 C 44 %
2362 26-04-2020 09:33:17 6.4 C 42 %
2363 26-04-2020 09:43:17 6.8 C 41 %
2364 26-04-2020 09:53:17 7.4 C 40 %
2365 26-04-2020 10:03:18 7.8 C 39 %
2366 26-04-2020 10:13:18 8.5 C 38 %
2367 26-04-2020 10:23:17 9 C 37 %
2368 26-04-2020 10:33:18 9.6 C 36 %
2369 26-04-2020 10:43:18 10.4 C 35 %
2370 26-04-2020 10:53:17 11.3 C 32 %
2371 26-04-2020 11:03:17 12.2 C 31 %
2372 26-04-2020 11:13:17 12.8 C 29 %
2373 26-04-2020 11:23:17 13.6 C 27 %
2374 26-04-2020 11:33:17 14.1 C 26 %
2375 26-04-2020 11:43:17 14.7 C 25 %
Sensor: Nr:Datum:Temp:Feuchte:
Aussen-T/F 2376 26-04-2020 11:53:17 15.2 C 22 %
2377 26-04-2020 12:03:17 15.2 C 21 %
2378 26-04-2020 12:13:17 15.1 C 20 %
2379 26-04-2020 12:23:18 15.4 C 20 %
2380 26-04-2020 12:33:17 15.9 C 20 %
2381 26-04-2020 12:43:18 15.9 C 20 %
2382 26-04-2020 12:53:17 16.2 C 20 %
2383 26-04-2020 13:03:17 16.5 C 20 %
2384 26-04-2020 13:13:17 16.8 C 20 %
2385 26-04-2020 13:23:18 16.6 C 20 %
2386 26-04-2020 13:33:17 16.8 C 20 %
2387 26-04-2020 13:43:17 17.1 C 20 %
2388 26-04-2020 13:53:17 17.1 C 20 %
2389 26-04-2020 14:03:17 17.4 C 20 %
2390 26-04-2020 14:13:17 18.1 C 20 %
2391 26-04-2020 14:23:17 19.3 C 20 %
2392 26-04-2020 14:33:18 25 C 20 %
2393 26-04-2020 14:43:18 24.8 C 20 %
2394 26-04-2020 14:53:17 26.7 C 20 %
2395 26-04-2020 15:03:18 26.6 C 20 %
2396 26-04-2020 15:13:18 28.3 C 20 %
2397 26-04-2020 15:23:17 29.7 C 20 %
2398 26-04-2020 15:33:17 29.5 C 20 %
2399 26-04-2020 15:43:17 28 C 20 %
2400 26-04-2020 15:53:18 29 C 20 %
Sensor: Nr:Datum:Temp:Feuchte:
Aussen-T/F 2401 26-04-2020 16:03:18 30.5 C 20 %
2402 26-04-2020 16:13:18 27.6 C 20 %
2403 26-04-2020 16:23:17 28.4 C 20 %
2404 26-04-2020 16:33:17 26.5 C 20 %
2405 26-04-2020 16:43:17 30.3 C 20 %
2406 26-04-2020 16:53:17 28.1 C 20 %
2407 26-04-2020 17:03:18 29 C 20 %
2408 26-04-2020 17:13:18 28.3 C 20 %
2409 26-04-2020 17:23:18 27.4 C 20 %
2410 26-04-2020 17:33:18 27.2 C 20 %
2411 26-04-2020 17:43:18 28 C 20 %
2412 26-04-2020 17:53:17 26.5 C 20 %
2413 26-04-2020 18:03:17 25.8 C 20 %
2414 26-04-2020 18:13:17 23.1 C 20 %
2415 26-04-2020 18:23:17 22 C 20 %
2416 26-04-2020 18:33:17 21.9 C 20 %
2417 26-04-2020 18:43:17 21.1 C 20 %
2418 26-04-2020 18:53:17 21.1 C 20 %
2419 26-04-2020 19:03:17 20.9 C 20 %
2420 26-04-2020 19:13:17 20.2 C 20 %
2421 26-04-2020 19:23:17 19.7 C 20 %
2422 26-04-2020 19:33:17 19.5 C 20 %
2423 26-04-2020 19:43:18 19.1 C 20 %
2424 26-04-2020 19:53:17 18.2 C 20 %
2425 26-04-2020 20:03:18 17.3 C 20 %
Sensor: Nr:Datum:Temp:Feuchte:
Aussen-T/F 2426 26-04-2020 20:13:18 16.6 C 20 %
2427 26-04-2020 20:23:17 15.8 C 20 %
2428 26-04-2020 20:33:17 14.7 C 20 %
2429 26-04-2020 20:43:17 14.3 C 20 %
2430 26-04-2020 20:53:18 14 C 20 %
2431 26-04-2020 21:03:18 13.7 C 20 %
2432 26-04-2020 21:13:18 13.1 C 20 %
2433 26-04-2020 21:23:17 12.6 C 20 %
2434 26-04-2020 21:33:18 12.4 C 20 %
2435 26-04-2020 21:43:18 12.1 C 20 %
2436 26-04-2020 21:53:17 11.6 C 23 %
2437 26-04-2020 22:03:17 11.3 C 25 %
2438 26-04-2020 22:13:17 10.9 C 26 %
2439 26-04-2020 22:23:18 10.7 C 26 %
2440 26-04-2020 22:33:17 10.5 C 26 %
2441 26-04-2020 22:43:17 9.9 C 28 %
2442 26-04-2020 22:53:17 9.6 C 29 %
2443 26-04-2020 23:03:17 9.2 C 29 %
2444 26-04-2020 23:13:17 9 C 30 %
2445 26-04-2020 23:23:17 8.9 C 30 %
2446 26-04-2020 23:33:18 8.8 C 30 %
2447 26-04-2020 23:43:18 8.7 C 30 %
2448 26-04-2020 23:53:17 8.5 C 30 %
2449 27-04-2020 00:03:18 8.3 C 30 %
2450 27-04-2020 00:13:18 8 C 31 %
Sensor: Nr:Datum:Temp:Feuchte:
Aussen-T/F 2451 27-04-2020 00:23:18 7.9 C 32 %
2452 27-04-2020 00:33:17 7.6 C 32 %
2453 27-04-2020 00:43:17 7.4 C 33 %
2454 27-04-2020 00:53:17 7.2 C 33 %
2455 27-04-2020 01:03:18 7.1 C 33 %
2456 27-04-2020 01:13:18 6.8 C 35 %
2457 27-04-2020 01:23:18 6.9 C 35 %
2458 27-04-2020 01:33:17 6.9 C 35 %
2459 27-04-2020 01:43:17 6.8 C 35 %
2460 27-04-2020 01:53:17 6.4 C 35 %
2461 27-04-2020 02:03:17 6.2 C 36 %
2462 27-04-2020 02:13:17 6 C 36 %
2463 27-04-2020 02:23:17 5.9 C 37 %
2464 27-04-2020 02:33:17 5.7 C 37 %
2465 27-04-2020 02:43:17 6 C 37 %
2466 27-04-2020 02:53:17 6 C 37 %
2467 27-04-2020 03:03:18 5.7 C 38 %
2468 27-04-2020 03:13:18 5.6 C 38 %
2469 27-04-2020 03:23:18 5.6 C 38 %
2470 27-04-2020 03:33:17 5.6 C 38 %
2471 27-04-2020 03:43:17 5.6 C 39 %
2472 27-04-2020 03:53:17 5.7 C 39 %
2473 27-04-2020 04:03:18 5 C 38 %
2474 27-04-2020 04:13:18 4.8 C 40 %
2475 27-04-2020 04:23:17 4.4 C 40 %
Sensor: Nr:Datum:Temp:Feuchte:
Aussen-T/F 2476 27-04-2020 04:33:18 4.3 C 41 %
2477 27-04-2020 04:43:18 4 C 41 %
2478 27-04-2020 04:53:17 4.1 C 42 %
2479 27-04-2020 05:03:17 4 C 42 %
2480 27-04-2020 05:13:17 4.2 C 42 %
2481 27-04-2020 05:23:17 3.7 C 43 %
2482 27-04-2020 05:33:17 3.7 C 43 %
2483 27-04-2020 05:43:17 3.4 C 43 %
2484 27-04-2020 05:53:17 3.7 C 44 %
2485 27-04-2020 06:03:18 3.5 C 44 %
2486 27-04-2020 06:13:18 3.4 C 44 %
2487 27-04-2020 06:23:17 3.6 C 45 %
2488 27-04-2020 06:33:17 3.8 C 45 %
2489 27-04-2020 06:43:17 3.8 C 44 %
2490 27-04-2020 06:53:17 3.8 C 44 %
2491 27-04-2020 07:03:17 3.8 C 44 %
2492 27-04-2020 07:13:17 3.9 C 45 %
2493 27-04-2020 07:23:17 3.9 C 45 %
2494 27-04-2020 07:33:17 4.2 C 44 %
2495 27-04-2020 07:43:17 4.5 C 43 %
2496 27-04-2020 07:53:17 4.6 C 43 %
2497 27-04-2020 08:03:17 4.9 C 42 %
2498 27-04-2020 08:13:17 4.8 C 42 %
2499 27-04-2020 08:23:17 5.1 C 42 %
2500 27-04-2020 08:33:17 5.5 C 41 %
Sensor: Nr:Datum:Temp:Feuchte:
Aussen-T/F 2501 27-04-2020 08:43:17 5.7 C 41 %
2502 27-04-2020 08:53:17 6 C 41 %
2503 27-04-2020 09:03:18 6.4 C 40 %
2504 27-04-2020 09:13:18 6.6 C 40 %
2505 27-04-2020 09:23:17 7 C 40 %
2506 27-04-2020 09:33:17 7.6 C 39 %
2507 27-04-2020 09:43:17 8.3 C 37 %
2508 27-04-2020 09:53:17 8.5 C 38 %
2509 27-04-2020 10:03:17 9.1 C 37 %
2510 27-04-2020 10:13:17 9.9 C 37 %
2511 27-04-2020 10:23:17 10.7 C 35 %
2512 27-04-2020 10:33:17 11.7 C 34 %
2513 27-04-2020 10:43:17 12.3 C 32 %
2514 27-04-2020 10:53:17 13.5 C 30 %
2515 27-04-2020 11:03:17 15.5 C 25 %
2516 27-04-2020 11:13:17 16.6 C 22 %
2517 27-04-2020 11:23:17 16.8 C 20 %
2518 27-04-2020 11:33:17 17.2 C 20 %
2519 27-04-2020 11:43:17 17.5 C 20 %
2520 27-04-2020 11:53:17 17.7 C 20 %
2521 27-04-2020 12:03:17 18.1 C 20 %
2522 27-04-2020 12:13:17 18.4 C 20 %
2523 27-04-2020 12:23:17 18.3 C 20 %
2524 27-04-2020 12:33:17 18.7 C 20 %
2525 27-04-2020 12:43:17 19 C 20 %
Sensor: Nr:Datum:Temp:Feuchte:
Aussen-T/F 2526 27-04-2020 12:53:18 19.1 C 20 %
2527 27-04-2020 13:03:17 19.7 C 20 %
2528 27-04-2020 13:13:17 19.5 C 20 %
2529 27-04-2020 13:23:17 19.6 C 20 %
2530 27-04-2020 13:33:17 20.1 C 20 %
2531 27-04-2020 13:43:17 20.2 C 20 %
2532 27-04-2020 13:53:17 20.4 C 20 %
2533 27-04-2020 14:03:18 21 C 20 %
2534 27-04-2020 14:13:18 21.4 C 20 %
2535 27-04-2020 14:23:17 25.1 C 20 %
2536 27-04-2020 14:33:18 25.5 C 20 %
2537 27-04-2020 14:43:18 28.2 C 20 %
2538 27-04-2020 14:53:17 28.9 C 20 %
2539 27-04-2020 15:03:17 30.1 C 20 %
2540 27-04-2020 15:13:17 27.6 C 20 %
2541 27-04-2020 15:23:17 26.7 C 20 %
2542 27-04-2020 15:33:17 27.5 C 20 %
2543 27-04-2020 15:43:17 27.6 C 20 %
2544 27-04-2020 15:53:17 27.9 C 20 %
2545 27-04-2020 16:03:17 26.8 C 20 %
2546 27-04-2020 16:13:17 23.7 C 20 %
2547 27-04-2020 16:23:17 23.4 C 20 %
2548 27-04-2020 16:33:17 24.1 C 20 %
2549 27-04-2020 16:43:17 23.7 C 20 %
2550 27-04-2020 16:53:17 22.7 C 20 %
Sensor: Nr:Datum:Temp:Feuchte:
Aussen-T/F 2551 27-04-2020 17:03:18 22.1 C 20 %
2552 27-04-2020 17:13:18 22.1 C 20 %
2553 27-04-2020 17:23:17 21.6 C 20 %
2554 27-04-2020 17:33:17 21.7 C 20 %
2555 27-04-2020 17:43:17 21.6 C 20 %
2556 27-04-2020 17:53:17 22.2 C 20 %
2557 27-04-2020 18:03:17 21.5 C 20 %
2558 27-04-2020 18:13:17 21.8 C 20 %
2559 27-04-2020 18:23:17 24 C 20 %
2560 27-04-2020 18:33:18 23.1 C 20 %
2561 27-04-2020 18:43:18 22.4 C 20 %
2562 27-04-2020 18:53:17 22.1 C 20 %
2563 27-04-2020 19:03:17 20.9 C 20 %
2564 27-04-2020 19:13:17 19.4 C 20 %
2565 27-04-2020 19:23:18 19.2 C 20 %
2566 27-04-2020 19:33:17 18.3 C 20 %
2567 27-04-2020 19:43:18 18.2 C 20 %
2568 27-04-2020 19:53:17 17.4 C 20 %
2569 27-04-2020 20:03:17 17.1 C 20 %
2570 27-04-2020 20:13:17 16.8 C 20 %
2571 27-04-2020 20:23:17 16.2 C 20 %
2572 27-04-2020 20:33:17 15.4 C 21 %
2573 27-04-2020 20:43:17 15.1 C 21 %
2574 27-04-2020 20:53:18 15.2 C 21 %
2575 27-04-2020 21:03:17 15 C 21 %
Sensor: Nr:Datum:Temp:Feuchte:
Aussen-T/F 2576 27-04-2020 21:13:17 15 C 22 %
2577 27-04-2020 21:23:17 14.6 C 25 %
2578 27-04-2020 21:33:18 14.2 C 25 %
2579 27-04-2020 21:43:18 13.6 C 26 %
2580 27-04-2020 21:53:17 13.2 C 27 %
2581 27-04-2020 22:03:18 13.3 C 27 %
2582 27-04-2020 22:13:18 13.3 C 27 %
2583 27-04-2020 22:23:17 13 C 28 %
2584 27-04-2020 22:33:17 12.3 C 30 %
2585 27-04-2020 22:43:17 12.1 C 30 %
2586 27-04-2020 22:53:18 12 C 30 %
2587 27-04-2020 23:03:17 12 C 30 %
2588 27-04-2020 23:13:17 12 C 30 %
2589 27-04-2020 23:23:17 11.8 C 31 %
2590 27-04-2020 23:33:17 11.4 C 32 %
2591 27-04-2020 23:43:17 11 C 32 %
2592 27-04-2020 23:53:18 10.6 C 34 %
2593 28-04-2020 00:03:17 10.5 C 35 %
2594 28-04-2020 00:13:17 10 C 35 %
2595 28-04-2020 00:23:17 10 C 35 %
2596 28-04-2020 00:33:18 9.8 C 36 %
2597 28-04-2020 00:43:18 9.8 C 36 %
2598 28-04-2020 00:53:17 9.7 C 36 %
2599 28-04-2020 01:03:18 9.5 C 36 %
2600 28-04-2020 01:13:18 9.3 C 37 %
Sensor: Nr:Datum:Temp:Feuchte:
Aussen-T/F 2601 28-04-2020 01:23:17 9.1 C 37 %
2602 28-04-2020 01:33:17 9.1 C 37 %
2603 28-04-2020 01:43:18 9.2 C 37 %
2604 28-04-2020 01:53:17 8.8 C 38 %
2605 28-04-2020 02:03:18 8.7 C 39 %
2606 28-04-2020 02:13:18 8.8 C 39 %
2607 28-04-2020 02:23:17 8.4 C 39 %
2608 28-04-2020 02:33:18 8.2 C 39 %
2609 28-04-2020 02:43:18 8.3 C 40 %
2610 28-04-2020 02:53:18 8.6 C 40 %
2611 28-04-2020 03:03:17 8.7 C 40 %
2612 28-04-2020 03:13:17 8.4 C 40 %
2613 28-04-2020 03:23:17 8.3 C 40 %
2614 28-04-2020 03:33:18 8.3 C 40 %
2615 28-04-2020 03:43:18 7.8 C 40 %
2616 28-04-2020 03:53:18 7.7 C 41 %
2617 28-04-2020 04:03:18 7.9 C 41 %
2618 28-04-2020 04:13:18 7.4 C 41 %
2619 28-04-2020 04:23:18 7.3 C 41 %
2620 28-04-2020 04:33:18 7.3 C 42 %
2621 28-04-2020 04:43:18 7.6 C 43 %
2622 28-04-2020 04:53:17 7.7 C 42 %
2623 28-04-2020 05:03:17 7.8 C 41 %
2624 28-04-2020 05:13:17 7.8 C 42 %
2625 28-04-2020 05:23:17 7.8 C 41 %
Sensor: Nr:Datum:Temp:Feuchte:
Aussen-T/F 2626 28-04-2020 05:33:18 7.9 C 41 %
2627 28-04-2020 05:43:18 7.7 C 41 %
2628 28-04-2020 05:53:17 7.5 C 41 %
2629 28-04-2020 06:03:17 7.2 C 41 %
2630 28-04-2020 06:13:17 7 C 42 %
2631 28-04-2020 06:23:17 7.3 C 43 %
2632 28-04-2020 06:33:18 7.6 C 43 %
2633 28-04-2020 06:43:18 8 C 42 %
2634 28-04-2020 06:53:17 8.3 C 41 %
2635 28-04-2020 07:03:18 8.7 C 41 %
2636 28-04-2020 07:13:18 9.1 C 40 %
2637 28-04-2020 07:23:18 9.3 C 39 %
2638 28-04-2020 07:33:17 9.5 C 39 %
2639 28-04-2020 07:43:17 9.6 C 39 %
2640 28-04-2020 07:53:17 9.4 C 39 %
2641 28-04-2020 08:03:17 9.2 C 40 %
2642 28-04-2020 08:13:17 9.5 C 41 %
2643 28-04-2020 08:23:17 9.8 C 41 %
2644 28-04-2020 08:33:17 10 C 41 %
2645 28-04-2020 08:43:17 10.1 C 41 %
2646 28-04-2020 08:53:17 10.6 C 40 %
2647 28-04-2020 09:03:17 10.7 C 40 %
2648 28-04-2020 09:13:17 11.2 C 39 %
2649 28-04-2020 09:23:17 11.7 C 39 %
2650 28-04-2020 09:33:18 11.8 C 39 %
Sensor: Nr:Datum:Temp:Feuchte:
Aussen-T/F 2651 28-04-2020 09:43:18 11.8 C 38 %
2652 28-04-2020 09:53:17 12.2 C 38 %
2653 28-04-2020 10:03:17 12.8 C 38 %
2654 28-04-2020 10:13:17 12.9 C 37 %
2655 28-04-2020 10:23:18 13.3 C 36 %
2656 28-04-2020 10:33:17 13.7 C 36 %
2657 28-04-2020 10:43:17 14 C 35 %
2658 28-04-2020 10:53:17 14.1 C 35 %
2659 28-04-2020 11:03:17 13.4 C 37 %
2660 28-04-2020 11:13:17 13.8 C 38 %
2661 28-04-2020 11:23:17 13.5 C 38 %
2662 28-04-2020 11:33:17 14.2 C 38 %
2663 28-04-2020 11:43:17 14.3 C 37 %
2664 28-04-2020 11:53:17 14.6 C 38 %
2665 28-04-2020 12:03:17 14.9 C 37 %
2666 28-04-2020 12:13:17 15 C 37 %
2667 28-04-2020 12:23:17 14.9 C 38 %
2668 28-04-2020 12:33:17 15.2 C 37 %
2669 28-04-2020 12:43:17 15 C 38 %
2670 28-04-2020 12:53:17 14.9 C 39 %
2671 28-04-2020 13:03:18 14.7 C 39 %
2672 28-04-2020 13:13:18 14.5 C 41 %
2673 28-04-2020 13:23:17 14.2 C 41 %
2674 28-04-2020 13:33:17 14.9 C 40 %
2675 28-04-2020 13:43:17 14.9 C 38 %
Sensor: Nr:Datum:Temp:Feuchte:
Aussen-T/F 2676 28-04-2020 13:53:17 15.2 C 36 %
2677 28-04-2020 14:03:17 16.2 C 36 %
2678 28-04-2020 14:13:17 16.9 C 35 %
2679 28-04-2020 14:23:18 20.2 C 30 %
2680 28-04-2020 14:33:18 17.5 C 32 %
2681 28-04-2020 14:43:18 16.5 C 34 %
2682 28-04-2020 14:53:17 17.2 C 33 %
2683 28-04-2020 15:03:17 16.4 C 34 %
2684 28-04-2020 15:13:17 15.6 C 36 %
2685 28-04-2020 15:23:17 15.6 C 36 %
2686 28-04-2020 15:33:17 18.1 C 32 %
2687 28-04-2020 15:43:17 16.5 C 33 %
2688 28-04-2020 15:53:17 17 C 32 %
2689 28-04-2020 16:03:18 17.1 C 32 %
2690 28-04-2020 16:13:18 16.7 C 32 %
2691 28-04-2020 16:23:17 16.9 C 32 %
2692 28-04-2020 16:33:17 18.5 C 30 %
2693 28-04-2020 16:43:17 20.1 C 26 %
2694 28-04-2020 16:53:17 19.4 C 27 %
2695 28-04-2020 17:03:17 17.6 C 30 %
2696 28-04-2020 17:13:17 17.4 C 30 %
2697 28-04-2020 17:23:17 17.2 C 29 %
2698 28-04-2020 17:33:17 17 C 30 %
2699 28-04-2020 17:43:17 16.8 C 30 %
2700 28-04-2020 17:53:17 17.6 C 28 %
Sensor: Nr:Datum:Temp:Feuchte:
Aussen-T/F 2701 28-04-2020 18:03:17 18.2 C 27 %
2702 28-04-2020 18:13:17 17.4 C 29 %
2703 28-04-2020 18:23:17 18 C 28 %
2704 28-04-2020 18:33:18 17.6 C 28 %
2705 28-04-2020 18:43:18 17.7 C 28 %
2706 28-04-2020 18:53:17 16.6 C 30 %
2707 28-04-2020 19:03:17 16.3 C 30 %
2708 28-04-2020 19:13:17 16.3 C 30 %
2709 28-04-2020 19:23:17 16.3 C 30 %
2710 28-04-2020 19:33:18 16.4 C 30 %
2711 28-04-2020 19:43:18 16.5 C 30 %
2712 28-04-2020 19:53:17 16.1 C 30 %
2713 28-04-2020 20:03:18 15 C 32 %
2714 28-04-2020 20:13:18 14.2 C 35 %
2715 28-04-2020 20:23:17 13.6 C 37 %
2716 28-04-2020 20:33:17 13.4 C 37 %
2717 28-04-2020 20:43:18 13.1 C 37 %
2718 28-04-2020 20:53:17 13 C 38 %
2719 28-04-2020 21:03:17 12.5 C 39 %
2720 28-04-2020 21:13:17 13.5 C 36 %
2721 28-04-2020 21:23:17 13.9 C 35 %
2722 28-04-2020 21:33:17 14.6 C 34 %
2723 28-04-2020 21:43:17 14.4 C 34 %
2724 28-04-2020 21:53:17 14.2 C 34 %
2725 28-04-2020 22:03:17 13.4 C 35 %
Sensor: Nr:Datum:Temp:Feuchte:
Aussen-T/F 2726 28-04-2020 22:13:17 12.8 C 37 %
2727 28-04-2020 22:23:17 12.8 C 37 %
2728 28-04-2020 22:33:17 13 C 36 %
2729 28-04-2020 22:43:17 13.1 C 36 %
2730 28-04-2020 22:53:18 12.9 C 37 %
2731 28-04-2020 23:03:17 12.7 C 38 %
2732 28-04-2020 23:13:18 12.7 C 38 %
2733 28-04-2020 23:23:18 12.7 C 38 %
2734 28-04-2020 23:33:18 12.7 C 38 %
2735 28-04-2020 23:43:18 12.5 C 39 %
2736 28-04-2020 23:53:18 12.2 C 39 %
2737 29-04-2020 00:03:17 12.2 C 39 %
2738 29-04-2020 00:13:17 12.2 C 39 %
2739 29-04-2020 00:23:17 12.1 C 39 %
2740 29-04-2020 00:33:18 11.8 C 40 %
2741 29-04-2020 00:43:18 11.5 C 40 %
2742 29-04-2020 00:53:18 11.5 C 40 %
2743 29-04-2020 01:03:18 11.5 C 40 %
2744 29-04-2020 01:13:18 11.6 C 40 %
2745 29-04-2020 01:23:17 11.7 C 40 %
2746 29-04-2020 01:33:17 11.6 C 42 %
2747 29-04-2020 01:43:17 11.4 C 43 %
2748 29-04-2020 01:53:17 11.4 C 44 %
2749 29-04-2020 02:03:17 11.4 C 44 %
2750 29-04-2020 02:13:17 11.4 C 41 %
Sensor: Nr:Datum:Temp:Feuchte:
Aussen-T/F 2751 29-04-2020 02:23:17 12.3 C 37 %
2752 29-04-2020 02:33:18 12.6 C 37 %
2753 29-04-2020 02:43:18 12.5 C 36 %
2754 29-04-2020 02:53:17 12.1 C 36 %
2755 29-04-2020 03:03:17 12 C 36 %
2756 29-04-2020 03:13:17 11.4 C 39 %
2757 29-04-2020 03:23:17 11.5 C 39 %
2758 29-04-2020 03:33:17 11.7 C 39 %
2759 29-04-2020 03:43:17 12 C 37 %
2760 29-04-2020 03:53:17 12.1 C 37 %
2761 29-04-2020 04:03:17 11.9 C 39 %
2762 29-04-2020 04:13:17 11.9 C 39 %
2763 29-04-2020 04:23:17 11.7 C 39 %
2764 29-04-2020 04:33:17 11.9 C 38 %
2765 29-04-2020 04:43:18 11.6 C 39 %
2766 29-04-2020 04:53:17 11.4 C 39 %
2767 29-04-2020 05:03:18 11.7 C 39 %
2768 29-04-2020 05:13:18 11.5 C 39 %
2769 29-04-2020 05:23:18 11.7 C 39 %
2770 29-04-2020 05:33:17 11.5 C 39 %
2771 29-04-2020 05:43:17 11.4 C 39 %
2772 29-04-2020 05:53:17 11.3 C 40 %
2773 29-04-2020 06:03:18 11.3 C 40 %
2774 29-04-2020 06:13:18 11.5 C 39 %
2775 29-04-2020 06:23:17 11.6 C 38 %
Sensor: Nr:Datum:Temp:Feuchte:
Aussen-T/F 2776 29-04-2020 06:33:17 11.2 C 39 %
2777 29-04-2020 06:43:17 11 C 40 %
2778 29-04-2020 06:53:17 11.2 C 40 %
2779 29-04-2020 07:03:17 11.5 C 39 %
2780 29-04-2020 07:13:17 11.9 C 39 %
2781 29-04-2020 07:23:17 12.1 C 37 %
2782 29-04-2020 07:33:17 12.3 C 37 %
2783 29-04-2020 07:43:17 12.4 C 36 %
2784 29-04-2020 07:53:17 12.7 C 36 %
2785 29-04-2020 08:03:17 12.9 C 36 %
2786 29-04-2020 08:13:17 12.9 C 36 %
2787 29-04-2020 08:23:17 12.7 C 36 %
2788 29-04-2020 08:33:17 12.6 C 36 %
2789 29-04-2020 08:43:17 12.5 C 36 %
2790 29-04-2020 08:53:17 13 C 35 %
2791 29-04-2020 09:03:17 13.1 C 35 %
2792 29-04-2020 09:13:17 13.2 C 35 %
2793 29-04-2020 09:23:17 13.5 C 34 %
2794 29-04-2020 09:33:17 13.6 C 33 %
2795 29-04-2020 09:43:17 13.9 C 32 %
2796 29-04-2020 09:53:17 14.1 C 32 %
2797 29-04-2020 10:03:17 14.5 C 31 %
2798 29-04-2020 10:13:17 14.8 C 30 %
2799 29-04-2020 10:23:17 15.1 C 29 %
2800 29-04-2020 10:33:17 14.8 C 30 %
Sensor: Nr:Datum:Temp:Feuchte:
Aussen-T/F 2801 29-04-2020 10:43:17 15 C 29 %
2802 29-04-2020 10:53:17 15.5 C 28 %
2803 29-04-2020 11:03:17 16 C 28 %
2804 29-04-2020 11:13:17 16 C 28 %
2805 29-04-2020 11:23:17 16.3 C 27 %
2806 29-04-2020 11:33:18 16.8 C 27 %
2807 29-04-2020 11:43:18 16.9 C 25 %
2808 29-04-2020 11:53:17 17.1 C 25 %
2809 29-04-2020 12:03:18 17.5 C 25 %
2810 29-04-2020 12:13:18 16.4 C 25 %
2811 29-04-2020 12:23:17 15.5 C 26 %
2812 29-04-2020 12:33:17 15.9 C 26 %
2813 29-04-2020 12:43:17 16.3 C 25 %
2814 29-04-2020 12:53:17 16.2 C 25 %
2815 29-04-2020 13:03:17 17.5 C 25 %
2816 29-04-2020 13:13:17 16.4 C 25 %
2817 29-04-2020 13:23:18 16.1 C 25 %
2818 29-04-2020 13:33:18 17.5 C 25 %
2819 29-04-2020 13:43:18 17.3 C 25 %
2820 29-04-2020 13:53:18 16.6 C 25 %
2821 29-04-2020 14:03:18 16.7 C 26 %
2822 29-04-2020 14:13:18 15.7 C 26 %
2823 29-04-2020 14:23:18 15.9 C 26 %
2824 29-04-2020 14:33:17 16.1 C 26 %
2825 29-04-2020 14:43:17 19.2 C 22 %
Sensor: Nr:Datum:Temp:Feuchte:
Aussen-T/F 2826 29-04-2020 14:53:17 21.1 C 20 %
2827 29-04-2020 15:03:17 20.9 C 20 %
2828 29-04-2020 15:13:17 22.7 C 20 %
2829 29-04-2020 15:23:17 22.3 C 20 %
2830 29-04-2020 15:33:17 19.6 C 20 %
2831 29-04-2020 15:43:17 18.7 C 20 %
2832 29-04-2020 15:53:17 19.2 C 20 %
2833 29-04-2020 16:03:17 17.4 C 22 %
2834 29-04-2020 16:13:17 17.9 C 22 %
2835 29-04-2020 16:23:17 18.4 C 20 %
2836 29-04-2020 16:33:17 17.7 C 21 %
2837 29-04-2020 16:43:17 20.2 C 20 %
2838 29-04-2020 16:53:17 18.2 C 20 %
2839 29-04-2020 17:03:17 17.4 C 22 %
2840 29-04-2020 17:13:17 16 C 25 %
2841 29-04-2020 17:23:17 19.4 C 23 %
2842 29-04-2020 17:33:17 21.1 C 20 %
2843 29-04-2020 17:43:17 21.2 C 20 %
2844 29-04-2020 17:53:17 20.2 C 20 %
2845 29-04-2020 18:03:17 21 C 20 %
2846 29-04-2020 18:13:18 17.5 C 21 %
2847 29-04-2020 18:23:17 17.4 C 21 %
2848 29-04-2020 18:33:17 17.7 C 22 %
2849 29-04-2020 18:43:17 17.9 C 22 %
2850 29-04-2020 18:53:17 17.2 C 23 %
Sensor: Nr:Datum:Temp:Feuchte:
Aussen-T/F 2851 29-04-2020 19:03:18 17 C 25 %
2852 29-04-2020 19:13:18 17.5 C 24 %
2853 29-04-2020 19:23:17 17.5 C 23 %
2854 29-04-2020 19:33:17 17.1 C 23 %
2855 29-04-2020 19:43:18 16.7 C 24 %
2856 29-04-2020 19:53:17 16.1 C 25 %
2857 29-04-2020 20:03:18 15.4 C 26 %
2858 29-04-2020 20:13:18 15 C 26 %
2859 29-04-2020 20:23:18 14.7 C 29 %
2860 29-04-2020 20:33:17 14.5 C 29 %
2861 29-04-2020 20:43:17 14.5 C 28 %
2862 29-04-2020 20:53:18 14.4 C 28 %
2863 29-04-2020 21:03:18 13.8 C 30 %
2864 29-04-2020 21:13:18 13.2 C 31 %
2865 29-04-2020 21:23:17 12.9 C 33 %
2866 29-04-2020 21:33:17 13 C 32 %
2867 29-04-2020 21:43:17 13.5 C 32 %
2868 29-04-2020 21:53:17 13.2 C 32 %
2869 29-04-2020 22:03:18 13 C 32 %
2870 29-04-2020 22:13:18 13.2 C 33 %
2871 29-04-2020 22:23:17 13.5 C 32 %
2872 29-04-2020 22:33:17 13.3 C 32 %
2873 29-04-2020 22:43:17 13.1 C 32 %
2874 29-04-2020 22:53:18 13.3 C 33 %
2875 29-04-2020 23:03:18 12.8 C 35 %
Sensor: Nr:Datum:Temp:Feuchte:
Aussen-T/F 2876 29-04-2020 23:13:18 12.8 C 35 %
2877 29-04-2020 23:23:17 13 C 34 %
2878 29-04-2020 23:33:17 13.2 C 33 %
2879 29-04-2020 23:43:17 13.2 C 34 %
2880 29-04-2020 23:53:18 12.9 C 35 %
2881 30-04-2020 00:03:17 13 C 34 %
2882 30-04-2020 00:13:17 13.2 C 34 %
2883 30-04-2020 00:23:17 13.3 C 33 %
2884 30-04-2020 00:33:17 13.2 C 33 %
2885 30-04-2020 00:43:17 13.3 C 33 %
2886 30-04-2020 00:53:17 13.1 C 33 %
2887 30-04-2020 01:03:17 13.1 C 33 %
2888 30-04-2020 01:13:17 13.2 C 33 %
2889 30-04-2020 01:23:17 13.2 C 33 %
2890 30-04-2020 01:33:17 13.4 C 33 %
2891 30-04-2020 01:43:17 13.4 C 32 %
2892 30-04-2020 01:53:17 13 C 34 %
2893 30-04-2020 02:03:17 12 C 37 %
2894 30-04-2020 02:13:17 11.8 C 39 %
2895 30-04-2020 02:23:17 11.5 C 39 %
2896 30-04-2020 02:33:17 11.8 C 38 %
2897 30-04-2020 02:43:17 11.7 C 38 %
2898 30-04-2020 02:53:17 11.8 C 37 %
2899 30-04-2020 03:03:17 11.7 C 37 %
2900 30-04-2020 03:13:17 11.2 C 38 %
Sensor: Nr:Datum:Temp:Feuchte:
Aussen-T/F 2901 30-04-2020 03:23:17 10.9 C 40 %
2902 30-04-2020 03:33:17 10.9 C 40 %
2903 30-04-2020 03:43:18 11 C 40 %
2904 30-04-2020 03:53:17 11 C 40 %
2905 30-04-2020 04:03:17 10.8 C 41 %
2906 30-04-2020 04:13:17 10.7 C 41 %
2907 30-04-2020 04:23:17 10.6 C 43 %
2908 30-04-2020 04:33:18 10.7 C 44 %
2909 30-04-2020 04:43:18 10.6 C 44 %
2910 30-04-2020 04:53:17 10.7 C 45 %
2911 30-04-2020 05:03:17 10.7 C 45 %
2912 30-04-2020 05:13:17 10.8 C 45 %
2913 30-04-2020 05:23:17 10.8 C 45 %
2914 30-04-2020 05:33:17 10.8 C 45 %
2915 30-04-2020 05:43:17 10.7 C 45 %
2916 30-04-2020 05:53:18 10.8 C 45 %
2917 30-04-2020 06:03:17 10.7 C 45 %
2918 30-04-2020 06:13:18 10.7 C 45 %
2919 30-04-2020 06:23:17 10.7 C 45 %
2920 30-04-2020 06:33:17 10.8 C 45 %
2921 30-04-2020 06:43:17 10.7 C 45 %
2922 30-04-2020 06:53:17 10.8 C 45 %
2923 30-04-2020 07:03:17 10.6 C 44 %
2924 30-04-2020 07:13:17 10.3 C 42 %
2925 30-04-2020 07:23:17 10.2 C 42 %
Sensor: Nr:Datum:Temp:Feuchte:
Aussen-T/F 2926 30-04-2020 07:33:17 10.2 C 42 %
2927 30-04-2020 07:43:17 10.1 C 42 %
2928 30-04-2020 07:53:17 10 C 43 %
2929 30-04-2020 08:03:17 9.9 C 42 %
2930 30-04-2020 08:13:17 9.8 C 43 %
2931 30-04-2020 08:23:17 10 C 43 %
2932 30-04-2020 08:33:17 11 C 39 %
2933 30-04-2020 08:43:17 10.7 C 40 %
2934 30-04-2020 08:53:17 10.9 C 40 %
2935 30-04-2020 09:03:17 11.2 C 39 %
2936 30-04-2020 09:13:17 11.8 C 37 %
2937 30-04-2020 09:23:18 12.1 C 36 %
2938 30-04-2020 09:33:17 12.5 C 36 %
2939 30-04-2020 09:43:17 12.5 C 36 %
2940 30-04-2020 09:53:17 12.7 C 36 %
2941 30-04-2020 10:03:17 13.2 C 35 %
2942 30-04-2020 10:13:17 13.9 C 35 %
2943 30-04-2020 10:23:17 14 C 33 %
2944 30-04-2020 10:33:17 13.7 C 32 %
2945 30-04-2020 10:43:17 14.4 C 31 %
2946 30-04-2020 10:53:18 14 C 31 %
2947 30-04-2020 11:03:18 14 C 30 %
2948 30-04-2020 11:13:18 14 C 30 %
2949 30-04-2020 11:23:17 14 C 31 %
2950 30-04-2020 11:33:17 14.5 C 31 %
Sensor: Nr:Datum:Temp:Feuchte:
Aussen-T/F 2951 30-04-2020 11:43:17 14.2 C 30 %
2952 30-04-2020 11:53:17 14.3 C 30 %
2953 30-04-2020 12:03:18 14.5 C 30 %
2954 30-04-2020 12:13:18 14.2 C 29 %
2955 30-04-2020 12:23:17 14.6 C 29 %
2956 30-04-2020 12:33:17 14.4 C 29 %
2957 30-04-2020 12:43:17 14.5 C 29 %
2958 30-04-2020 12:53:18 15 C 27 %
2959 30-04-2020 13:03:17 14.7 C 27 %
2960 30-04-2020 13:13:17 14.6 C 27 %
2961 30-04-2020 13:23:17 14.6 C 27 %
2962 30-04-2020 13:33:17 14.5 C 27 %
2963 30-04-2020 13:43:17 15.2 C 26 %
2964 30-04-2020 13:53:17 15.9 C 25 %
2965 30-04-2020 14:03:18 16.8 C 23 %
2966 30-04-2020 14:13:18 16.2 C 21 %
2967 30-04-2020 14:23:17 16.6 C 21 %
2968 30-04-2020 14:33:18 19.7 C 20 %
2969 30-04-2020 14:43:18 18.3 C 20 %
2970 30-04-2020 14:53:17 18.1 C 20 %
2971 30-04-2020 15:03:18 19.2 C 20 %
2972 30-04-2020 15:13:18 19.5 C 20 %
2973 30-04-2020 15:23:17 17.4 C 20 %
2974 30-04-2020 15:33:17 16.5 C 20 %
2975 30-04-2020 15:43:17 15.8 C 20 %
Sensor: Nr:Datum:Temp:Feuchte:
Aussen-T/F 2976 30-04-2020 15:53:18 15.9 C 21 %
2977 30-04-2020 16:03:17 16.2 C 20 %
2978 30-04-2020 16:13:17 16.3 C 20 %
2979 30-04-2020 16:23:17 16.7 C 21 %
2980 30-04-2020 16:33:17 16.4 C 20 %
2981 30-04-2020 16:43:18 16.3 C 21 %
2982 30-04-2020 16:53:17 15.9 C 21 %
2983 30-04-2020 17:03:17 14.8 C 25 %
2984 30-04-2020 17:13:17 12.5 C 33 %
2985 30-04-2020 17:23:18 11.8 C 37 %
2986 30-04-2020 17:33:17 11.5 C 37 %
2987 30-04-2020 17:43:17 10.7 C 40 %
2988 30-04-2020 17:53:17 10.8 C 42 %
2989 30-04-2020 18:03:17 10.6 C 41 %
2990 30-04-2020 18:13:18 10.3 C 42 %
2991 30-04-2020 18:23:17 10.2 C 42 %
2992 30-04-2020 18:33:17 10.2 C 43 %
2993 30-04-2020 18:43:17 10 C 41 %
2994 30-04-2020 18:53:17 9.9 C 41 %
2995 30-04-2020 19:03:18 9.6 C 41 %
2996 30-04-2020 19:13:18 9.5 C 41 %
2997 30-04-2020 19:23:17 10 C 40 %
2998 30-04-2020 19:33:18 10.1 C 41 %
2999 30-04-2020 19:43:18 10 C 41 %
3000 30-04-2020 19:53:17 9.9 C 44 %
Sensor: Nr:Datum:Temp:Feuchte:
Aussen-T/F 3001 30-04-2020 20:03:17 9.7 C 45 %
3002 30-04-2020 20:13:17 9.6 C 45 %
3003 30-04-2020 20:23:17 9.4 C 44 %
3004 30-04-2020 20:33:18 9 C 44 %
3005 30-04-2020 20:43:18 8.6 C 45 %
3006 30-04-2020 20:53:17 8.6 C 46 %
3007 30-04-2020 21:03:17 8.7 C 46 %
3008 30-04-2020 21:13:17 8.8 C 45 %
3009 30-04-2020 21:23:17 8.9 C 45 %
3010 30-04-2020 21:33:17 9 C 45 %
3011 30-04-2020 21:43:18 9 C 45 %
3012 30-04-2020 21:53:17 9 C 45 %
3013 30-04-2020 22:03:18 8.6 C 45 %
3014 30-04-2020 22:13:18 8.4 C 45 %
3015 30-04-2020 22:23:18 8.7 C 45 %
3016 30-04-2020 22:33:17 8.7 C 45 %
3017 30-04-2020 22:43:17 8.6 C 45 %
3018 30-04-2020 22:53:18 8.5 C 45 %
3019 30-04-2020 23:03:17 8.4 C 45 %
3020 30-04-2020 23:13:17 8.3 C 45 %
3021 30-04-2020 23:23:17 8.3 C 45 %
3022 30-04-2020 23:33:17 8.6 C 45 %
3023 30-04-2020 23:43:17 9 C 44 %
3024 30-04-2020 23:53:17 9.2 C 43 %
3025 01-05-2020 00:03:17 8.9 C 43 %
Sensor: Nr:Datum:Temp:Feuchte:
Aussen-T/F 3026 01-05-2020 00:13:17 8.6 C 44 %
3027 01-05-2020 00:23:17 8.2 C 44 %
3028 01-05-2020 00:33:18 8.4 C 44 %
3029 01-05-2020 00:43:18 8.2 C 44 %
3030 01-05-2020 00:53:17 7.8 C 45 %
3031 01-05-2020 01:03:17 8.1 C 45 %
3032 01-05-2020 01:13:18 8.2 C 44 %
3033 01-05-2020 01:23:18 8.1 C 43 %
3034 01-05-2020 01:33:18 8.1 C 43 %
3035 01-05-2020 01:43:18 8.5 C 42 %
3036 01-05-2020 01:53:17 8.5 C 41 %
3037 01-05-2020 02:03:17 8.1 C 42 %
3038 01-05-2020 02:13:18 8 C 42 %
3039 01-05-2020 02:23:17 7.7 C 43 %
3040 01-05-2020 02:33:17 7.6 C 43 %
3041 01-05-2020 02:43:17 7.8 C 43 %
3042 01-05-2020 02:53:17 7.7 C 44 %
3043 01-05-2020 03:03:17 7.4 C 44 %
3044 01-05-2020 03:13:18 7.4 C 46 %
3045 01-05-2020 03:23:17 7.9 C 44 %
3046 01-05-2020 03:33:17 8.2 C 41 %
3047 01-05-2020 03:43:17 8 C 42 %
3048 01-05-2020 03:53:18 7.4 C 44 %
3049 01-05-2020 04:03:17 7.3 C 45 %
3050 01-05-2020 04:13:17 7 C 45 %
Sensor: Nr:Datum:Temp:Feuchte:
Aussen-T/F 3051 01-05-2020 04:23:17 7.1 C 46 %
3052 01-05-2020 04:33:17 7.3 C 46 %
3053 01-05-2020 04:43:17 7.4 C 46 %
3054 01-05-2020 04:53:17 7.6 C 46 %
3055 01-05-2020 05:03:18 7.8 C 46 %
3056 01-05-2020 05:13:18 7.9 C 46 %
3057 01-05-2020 05:23:17 8 C 45 %
3058 01-05-2020 05:33:18 8 C 45 %
3059 01-05-2020 05:43:18 8.6 C 41 %
3060 01-05-2020 05:53:17 8.4 C 40 %
3061 01-05-2020 06:03:17 8.1 C 41 %
3062 01-05-2020 06:13:17 7.8 C 43 %
3063 01-05-2020 06:23:17 7.6 C 44 %
3064 01-05-2020 06:33:17 7.6 C 45 %
3065 01-05-2020 06:43:17 7.4 C 45 %
3066 01-05-2020 06:53:17 7 C 45 %
3067 01-05-2020 07:03:17 6.8 C 46 %
3068 01-05-2020 07:13:17 6.9 C 46 %
3069 01-05-2020 07:23:17 7.8 C 46 %
3070 01-05-2020 07:33:18 7.9 C 46 %
3071 01-05-2020 07:43:18 8.3 C 45 %
3072 01-05-2020 07:53:17 8.1 C 41 %
3073 01-05-2020 08:03:18 8.1 C 41 %
3074 01-05-2020 08:13:18 8.4 C 41 %
3075 01-05-2020 08:23:18 8.3 C 42 %
Sensor: Nr:Datum:Temp:Feuchte:
Aussen-T/F 3076 01-05-2020 08:33:18 8.3 C 44 %
3077 01-05-2020 08:43:18 9 C 44 %
3078 01-05-2020 08:53:17 9.2 C 42 %
3079 01-05-2020 09:03:17 9.6 C 42 %
3080 01-05-2020 09:13:17 9.7 C 42 %
3081 01-05-2020 09:23:17 10.1 C 40 %
3082 01-05-2020 09:33:17 10.4 C 38 %
3083 01-05-2020 09:43:18 10.6 C 39 %
3084 01-05-2020 09:53:18 10.5 C 38 %
3085 01-05-2020 10:03:18 10.5 C 38 %
3086 01-05-2020 10:13:18 10.6 C 37 %
3087 01-05-2020 10:23:17 10.5 C 37 %
3088 01-05-2020 10:33:17 11 C 37 %
3089 01-05-2020 10:43:17 11.5 C 36 %
3090 01-05-2020 10:53:17 12.6 C 34 %
3091 01-05-2020 11:03:17 12.5 C 33 %
3092 01-05-2020 11:13:18 12.8 C 33 %
3093 01-05-2020 11:23:17 12.7 C 32 %
3094 01-05-2020 11:33:18 13.1 C 31 %
3095 01-05-2020 11:43:18 13.1 C 31 %
3096 01-05-2020 11:53:17 12.8 C 32 %
3097 01-05-2020 12:03:17 12.1 C 32 %
3098 01-05-2020 12:13:17 11.9 C 34 %
3099 01-05-2020 12:23:17 12.1 C 33 %
3100 01-05-2020 12:33:17 11.1 C 36 %
Sensor: Nr:Datum:Temp:Feuchte:
Aussen-T/F 3101 01-05-2020 12:43:17 10.7 C 38 %
3102 01-05-2020 12:53:17 10.4 C 39 %
3103 01-05-2020 13:03:18 10.3 C 38 %
3104 01-05-2020 13:13:18 9.7 C 38 %
3105 01-05-2020 13:23:17 10.5 C 38 %
3106 01-05-2020 13:33:17 11.3 C 36 %
3107 01-05-2020 13:43:17 12.4 C 34 %
3108 01-05-2020 13:53:17 12.8 C 34 %
3109 01-05-2020 14:03:17 12.3 C 33 %
3110 01-05-2020 14:13:17 13.5 C 31 %
3111 01-05-2020 14:23:18 14.7 C 28 %
3112 01-05-2020 14:33:18 14.2 C 27 %
3113 01-05-2020 14:43:18 16.8 C 22 %
3114 01-05-2020 14:53:17 19.6 C 20 %
3115 01-05-2020 15:03:17 19.2 C 20 %
3116 01-05-2020 15:13:17 20 C 20 %
3117 01-05-2020 15:23:17 16.6 C 20 %
3118 01-05-2020 15:33:17 14.9 C 25 %
3119 01-05-2020 15:43:17 13.5 C 27 %
3120 01-05-2020 15:53:17 11.7 C 34 %
3121 01-05-2020 16:03:18 13.5 C 30 %
3122 01-05-2020 16:13:18 18.5 C 24 %
3123 01-05-2020 16:23:17 19 C 20 %
3124 01-05-2020 16:33:18 18 C 20 %
3125 01-05-2020 16:43:18 18.4 C 20 %
Sensor: Nr:Datum:Temp:Feuchte:
Aussen-T/F 3126 01-05-2020 16:53:17 17.1 C 22 %
3127 01-05-2020 17:03:18 19.1 C 20 %
3128 01-05-2020 17:13:18 18.3 C 20 %
3129 01-05-2020 17:23:17 15.5 C 25 %
3130 01-05-2020 17:33:17 14 C 28 %
3131 01-05-2020 17:43:17 12.2 C 34 %
3132 01-05-2020 17:53:17 12.3 C 35 %
3133 01-05-2020 18:03:18 12.5 C 35 %
3134 01-05-2020 18:13:18 12.1 C 35 %
3135 01-05-2020 18:23:17 12.2 C 35 %
3136 01-05-2020 18:33:18 12.8 C 35 %
3137 01-05-2020 18:43:18 13.8 C 34 %
3138 01-05-2020 18:53:17 13.2 C 31 %
3139 01-05-2020 19:03:18 12.7 C 34 %
3140 01-05-2020 19:13:18 12.1 C 35 %
3141 01-05-2020 19:23:18 11.7 C 36 %
3142 01-05-2020 19:33:17 11.8 C 35 %
3143 01-05-2020 19:43:17 11.8 C 35 %
3144 01-05-2020 19:53:17 11.4 C 35 %
3145 01-05-2020 20:03:17 11.3 C 35 %
3146 01-05-2020 20:13:17 11.3 C 35 %
3147 01-05-2020 20:23:17 11.5 C 34 %
3148 01-05-2020 20:33:17 11.1 C 34 %
3149 01-05-2020 20:43:17 10.5 C 36 %
3150 01-05-2020 20:53:17 10.3 C 37 %
Sensor: Nr:Datum:Temp:Feuchte:
Aussen-T/F 3151 01-05-2020 21:03:18 10.3 C 37 %
3152 01-05-2020 21:13:18 10.4 C 37 %
3153 01-05-2020 21:23:17 10.2 C 37 %
3154 01-05-2020 21:33:17 9.8 C 38 %
3155 01-05-2020 21:43:17 9.3 C 39 %
3156 01-05-2020 21:53:17 8.8 C 40 %
3157 01-05-2020 22:03:18 9 C 40 %
3158 01-05-2020 22:13:18 9 C 40 %
3159 01-05-2020 22:23:17 9.2 C 39 %
3160 01-05-2020 22:33:17 9.3 C 39 %
3161 01-05-2020 22:43:17 9.3 C 40 %
3162 01-05-2020 22:53:18 9.5 C 39 %
3163 01-05-2020 23:03:17 9.4 C 40 %
3164 01-05-2020 23:13:17 9.3 C 40 %
3165 01-05-2020 23:23:17 9.3 C 40 %
3166 01-05-2020 23:33:17 9.4 C 40 %
3167 01-05-2020 23:43:17 9.5 C 39 %
3168 01-05-2020 23:53:17 9.4 C 40 %
3169 02-05-2020 00:03:17 9.3 C 40 %
3170 02-05-2020 00:13:17 9.2 C 40 %
3171 02-05-2020 00:23:17 9 C 40 %
3172 02-05-2020 00:33:18 8.9 C 40 %
3173 02-05-2020 00:43:18 8.9 C 40 %
3174 02-05-2020 00:53:17 8.9 C 40 %
3175 02-05-2020 01:03:18 9.1 C 40 %
Sensor: Nr:Datum:Temp:Feuchte:
Aussen-T/F 3176 02-05-2020 01:13:18 9.3 C 39 %
3177 02-05-2020 01:23:17 9.3 C 39 %
3178 02-05-2020 01:33:17 9.1 C 40 %
3179 02-05-2020 01:43:18 8.8 C 40 %
3180 02-05-2020 01:53:17 8.5 C 40 %
3181 02-05-2020 02:03:18 8.3 C 41 %
3182 02-05-2020 02:13:18 8.3 C 42 %
3183 02-05-2020 02:23:17 8.4 C 42 %
3184 02-05-2020 02:33:18 8.7 C 41 %
3185 02-05-2020 02:43:18 9.1 C 40 %
3186 02-05-2020 02:53:17 9.3 C 39 %
3187 02-05-2020 03:03:18 9.3 C 39 %
3188 02-05-2020 03:13:18 9.1 C 39 %
3189 02-05-2020 03:23:17 9.3 C 39 %
3190 02-05-2020 03:33:17 9.2 C 39 %
3191 02-05-2020 03:43:17 8.9 C 40 %
3192 02-05-2020 03:53:17 8.9 C 40 %
3193 02-05-2020 04:03:18 8.6 C 40 %
3194 02-05-2020 04:13:18 8.4 C 41 %
3195 02-05-2020 04:23:17 8.4 C 41 %
3196 02-05-2020 04:33:18 8.8 C 40 %
3197 02-05-2020 04:43:18 9 C 39 %
3198 02-05-2020 04:53:18 8.8 C 40 %
3199 02-05-2020 05:03:17 8.8 C 39 %
3200 02-05-2020 05:13:17 8.8 C 39 %
Sensor: Nr:Datum:Temp:Feuchte:
Aussen-T/F 3201 02-05-2020 05:23:17 8.7 C 39 %
3202 02-05-2020 05:33:17 8.8 C 39 %
3203 02-05-2020 05:43:17 8.4 C 40 %
3204 02-05-2020 05:53:17 8.2 C 39 %
3205 02-05-2020 06:03:17 8.2 C 39 %
3206 02-05-2020 06:13:17 7.7 C 40 %
3207 02-05-2020 06:23:17 7.9 C 40 %
3208 02-05-2020 06:33:17 7.9 C 40 %
3209 02-05-2020 06:43:17 8 C 39 %
3210 02-05-2020 06:53:17 8.2 C 39 %
3211 02-05-2020 07:03:17 8 C 39 %
3212 02-05-2020 07:13:17 8.3 C 39 %
3213 02-05-2020 07:23:17 8.4 C 38 %
3214 02-05-2020 07:33:17 8.2 C 38 %
3215 02-05-2020 07:43:17 8 C 39 %
3216 02-05-2020 07:53:17 8.4 C 39 %
3217 02-05-2020 08:03:17 8.5 C 39 %
3218 02-05-2020 08:13:17 8.9 C 38 %
3219 02-05-2020 08:23:17 9 C 37 %
3220 02-05-2020 08:33:17 9.8 C 37 %
3221 02-05-2020 08:43:17 9.8 C 37 %
3222 02-05-2020 08:53:17 9.5 C 37 %
3223 02-05-2020 09:03:17 9.6 C 36 %
3224 02-05-2020 09:13:17 9.7 C 36 %
3225 02-05-2020 09:23:17 9.9 C 36 %
Sensor: Nr:Datum:Temp:Feuchte:
Aussen-T/F 3226 02-05-2020 09:33:17 10.8 C 35 %
3227 02-05-2020 09:43:17 10.8 C 35 %
3228 02-05-2020 09:53:17 10.2 C 35 %
3229 02-05-2020 10:03:18 9.7 C 36 %
3230 02-05-2020 10:13:18 8.6 C 40 %
3231 02-05-2020 10:23:17 6.8 C 41 %
3232 02-05-2020 10:33:17 6.7 C 44 %
3233 02-05-2020 10:43:17 6.7 C 43 %
3234 02-05-2020 10:53:17 6.9 C 43 %
3235 02-05-2020 11:03:17 7.4 C 42 %
3236 02-05-2020 11:13:17 8.4 C 40 %
3237 02-05-2020 11:23:17 8.7 C 40 %
3238 02-05-2020 11:33:17 8.8 C 40 %
3239 02-05-2020 11:43:17 9.3 C 39 %
3240 02-05-2020 11:53:17 9.2 C 39 %
3241 02-05-2020 12:03:17 9.6 C 38 %
3242 02-05-2020 12:13:17 10 C 36 %
3243 02-05-2020 12:23:17 10.3 C 36 %
3244 02-05-2020 12:33:18 10.8 C 36 %
3245 02-05-2020 12:43:18 11.8 C 35 %
3246 02-05-2020 12:53:17 10.4 C 37 %
3247 02-05-2020 13:03:17 11.7 C 32 %
3248 02-05-2020 13:13:17 12.1 C 31 %
3249 02-05-2020 13:23:17 11.4 C 32 %
3250 02-05-2020 13:33:17 11.3 C 32 %
Sensor: Nr:Datum:Temp:Feuchte:
Aussen-T/F 3251 02-05-2020 13:43:17 11.5 C 33 %
3252 02-05-2020 13:53:17 12.2 C 32 %
3253 02-05-2020 14:03:17 12.7 C 31 %
3254 02-05-2020 14:13:17 14.3 C 28 %
3255 02-05-2020 14:23:18 15.6 C 25 %
3256 02-05-2020 14:33:17 12.8 C 27 %
3257 02-05-2020 14:43:18 8.8 C 37 %
3258 02-05-2020 14:53:17 8.4 C 40 %
3259 02-05-2020 15:03:17 7.7 C 42 %
3260 02-05-2020 15:13:17 8.1 C 45 %
3261 02-05-2020 15:23:17 8.9 C 41 %
3262 02-05-2020 15:33:18 13.2 C 32 %
3263 02-05-2020 15:43:18 17.2 C 29 %
3264 02-05-2020 15:53:17 16.8 C 25 %
3265 02-05-2020 16:03:17 18.1 C 23 %
3266 02-05-2020 16:13:17 19.2 C 20 %
3267 02-05-2020 16:23:17 19.8 C 20 %
3268 02-05-2020 16:33:17 16.9 C 20 %
3269 02-05-2020 16:43:17 14.2 C 28 %
3270 02-05-2020 16:53:17 13.5 C 29 %
3271 02-05-2020 17:03:17 18.1 C 23 %
3272 02-05-2020 17:13:17 16.2 C 22 %
3273 02-05-2020 17:23:18 14.5 C 25 %
3274 02-05-2020 17:33:18 14 C 28 %
3275 02-05-2020 17:43:18 14.2 C 27 %
Sensor: Nr:Datum:Temp:Feuchte:
Aussen-T/F 3276 02-05-2020 17:53:17 16.8 C 22 %
3277 02-05-2020 18:03:17 14.7 C 20 %
3278 02-05-2020 18:13:17 14.1 C 22 %
3279 02-05-2020 18:23:17 13.3 C 26 %
3280 02-05-2020 18:33:17 13.2 C 27 %
3281 02-05-2020 18:43:17 12.6 C 29 %
3282 02-05-2020 18:53:17 12.3 C 29 %
3283 02-05-2020 19:03:17 11.9 C 31 %
3284 02-05-2020 19:13:17 11.2 C 31 %
3285 02-05-2020 19:23:17 11.7 C 29 %
3286 02-05-2020 19:33:17 11.5 C 29 %
3287 02-05-2020 19:43:18 11.5 C 30 %
3288 02-05-2020 19:53:17 11.9 C 30 %
3289 02-05-2020 20:03:17 12.1 C 30 %
3290 02-05-2020 20:13:17 11.5 C 30 %
3291 02-05-2020 20:23:17 11.3 C 30 %
3292 02-05-2020 20:33:17 10 C 35 %
3293 02-05-2020 20:43:17 9.2 C 38 %
3294 02-05-2020 20:53:17 8.8 C 39 %
3295 02-05-2020 21:03:17 8.5 C 40 %
3296 02-05-2020 21:13:17 8.3 C 40 %
3297 02-05-2020 21:23:17 8.2 C 39 %
3298 02-05-2020 21:33:17 7.9 C 40 %
3299 02-05-2020 21:43:17 7.8 C 41 %
3300 02-05-2020 21:53:18 7.4 C 41 %
Sensor: Nr:Datum:Temp:Feuchte:
Aussen-T/F 3301 02-05-2020 22:03:17 6.9 C 43 %
3302 02-05-2020 22:13:17 6.8 C 44 %
3303 02-05-2020 22:23:17 6.5 C 45 %
3304 02-05-2020 22:33:17 6.3 C 45 %
3305 02-05-2020 22:43:17 6.3 C 45 %
3306 02-05-2020 22:53:18 6.6 C 45 %
3307 02-05-2020 23:03:17 6.6 C 44 %
3308 02-05-2020 23:13:17 6.4 C 44 %
3309 02-05-2020 23:23:17 6.4 C 44 %
3310 02-05-2020 23:33:17 6.4 C 44 %
3311 02-05-2020 23:43:17 6.2 C 44 %
3312 02-05-2020 23:53:17 6 C 45 %
3313 03-05-2020 00:03:17 6 C 45 %
3314 03-05-2020 00:13:17 5.8 C 46 %
3315 03-05-2020 00:23:17 5.9 C 46 %
3316 03-05-2020 00:33:17 5.6 C 46 %
3317 03-05-2020 00:43:17 5.5 C 46 %
3318 03-05-2020 00:53:17 5.3 C 46 %
3319 03-05-2020 01:03:18 5.2 C 46 %
3320 03-05-2020 01:13:18 5.1 C 46 %
3321 03-05-2020 01:23:17 4.8 C 47 %
3322 03-05-2020 01:33:18 4.6 C 47 %
3323 03-05-2020 01:43:18 4.7 C 47 %
3324 03-05-2020 01:53:18 4.7 C 47 %
3325 03-05-2020 02:03:18 4.7 C 47 %
Sensor: Nr:Datum:Temp:Feuchte:
Aussen-T/F 3326 03-05-2020 02:13:18 5 C 46 %
3327 03-05-2020 02:23:17 4.7 C 47 %
3328 03-05-2020 02:33:18 4.5 C 47 %
3329 03-05-2020 02:43:18 4.5 C 47 %
3330 03-05-2020 02:53:17 4.3 C 47 %
3331 03-05-2020 03:03:17 4.2 C 47 %
3332 03-05-2020 03:13:17 4 C 47 %
3333 03-05-2020 03:23:17 4.2 C 47 %
3334 03-05-2020 03:33:18 4.3 C 47 %
3335 03-05-2020 03:43:18 4.1 C 46 %
3336 03-05-2020 03:53:17 3.8 C 47 %
3337 03-05-2020 04:03:18 3.8 C 47 %
3338 03-05-2020 04:13:18 3.6 C 47 %
3339 03-05-2020 04:23:18 3.5 C 47 %
3340 03-05-2020 04:33:17 3.3 C 47 %
3341 03-05-2020 04:43:17 3 C 47 %
3342 03-05-2020 04:53:17 3.1 C 47 %
3343 03-05-2020 05:03:17 2.9 C 48 %
3344 03-05-2020 05:13:17 2.8 C 48 %
3345 03-05-2020 05:23:17 2.8 C 48 %
3346 03-05-2020 05:33:17 2.8 C 48 %
3347 03-05-2020 05:43:17 2.8 C 48 %
3348 03-05-2020 05:53:17 3.1 C 47 %
3349 03-05-2020 06:03:17 3.3 C 47 %
3350 03-05-2020 06:13:17 3.6 C 47 %
Sensor: Nr:Datum:Temp:Feuchte:
Aussen-T/F 3351 03-05-2020 06:23:17 3.9 C 47 %
3352 03-05-2020 06:33:18 4 C 46 %
3353 03-05-2020 06:43:18 4 C 46 %
3354 03-05-2020 06:53:17 4 C 46 %
3355 03-05-2020 07:03:17 4 C 46 %
3356 03-05-2020 07:13:17 4.1 C 46 %
3357 03-05-2020 07:23:18 4.2 C 46 %
3358 03-05-2020 07:33:18 4.2 C 46 %
3359 03-05-2020 07:43:18 4.4 C 46 %
3360 03-05-2020 07:53:18 4.7 C 46 %
3361 03-05-2020 08:03:18 4.6 C 46 %
3362 03-05-2020 08:13:18 5 C 46 %
3363 03-05-2020 08:23:18 5.5 C 46 %
3364 03-05-2020 08:33:17 5.4 C 46 %
3365 03-05-2020 08:43:17 6.1 C 45 %
3366 03-05-2020 08:53:17 6.2 C 43 %
3367 03-05-2020 09:03:17 6.5 C 43 %
3368 03-05-2020 09:13:17 6.4 C 42 %
3369 03-05-2020 09:23:17 7.2 C 41 %
3370 03-05-2020 09:33:18 7.6 C 42 %
3371 03-05-2020 09:43:18 7.6 C 40 %
3372 03-05-2020 09:53:17 8.6 C 40 %
3373 03-05-2020 10:03:17 8.9 C 40 %
3374 03-05-2020 10:13:17 9.7 C 40 %
3375 03-05-2020 10:23:18 10.1 C 37 %
Sensor: Nr:Datum:Temp:Feuchte:
Aussen-T/F 3376 03-05-2020 10:33:17 10.7 C 39 %
3377 03-05-2020 10:43:17 11.6 C 36 %
3378 03-05-2020 10:53:17 12.5 C 34 %
3379 03-05-2020 11:03:17 12.7 C 33 %
3380 03-05-2020 11:13:17 13.5 C 32 %
3381 03-05-2020 11:23:17 14.4 C 31 %
3382 03-05-2020 11:33:17 14.5 C 30 %
3383 03-05-2020 11:43:18 14.8 C 28 %
3384 03-05-2020 11:53:18 14.5 C 25 %
3385 03-05-2020 12:03:18 14.5 C 25 %
3386 03-05-2020 12:13:18 14.7 C 25 %
3387 03-05-2020 12:23:17 14.7 C 22 %
3388 03-05-2020 12:33:18 14.7 C 23 %
3389 03-05-2020 12:43:18 14.9 C 23 %
3390 03-05-2020 12:53:17 15.1 C 20 %
3391 03-05-2020 13:03:18 16.2 C 20 %
3392 03-05-2020 13:13:18 16.1 C 20 %
3393 03-05-2020 13:23:17 16.3 C 20 %
3394 03-05-2020 13:33:18 16.3 C 20 %
3395 03-05-2020 13:43:18 16.6 C 20 %
3396 03-05-2020 13:53:18 17 C 20 %
3397 03-05-2020 14:03:18 17.4 C 20 %
3398 03-05-2020 14:13:18 18.4 C 20 %
3399 03-05-2020 14:23:17 19.4 C 20 %
3400 03-05-2020 14:33:18 23.3 C 20 %
Sensor: Nr:Datum:Temp:Feuchte:
Aussen-T/F 3401 03-05-2020 14:43:18 22.4 C 20 %
3402 03-05-2020 14:53:17 20.3 C 20 %
3403 03-05-2020 15:03:17 20.3 C 20 %
3404 03-05-2020 15:13:17 20.6 C 20 %
3405 03-05-2020 15:23:17 19.6 C 20 %
3406 03-05-2020 15:33:18 19 C 20 %
3407 03-05-2020 15:43:18 21.2 C 20 %
3408 03-05-2020 15:53:17 19.3 C 20 %
3409 03-05-2020 16:03:17 19 C 20 %
3410 03-05-2020 16:13:17 18.5 C 20 %
3411 03-05-2020 16:23:17 17.9 C 20 %
3412 03-05-2020 16:33:18 17.9 C 20 %
3413 03-05-2020 16:43:18 18.9 C 20 %
3414 03-05-2020 16:53:17 18.2 C 20 %
3415 03-05-2020 17:03:17 17.8 C 20 %
3416 03-05-2020 17:13:17 18.1 C 20 %
3417 03-05-2020 17:23:18 17.2 C 20 %
3418 03-05-2020 17:33:17 17.6 C 20 %
3419 03-05-2020 17:43:17 17.6 C 20 %
3420 03-05-2020 17:53:18 17.3 C 20 %
3421 03-05-2020 18:03:18 16.9 C 20 %
3422 03-05-2020 18:13:18 16.9 C 20 %
3423 03-05-2020 18:23:17 17.2 C 20 %
3424 03-05-2020 18:33:17 16.7 C 20 %
3425 03-05-2020 18:43:17 17 C 20 %
Sensor: Nr:Datum:Temp:Feuchte:
Aussen-T/F 3426 03-05-2020 18:53:17 16.7 C 20 %
3427 03-05-2020 19:03:17 16.2 C 20 %
3428 03-05-2020 19:13:17 15.7 C 21 %
3429 03-05-2020 19:23:17 15.6 C 22 %
3430 03-05-2020 19:33:18 15.2 C 27 %
3431 03-05-2020 19:43:18 14.1 C 29 %
3432 03-05-2020 19:53:17 13.8 C 30 %
3433 03-05-2020 20:03:17 13.3 C 30 %
3434 03-05-2020 20:13:17 13 C 30 %
3435 03-05-2020 20:23:17 12.8 C 31 %
3436 03-05-2020 20:33:18 12.5 C 31 %
3437 03-05-2020 20:43:18 12.4 C 31 %
3438 03-05-2020 20:53:17 12.3 C 32 %
3439 03-05-2020 21:03:17 12.1 C 32 %
3440 03-05-2020 21:13:17 12.1 C 32 %
3441 03-05-2020 21:23:17 12 C 32 %
3442 03-05-2020 21:33:17 12.1 C 32 %
3443 03-05-2020 21:43:18 12 C 32 %
3444 03-05-2020 21:53:17 12 C 33 %
3445 03-05-2020 22:03:18 12 C 33 %
3446 03-05-2020 22:13:18 11.8 C 34 %
3447 03-05-2020 22:23:17 11.8 C 34 %
3448 03-05-2020 22:33:17 11.7 C 34 %
3449 03-05-2020 22:43:17 11.6 C 34 %
3450 03-05-2020 22:53:18 11.4 C 35 %
Sensor: Nr:Datum:Temp:Feuchte:
Aussen-T/F 3451 03-05-2020 23:03:17 11.3 C 35 %
3452 03-05-2020 23:13:17 11.2 C 34 %
3453 03-05-2020 23:23:17 11.4 C 35 %
3454 03-05-2020 23:33:17 11.4 C 34 %
3455 03-05-2020 23:43:17 11.3 C 35 %
3456 03-05-2020 23:53:17 11.4 C 35 %
3457 04-05-2020 00:03:17 11.4 C 35 %
3458 04-05-2020 00:13:17 11.2 C 35 %
3459 04-05-2020 00:23:17 11 C 36 %
3460 04-05-2020 00:33:18 11 C 36 %
3461 04-05-2020 00:43:18 11.1 C 36 %
3462 04-05-2020 00:53:17 11 C 36 %
3463 04-05-2020 01:03:17 10.9 C 36 %
3464 04-05-2020 01:13:17 10.8 C 36 %
3465 04-05-2020 01:23:17 11.1 C 35 %
3466 04-05-2020 01:33:17 11 C 35 %
3467 04-05-2020 01:43:17 11.1 C 35 %
3468 04-05-2020 01:53:17 11 C 35 %
3469 04-05-2020 02:03:17 10.8 C 37 %
3470 04-05-2020 02:13:17 10.8 C 36 %
3471 04-05-2020 02:23:17 10.6 C 37 %
3472 04-05-2020 02:33:18 10.7 C 36 %
3473 04-05-2020 02:43:18 10.7 C 37 %
3474 04-05-2020 02:53:17 10.1 C 37 %
3475 04-05-2020 03:03:17 9.9 C 37 %
Sensor: Nr:Datum:Temp:Feuchte:
Aussen-T/F 3476 04-05-2020 03:13:17 9.7 C 37 %
3477 04-05-2020 03:23:17 9.4 C 38 %
3478 04-05-2020 03:33:17 9.1 C 39 %
3479 04-05-2020 03:43:17 9.1 C 38 %
3480 04-05-2020 03:53:18 8.8 C 39 %
3481 04-05-2020 04:03:17 8.5 C 40 %
3482 04-05-2020 04:13:17 8.6 C 40 %
3483 04-05-2020 04:23:17 8.8 C 40 %
3484 04-05-2020 04:33:17 9 C 40 %
3485 04-05-2020 04:43:17 9.2 C 40 %
3486 04-05-2020 04:53:18 9.3 C 40 %
3487 04-05-2020 05:03:17 9.5 C 39 %
3488 04-05-2020 05:13:17 9.6 C 40 %
3489 04-05-2020 05:23:17 9.6 C 39 %
3490 04-05-2020 05:33:18 9.8 C 39 %
3491 04-05-2020 05:43:18 9.7 C 39 %
3492 04-05-2020 05:53:17 9.7 C 39 %
3493 04-05-2020 06:03:18 9.6 C 40 %
3494 04-05-2020 06:13:18 9.6 C 40 %
3495 04-05-2020 06:23:18 9.6 C 40 %
3496 04-05-2020 06:33:17 9.6 C 40 %
3497 04-05-2020 06:43:17 9.5 C 40 %
3498 04-05-2020 06:53:17 9.6 C 40 %
3499 04-05-2020 07:03:17 9.8 C 40 %
3500 04-05-2020 07:13:17 10.1 C 40 %
Sensor: Nr:Datum:Temp:Feuchte:
Aussen-T/F 3501 04-05-2020 07:23:17 10.6 C 39 %
3502 04-05-2020 07:33:17 11.2 C 37 %
3503 04-05-2020 07:43:18 11.4 C 36 %
3504 04-05-2020 07:53:17 11.3 C 37 %
3505 04-05-2020 08:03:17 10.8 C 40 %
3506 04-05-2020 08:13:17 10.6 C 41 %
3507 04-05-2020 08:23:17 10.7 C 43 %
3508 04-05-2020 08:33:17 11 C 42 %
3509 04-05-2020 08:43:18 11.3 C 42 %
3510 04-05-2020 08:53:17 11.2 C 41 %
3511 04-05-2020 09:03:18 11.2 C 41 %
3512 04-05-2020 09:13:18 11.3 C 41 %
3513 04-05-2020 09:23:18 11.3 C 42 %
3514 04-05-2020 09:33:17 11.3 C 43 %
3515 04-05-2020 09:43:17 11.5 C 41 %
3516 04-05-2020 09:53:17 12.3 C 39 %
3517 04-05-2020 10:03:18 13 C 37 %
3518 04-05-2020 10:13:18 14 C 36 %
3519 04-05-2020 10:23:17 13.6 C 36 %
3520 04-05-2020 10:33:18 14.8 C 35 %
3521 04-05-2020 10:43:18 14.3 C 35 %
3522 04-05-2020 10:53:17 14.2 C 36 %
3523 04-05-2020 11:03:17 13.4 C 37 %
3524 04-05-2020 11:13:17 13.2 C 38 %
3525 04-05-2020 11:23:17 13 C 39 %
Sensor: Nr:Datum:Temp:Feuchte:
Aussen-T/F 3526 04-05-2020 11:33:18 12.4 C 40 %
3527 04-05-2020 11:43:18 12.2 C 40 %
3528 04-05-2020 11:53:17 12 C 41 %
3529 04-05-2020 12:03:17 11.9 C 41 %
3530 04-05-2020 12:13:17 12.3 C 40 %
3531 04-05-2020 12:23:17 13.1 C 38 %
3532 04-05-2020 12:33:17 13.8 C 36 %
3533 04-05-2020 12:43:17 13.5 C 37 %
3534 04-05-2020 12:53:17 14.4 C 36 %
3535 04-05-2020 13:03:18 14.5 C 35 %
3536 04-05-2020 13:13:18 15.6 C 34 %
3537 04-05-2020 13:23:17 16 C 32 %
3538 04-05-2020 13:33:17 16.4 C 32 %
3539 04-05-2020 13:43:17 16.3 C 31 %
3540 04-05-2020 13:53:17 15.3 C 32 %
3541 04-05-2020 14:03:17 15 C 32 %
3542 04-05-2020 14:13:17 15.6 C 33 %
3543 04-05-2020 14:23:17 16.2 C 31 %
3544 04-05-2020 14:33:17 15.9 C 31 %
3545 04-05-2020 14:43:17 15.3 C 31 %
3546 04-05-2020 14:53:17 15.2 C 32 %
3547 04-05-2020 15:03:17 14.4 C 34 %
3548 04-05-2020 15:13:17 14.4 C 34 %
3549 04-05-2020 15:23:17 14.8 C 33 %
3550 04-05-2020 15:33:17 14.5 C 33 %
Sensor: Nr:Datum:Temp:Feuchte:
Aussen-T/F 3551 04-05-2020 15:43:17 15.4 C 31 %
3552 04-05-2020 15:53:17 15.8 C 31 %
3553 04-05-2020 16:03:18 16 C 30 %
3554 04-05-2020 16:13:18 15.9 C 30 %
3555 04-05-2020 16:23:17 15.2 C 30 %
3556 04-05-2020 16:33:17 14.4 C 30 %
3557 04-05-2020 16:43:17 15 C 30 %
3558 04-05-2020 16:53:18 14.9 C 30 %
3559 04-05-2020 17:03:18 14.8 C 31 %
3560 04-05-2020 17:13:18 14.4 C 31 %
3561 04-05-2020 17:23:17 14.7 C 30 %
3562 04-05-2020 17:33:18 14.4 C 31 %
3563 04-05-2020 17:43:18 14.2 C 30 %
3564 04-05-2020 17:53:17 14.4 C 30 %
3565 04-05-2020 18:03:17 14.7 C 30 %
3566 04-05-2020 18:13:17 14.4 C 30 %
3567 04-05-2020 18:23:17 14 C 30 %
3568 04-05-2020 18:33:17 13.8 C 31 %
3569 04-05-2020 18:43:17 13.7 C 31 %
3570 04-05-2020 18:53:17 13.7 C 30 %
3571 04-05-2020 19:03:17 13.7 C 31 %
3572 04-05-2020 19:13:17 13.4 C 32 %
3573 04-05-2020 19:23:17 13.1 C 33 %
3574 04-05-2020 19:33:17 13 C 33 %
3575 04-05-2020 19:43:17 12.8 C 34 %
Sensor: Nr:Datum:Temp:Feuchte:
Aussen-T/F 3576 04-05-2020 19:53:17 12.7 C 35 %
3577 04-05-2020 20:03:18 12.7 C 35 %
3578 04-05-2020 20:13:18 12.6 C 36 %
3579 04-05-2020 20:23:17 12.2 C 36 %
3580 04-05-2020 20:33:17 11.7 C 37 %
3581 04-05-2020 20:43:18 11.8 C 35 %
3582 04-05-2020 20:53:17 11.4 C 36 %
3583 04-05-2020 21:03:17 10.8 C 36 %
3584 04-05-2020 21:13:17 10.4 C 36 %
3585 04-05-2020 21:23:18 9.9 C 36 %
3586 04-05-2020 21:33:17 9.6 C 36 %
3587 04-05-2020 21:43:17 9.1 C 37 %
3588 04-05-2020 21:53:17 8.6 C 37 %
3589 04-05-2020 22:03:17 8.5 C 37 %
3590 04-05-2020 22:13:17 8.3 C 37 %
3591 04-05-2020 22:23:17 7.7 C 40 %
3592 04-05-2020 22:33:17 7.3 C 40 %
3593 04-05-2020 22:43:17 7 C 41 %
3594 04-05-2020 22:53:17 6.9 C 42 %
3595 04-05-2020 23:03:17 6.5 C 42 %
3596 04-05-2020 23:13:17 6.3 C 42 %
3597 04-05-2020 23:23:17 6.4 C 42 %
3598 04-05-2020 23:33:17 6.5 C 41 %
3599 04-05-2020 23:43:17 6.3 C 41 %
3600 04-05-2020 23:53:17 6.1 C 42 %
Sensor: Nr:Datum:Temp:Feuchte:
Aussen-T/F 3601 05-05-2020 00:03:17 6.1 C 41 %
3602 05-05-2020 00:13:17 5.9 C 42 %
3603 05-05-2020 00:23:17 5.8 C 43 %
3604 05-05-2020 00:33:18 5.5 C 43 %
3605 05-05-2020 00:43:18 5.4 C 45 %
3606 05-05-2020 00:53:17 5.4 C 44 %
3607 05-05-2020 01:03:18 5.1 C 44 %
3608 05-05-2020 01:13:18 5 C 45 %
3609 05-05-2020 01:23:18 4.8 C 45 %
3610 05-05-2020 01:33:17 4.7 C 46 %
3611 05-05-2020 01:43:17 4.6 C 45 %
3612 05-05-2020 01:53:18 4.3 C 46 %
3613 05-05-2020 02:03:18 4.2 C 46 %
3614 05-05-2020 02:13:18 4.2 C 46 %
3615 05-05-2020 02:23:17 4.2 C 47 %
3616 05-05-2020 02:33:17 4.1 C 46 %
3617 05-05-2020 02:43:17 4 C 47 %
3618 05-05-2020 02:53:17 4 C 47 %
3619 05-05-2020 03:03:17 3.9 C 48 %
3620 05-05-2020 03:13:18 4.4 C 47 %
3621 05-05-2020 03:23:17 4.4 C 47 %
3622 05-05-2020 03:33:18 4.2 C 46 %
3623 05-05-2020 03:43:18 4.2 C 47 %
3624 05-05-2020 03:53:18 4.1 C 47 %
3625 05-05-2020 04:03:17 4 C 47 %
Sensor: Nr:Datum:Temp:Feuchte:
Aussen-T/F 3626 05-05-2020 04:13:17 3.8 C 47 %
3627 05-05-2020 04:23:17 3.7 C 47 %
3628 05-05-2020 04:33:17 3.7 C 47 %
3629 05-05-2020 04:43:18 3.6 C 47 %
3630 05-05-2020 04:53:17 3.5 C 47 %
3631 05-05-2020 05:03:18 3.4 C 47 %
3632 05-05-2020 05:13:18 3.6 C 47 %
3633 05-05-2020 05:23:17 3.7 C 47 %
3634 05-05-2020 05:33:17 3.6 C 47 %
3635 05-05-2020 05:43:17 3.5 C 47 %
3636 05-05-2020 05:53:17 3.5 C 47 %
3637 05-05-2020 06:03:17 3.6 C 47 %
3638 05-05-2020 06:13:17 3.6 C 47 %
3639 05-05-2020 06:23:17 3.8 C 47 %
3640 05-05-2020 06:33:17 4.1 C 46 %
3641 05-05-2020 06:43:17 4.2 C 46 %
3642 05-05-2020 06:53:17 4.3 C 46 %
3643 05-05-2020 07:03:17 4.6 C 46 %
3644 05-05-2020 07:13:17 4.9 C 46 %
3645 05-05-2020 07:23:18 4.9 C 46 %
3646 05-05-2020 07:33:17 5.3 C 46 %
3647 05-05-2020 07:43:17 5.7 C 46 %
3648 05-05-2020 07:53:17 6 C 45 %
3649 05-05-2020 08:03:17 6.3 C 45 %
3650 05-05-2020 08:13:17 6.4 C 44 %
Sensor: Nr:Datum:Temp:Feuchte:
Aussen-T/F 3651 05-05-2020 08:23:17 6.9 C 43 %
3652 05-05-2020 08:33:17 6.9 C 42 %
3653 05-05-2020 08:43:17 6.9 C 42 %
3654 05-05-2020 08:53:17 7.1 C 41 %
3655 05-05-2020 09:03:17 7.4 C 40 %
3656 05-05-2020 09:13:17 7.9 C 39 %
3657 05-05-2020 09:23:17 8.1 C 39 %
3658 05-05-2020 09:33:17 8.6 C 38 %
3659 05-05-2020 09:43:18 9.1 C 37 %
3660 05-05-2020 09:53:17 9.3 C 36 %
3661 05-05-2020 10:03:17 9.5 C 36 %
3662 05-05-2020 10:13:17 10 C 34 %
3663 05-05-2020 10:23:18 10.1 C 33 %
3664 05-05-2020 10:33:17 10.5 C 32 %
3665 05-05-2020 10:43:17 11 C 31 %
3666 05-05-2020 10:53:17 11.3 C 31 %
3667 05-05-2020 11:03:17 12.1 C 29 %
3668 05-05-2020 11:13:17 12.2 C 28 %
3669 05-05-2020 11:23:18 13.1 C 27 %
3670 05-05-2020 11:33:18 13.1 C 26 %
3671 05-05-2020 11:43:18 13.4 C 26 %
3672 05-05-2020 11:53:17 13.7 C 26 %
3673 05-05-2020 12:03:18 13.7 C 25 %
3674 05-05-2020 12:13:18 14.5 C 25 %
3675 05-05-2020 12:23:17 13.9 C 25 %
Sensor: Nr:Datum:Temp:Feuchte:
Aussen-T/F 3676 05-05-2020 12:33:18 13.5 C 25 %
3677 05-05-2020 12:43:18 13.7 C 25 %
3678 05-05-2020 12:53:17 13.7 C 25 %
3679 05-05-2020 13:03:18 13.9 C 25 %
3680 05-05-2020 13:13:18 14.2 C 25 %
3681 05-05-2020 13:23:18 14.5 C 24 %
3682 05-05-2020 13:33:17 15.8 C 22 %
3683 05-05-2020 13:43:17 15.9 C 21 %
3684 05-05-2020 13:53:17 16.4 C 20 %
3685 05-05-2020 14:03:17 15.3 C 20 %
3686 05-05-2020 14:13:17 16 C 20 %
3687 05-05-2020 14:23:17 21.9 C 20 %
3688 05-05-2020 14:33:17 23.5 C 20 %
3689 05-05-2020 14:43:17 24.9 C 20 %
3690 05-05-2020 14:53:17 23.7 C 20 %
3691 05-05-2020 15:03:17 21.4 C 20 %
3692 05-05-2020 15:13:17 23.8 C 20 %
3693 05-05-2020 15:23:17 24.3 C 20 %
3694 05-05-2020 15:33:17 25.4 C 20 %
3695 05-05-2020 15:43:17 21.3 C 20 %
3696 05-05-2020 15:53:17 22.1 C 20 %
3697 05-05-2020 16:03:18 25 C 20 %
3698 05-05-2020 16:13:18 21.3 C 20 %
3699 05-05-2020 16:23:17 24.8 C 20 %
3700 05-05-2020 16:33:17 25.9 C 20 %
Sensor: Nr:Datum:Temp:Feuchte:
Aussen-T/F 3701 05-05-2020 16:43:18 24.4 C 20 %
3702 05-05-2020 16:53:17 24.7 C 20 %
3703 05-05-2020 17:03:17 22.1 C 20 %
3704 05-05-2020 17:13:17 25.1 C 20 %
3705 05-05-2020 17:23:17 24.2 C 20 %
3706 05-05-2020 17:33:18 23.7 C 20 %
3707 05-05-2020 17:43:18 23.3 C 20 %
3708 05-05-2020 17:53:17 21.2 C 20 %
3709 05-05-2020 18:03:17 20 C 20 %
3710 05-05-2020 18:13:17 18.4 C 20 %
3711 05-05-2020 18:23:17 17.4 C 20 %
3712 05-05-2020 18:33:18 17.6 C 20 %
3713 05-05-2020 18:43:18 16.8 C 20 %
3714 05-05-2020 18:53:17 16.9 C 20 %
3715 05-05-2020 19:03:17 17.1 C 20 %
3716 05-05-2020 19:13:17 16.5 C 20 %
3717 05-05-2020 19:23:17 16.2 C 20 %
3718 05-05-2020 19:33:17 16 C 20 %
3719 05-05-2020 19:43:18 15.7 C 20 %
3720 05-05-2020 19:53:17 15.5 C 20 %
3721 05-05-2020 20:03:18 15.2 C 20 %
3722 05-05-2020 20:13:18 15.1 C 20 %
3723 05-05-2020 20:23:17 14.6 C 20 %
3724 05-05-2020 20:33:17 14.2 C 20 %
3725 05-05-2020 20:43:17 13.8 C 20 %
Sensor: Nr:Datum:Temp:Feuchte:
Aussen-T/F 3726 05-05-2020 20:53:17 12.8 C 20 %
3727 05-05-2020 21:03:17 11.3 C 21 %
3728 05-05-2020 21:13:17 11 C 23 %
3729 05-05-2020 21:23:17 10.7 C 21 %
3730 05-05-2020 21:33:17 10.3 C 25 %
3731 05-05-2020 21:43:17 10.1 C 22 %
3732 05-05-2020 21:53:17 9.8 C 25 %
3733 05-05-2020 22:03:17 9.7 C 25 %
3734 05-05-2020 22:13:17 9.3 C 26 %
3735 05-05-2020 22:23:17 9.4 C 26 %
3736 05-05-2020 22:33:17 9.2 C 26 %
3737 05-05-2020 22:43:17 9.1 C 26 %
3738 05-05-2020 22:53:18 9.1 C 26 %
3739 05-05-2020 23:03:17 8.7 C 27 %
3740 05-05-2020 23:13:17 8.6 C 27 %
3741 05-05-2020 23:23:18 8.2 C 27 %
3742 05-05-2020 23:33:18 8 C 27 %
3743 05-05-2020 23:43:18 7.5 C 29 %
3744 05-05-2020 23:53:18 7.6 C 29 %
3745 06-05-2020 00:03:18 7.5 C 29 %
3746 06-05-2020 00:13:18 7.4 C 30 %
3747 06-05-2020 00:23:18 7 C 30 %
3748 06-05-2020 00:33:17 6.8 C 31 %
3749 06-05-2020 00:43:17 6.4 C 33 %
3750 06-05-2020 00:53:17 6 C 33 %
Sensor: Nr:Datum:Temp:Feuchte:
Aussen-T/F 3751 06-05-2020 01:03:17 5.9 C 34 %
3752 06-05-2020 01:13:17 5.7 C 35 %
3753 06-05-2020 01:23:17 5 C 36 %
3754 06-05-2020 01:33:17 4.7 C 37 %
3755 06-05-2020 01:43:17 4.3 C 38 %
3756 06-05-2020 01:53:18 4.2 C 38 %
3757 06-05-2020 02:03:17 4 C 39 %
3758 06-05-2020 02:13:17 3.7 C 40 %
3759 06-05-2020 02:23:17 3.7 C 40 %
3760 06-05-2020 02:33:18 3.6 C 40 %
3761 06-05-2020 02:43:18 3.4 C 40 %
3762 06-05-2020 02:53:17 3.1 C 41 %
3763 06-05-2020 03:03:17 3.1 C 41 %
3764 06-05-2020 03:13:17 2.8 C 42 %
3765 06-05-2020 03:23:17 2.8 C 42 %
3766 06-05-2020 03:33:17 2.5 C 42 %
3767 06-05-2020 03:43:17 2.3 C 43 %
3768 06-05-2020 03:53:18 2.3 C 43 %
3769 06-05-2020 04:03:17 2.4 C 43 %
3770 06-05-2020 04:13:17 2.2 C 43 %
3771 06-05-2020 04:23:17 2.4 C 44 %
3772 06-05-2020 04:33:18 2.3 C 43 %
3773 06-05-2020 04:43:18 2 C 44 %
3774 06-05-2020 04:53:17 2 C 44 %
3775 06-05-2020 05:03:17 2.1 C 45 %
Sensor: Nr:Datum:Temp:Feuchte:
Aussen-T/F 3776 06-05-2020 05:13:17 1.8 C 45 %
3777 06-05-2020 05:23:17 1.8 C 46 %
3778 06-05-2020 05:33:17 1.8 C 47 %
3779 06-05-2020 05:43:17 1.7 C 46 %
3780 06-05-2020 05:53:18 1.5 C 46 %
3781 06-05-2020 06:03:18 1.5 C 46 %
3782 06-05-2020 06:13:18 1.4 C 46 %
3783 06-05-2020 06:23:17 1.4 C 47 %
3784 06-05-2020 06:33:17 1.4 C 47 %
3785 06-05-2020 06:43:17 1.5 C 47 %
3786 06-05-2020 06:53:17 1.6 C 47 %
3787 06-05-2020 07:03:17 1.7 C 47 %
3788 06-05-2020 07:13:17 1.8 C 47 %
3789 06-05-2020 07:23:17 2 C 47 %
3790 06-05-2020 07:33:17 2.2 C 45 %
3791 06-05-2020 07:43:17 2.4 C 46 %
3792 06-05-2020 07:53:17 2.6 C 46 %
3793 06-05-2020 08:03:18 2.8 C 45 %
3794 06-05-2020 08:13:18 3 C 44 %
3795 06-05-2020 08:23:17 3.6 C 44 %
3796 06-05-2020 08:33:17 3.7 C 44 %
3797 06-05-2020 08:43:17 4.1 C 43 %
3798 06-05-2020 08:53:18 4.7 C 42 %
3799 06-05-2020 09:03:17 5.1 C 41 %
3800 06-05-2020 09:13:18 5.7 C 41 %
Sensor: Nr:Datum:Temp:Feuchte:
Aussen-T/F 3801 06-05-2020 09:23:17 6.5 C 40 %
3802 06-05-2020 09:33:17 6.8 C 39 %
3803 06-05-2020 09:43:17 7.5 C 38 %
3804 06-05-2020 09:53:17 7.8 C 37 %
3805 06-05-2020 10:03:18 8.3 C 37 %
3806 06-05-2020 10:13:18 9 C 35 %
3807 06-05-2020 10:23:17 9.9 C 31 %
3808 06-05-2020 10:33:18 11.7 C 25 %
3809 06-05-2020 10:43:18 12.3 C 20 %
3810 06-05-2020 10:53:17 12.4 C 20 %
3811 06-05-2020 11:03:17 12.9 C 20 %
3812 06-05-2020 11:13:17 13.1 C 20 %
3813 06-05-2020 11:23:17 13.6 C 20 %
3814 06-05-2020 11:33:17 13.7 C 20 %
3815 06-05-2020 11:43:18 13.6 C 20 %
3816 06-05-2020 11:53:17 13.9 C 20 %
3817 06-05-2020 12:03:17 13.8 C 20 %
3818 06-05-2020 12:13:17 13.8 C 20 %
3819 06-05-2020 12:23:18 14 C 20 %
3820 06-05-2020 12:33:18 14.1 C 20 %
3821 06-05-2020 12:43:18 13.8 C 20 %
3822 06-05-2020 12:53:17 14.2 C 20 %
3823 06-05-2020 13:03:18 14.3 C 20 %
3824 06-05-2020 13:13:18 14.2 C 20 %
3825 06-05-2020 13:23:18 14.6 C 20 %
Sensor: Nr:Datum:Temp:Feuchte:
Aussen-T/F 3826 06-05-2020 13:33:17 14.8 C 20 %
3827 06-05-2020 13:43:18 14.8 C 20 %
3828 06-05-2020 13:53:17 15.6 C 20 %
3829 06-05-2020 14:03:18 18.6 C 20 %
3830 06-05-2020 14:13:18 20.6 C 20 %
3831 06-05-2020 14:23:17 23.8 C 20 %
3832 06-05-2020 14:33:17 23.1 C 20 %
3833 06-05-2020 14:43:17 23.1 C 20 %
3834 06-05-2020 14:53:17 24.2 C 20 %
3835 06-05-2020 15:03:17 24.4 C 20 %
3836 06-05-2020 15:13:17 26.3 C 20 %
3837 06-05-2020 15:23:17 22.6 C 20 %
3838 06-05-2020 15:33:17 26.1 C 20 %
3839 06-05-2020 15:43:17 23.6 C 20 %
3840 06-05-2020 15:53:17 24.9 C 20 %
3841 06-05-2020 16:03:18 24.5 C 20 %
3842 06-05-2020 16:13:18 25.9 C 20 %
3843 06-05-2020 16:23:17 25.5 C 20 %
3844 06-05-2020 16:33:17 26.9 C 20 %
3845 06-05-2020 16:43:17 24.7 C 20 %
3846 06-05-2020 16:53:17 24.5 C 20 %
3847 06-05-2020 17:03:17 26.3 C 20 %
3848 06-05-2020 17:13:17 23.5 C 20 %
3849 06-05-2020 17:23:17 24.9 C 20 %
3850 06-05-2020 17:33:17 24.1 C 20 %
Sensor: Nr:Datum:Temp:Feuchte:
Aussen-T/F 3851 06-05-2020 17:43:17 24.5 C 20 %
3852 06-05-2020 17:53:18 25.2 C 20 %
3853 06-05-2020 18:03:18 24.7 C 20 %
3854 06-05-2020 18:13:18 20.4 C 20 %
3855 06-05-2020 18:23:18 20.3 C 20 %
3856 06-05-2020 18:33:17 19.6 C 20 %
3857 06-05-2020 18:43:17 19.1 C 20 %
3858 06-05-2020 18:53:17 18.7 C 20 %
3859 06-05-2020 19:03:18 18.4 C 20 %
3860 06-05-2020 19:13:18 18.1 C 20 %
3861 06-05-2020 19:23:18 18.2 C 20 %
3862 06-05-2020 19:33:17 17.7 C 20 %
3863 06-05-2020 19:43:18 17.4 C 20 %
3864 06-05-2020 19:53:17 17.2 C 20 %
3865 06-05-2020 20:03:17 16.6 C 20 %
3866 06-05-2020 20:13:17 16 C 20 %
3867 06-05-2020 20:23:17 14.8 C 20 %
3868 06-05-2020 20:33:18 14 C 20 %
3869 06-05-2020 20:43:18 13.5 C 20 %
3870 06-05-2020 20:53:17 13 C 20 %
3871 06-05-2020 21:03:17 12.8 C 20 %
3872 06-05-2020 21:13:17 12.4 C 20 %
3873 06-05-2020 21:23:18 11.9 C 25 %
3874 06-05-2020 21:33:17 10.9 C 27 %
3875 06-05-2020 21:43:17 10.5 C 29 %
Sensor: Nr:Datum:Temp:Feuchte:
Aussen-T/F 3876 06-05-2020 21:53:17 9.7 C 31 %
3877 06-05-2020 22:03:18 9.4 C 31 %
3878 06-05-2020 22:13:18 9.4 C 30 %
3879 06-05-2020 22:23:17 9.1 C 32 %
3880 06-05-2020 22:33:18 9 C 31 %
3881 06-05-2020 22:43:18 8.6 C 32 %
3882 06-05-2020 22:53:17 8.2 C 33 %
3883 06-05-2020 23:03:17 8.1 C 33 %
3884 06-05-2020 23:13:18 7.7 C 35 %
3885 06-05-2020 23:23:17 7.2 C 35 %
3886 06-05-2020 23:33:17 6.9 C 36 %
3887 06-05-2020 23:43:17 6.8 C 36 %
3888 06-05-2020 23:53:17 6.6 C 36 %
3889 07-05-2020 00:03:17 6.4 C 36 %
3890 07-05-2020 00:13:17 6.4 C 37 %
3891 07-05-2020 00:23:17 6.1 C 37 %
3892 07-05-2020 00:33:18 6.1 C 37 %
3893 07-05-2020 00:43:18 6.1 C 37 %
3894 07-05-2020 00:53:17 6.3 C 37 %
3895 07-05-2020 01:03:18 6.2 C 37 %
3896 07-05-2020 01:13:18 6.2 C 37 %
3897 07-05-2020 01:23:17 6 C 37 %
3898 07-05-2020 01:33:18 5.9 C 38 %
3899 07-05-2020 01:43:18 5.9 C 38 %
3900 07-05-2020 01:53:17 5.2 C 39 %
Sensor: Nr:Datum:Temp:Feuchte:
Aussen-T/F 3901 07-05-2020 02:03:17 5.2 C 39 %
3902 07-05-2020 02:13:17 5.2 C 39 %
3903 07-05-2020 02:23:18 5.1 C 40 %
3904 07-05-2020 02:33:17 4.8 C 40 %
3905 07-05-2020 02:43:17 4.7 C 40 %
3906 07-05-2020 02:53:17 4.6 C 41 %
3907 07-05-2020 03:03:17 4.6 C 41 %
3908 07-05-2020 03:13:18 4.5 C 41 %
3909 07-05-2020 03:23:17 4.3 C 41 %
3910 07-05-2020 03:33:17 4.4 C 41 %
3911 07-05-2020 03:43:17 4.1 C 41 %
3912 07-05-2020 03:53:17 4.2 C 42 %
3913 07-05-2020 04:03:17 4.2 C 42 %
3914 07-05-2020 04:13:17 4 C 42 %
3915 07-05-2020 04:23:18 3.7 C 43 %
3916 07-05-2020 04:33:17 3.6 C 43 %
3917 07-05-2020 04:43:17 3.3 C 43 %
3918 07-05-2020 04:53:17 3.2 C 44 %
3919 07-05-2020 05:03:17 3.2 C 45 %
3920 07-05-2020 05:13:17 3.3 C 45 %
3921 07-05-2020 05:23:17 3 C 44 %
3922 07-05-2020 05:33:17 3.1 C 45 %
3923 07-05-2020 05:43:17 3 C 45 %
3924 07-05-2020 05:53:17 3.1 C 45 %
3925 07-05-2020 06:03:17 3 C 45 %
Sensor: Nr:Datum:Temp:Feuchte:
Aussen-T/F 3926 07-05-2020 06:13:17 2.9 C 45 %
3927 07-05-2020 06:23:17 2.9 C 46 %
3928 07-05-2020 06:33:17 2.9 C 46 %
3929 07-05-2020 06:43:17 2.7 C 46 %
3930 07-05-2020 06:53:18 3 C 46 %
3931 07-05-2020 07:03:17 3 C 45 %
3932 07-05-2020 07:13:17 3 C 45 %
3933 07-05-2020 07:23:17 3.2 C 46 %
3934 07-05-2020 07:33:17 3.4 C 46 %
3935 07-05-2020 07:43:17 3.6 C 45 %
3936 07-05-2020 07:53:17 3.8 C 44 %
3937 07-05-2020 08:03:17 3.9 C 44 %
3938 07-05-2020 08:13:17 4.2 C 43 %
3939 07-05-2020 08:23:17 4.5 C 43 %
3940 07-05-2020 08:33:18 4.6 C 43 %
3941 07-05-2020 08:43:18 5.1 C 41 %
3942 07-05-2020 08:53:17 5.2 C 41 %
3943 07-05-2020 09:03:17 5.8 C 41 %
3944 07-05-2020 09:13:17 6.2 C 41 %
3945 07-05-2020 09:23:17 6.7 C 41 %
3946 07-05-2020 09:33:18 7.5 C 40 %
3947 07-05-2020 09:43:18 8.6 C 38 %
3948 07-05-2020 09:53:17 8.8 C 38 %
3949 07-05-2020 10:03:17 9.3 C 37 %
3950 07-05-2020 10:13:17 9.8 C 36 %
Sensor: Nr:Datum:Temp:Feuchte:
Aussen-T/F 3951 07-05-2020 10:23:17 10.3 C 35 %
3952 07-05-2020 10:33:17 11.3 C 35 %
3953 07-05-2020 10:43:17 11.9 C 34 %
3954 07-05-2020 10:53:17 13.4 C 30 %
3955 07-05-2020 11:03:17 14.2 C 26 %
3956 07-05-2020 11:13:17 14.7 C 28 %
3957 07-05-2020 11:23:17 15.3 C 25 %
3958 07-05-2020 11:33:17 15.4 C 25 %
3959 07-05-2020 11:43:17 15.9 C 25 %
3960 07-05-2020 11:53:17 16.2 C 22 %
3961 07-05-2020 12:03:17 16.6 C 20 %
3962 07-05-2020 12:13:17 16.8 C 20 %
3963 07-05-2020 12:23:17 16.9 C 20 %
3964 07-05-2020 12:33:17 17 C 20 %
3965 07-05-2020 12:43:18 17 C 20 %
3966 07-05-2020 12:53:17 17.3 C 20 %
3967 07-05-2020 13:03:17 17.5 C 20 %
3968 07-05-2020 13:13:17 17.6 C 20 %
3969 07-05-2020 13:23:17 17.6 C 20 %
3970 07-05-2020 13:33:17 18.2 C 20 %
3971 07-05-2020 13:43:17 18.5 C 20 %
3972 07-05-2020 13:54:17 20.1 C 20 %
3973 07-05-2020 14:03:17 23.3 C 20 %
3974 07-05-2020 14:13:17 25.2 C 20 %
3975 07-05-2020 14:23:17 27.5 C 20 %
Sensor: Nr:Datum:Temp:Feuchte:
Aussen-T/F 3976 07-05-2020 14:33:17 28.2 C 20 %
3977 07-05-2020 14:43:17 28.7 C 20 %
3978 07-05-2020 14:54:17 28.4 C 20 %
3979 07-05-2020 15:03:18 28.7 C 20 %
3980 07-05-2020 15:13:18 27.9 C 20 %
3981 07-05-2020 15:23:17 28.5 C 20 %
3982 07-05-2020 15:33:18 30.2 C 20 %
3983 07-05-2020 15:43:18 29.3 C 20 %
3984 07-05-2020 15:53:17 30 C 20 %
3985 07-05-2020 16:03:17 30.1 C 20 %
3986 07-05-2020 16:13:17 31.3 C 20 %
3987 07-05-2020 16:24:17 28.8 C 20 %
3988 07-05-2020 16:33:17 29.5 C 20 %
3989 07-05-2020 16:43:17 31.1 C 20 %
3990 07-05-2020 16:54:17 31.3 C 20 %
3991 07-05-2020 17:03:17 29 C 20 %
3992 07-05-2020 17:13:17 29.3 C 20 %
3993 07-05-2020 17:23:17 28.6 C 20 %
3994 07-05-2020 17:33:17 30.2 C 20 %
3995 07-05-2020 17:43:17 27.4 C 20 %
3996 07-05-2020 17:53:17 27.9 C 20 %
3997 07-05-2020 18:04:17 27.4 C 20 %
3998 07-05-2020 18:13:17 24.5 C 20 %
3999 07-05-2020 18:23:17 23.3 C 20 %
4000 07-05-2020 18:33:17 23.5 C 20 %
Sensor: Nr:Datum:Temp:Feuchte:
Aussen-T/F 4001 07-05-2020 18:43:18 22.8 C 20 %
4002 07-05-2020 18:54:17 22.1 C 20 %
4003 07-05-2020 19:03:17 22.2 C 20 %
4004 07-05-2020 19:13:18 22.1 C 20 %
4005 07-05-2020 19:24:17 22 C 20 %
4006 07-05-2020 19:33:17 21.4 C 20 %
4007 07-05-2020 19:43:17 20.2 C 20 %
4008 07-05-2020 19:54:17 19.3 C 20 %
4009 07-05-2020 20:03:18 18.7 C 20 %
4010 07-05-2020 20:13:18 18.1 C 20 %
4011 07-05-2020 20:24:17 17.5 C 20 %
4012 07-05-2020 20:34:17 17.1 C 20 %
4013 07-05-2020 20:44:17 16.5 C 20 %
4014 07-05-2020 20:54:17 16.2 C 20 %
4015 07-05-2020 21:04:17 16 C 20 %
4016 07-05-2020 21:14:17 15.4 C 21 %
4017 07-05-2020 21:24:17 15 C 22 %
4018 07-05-2020 21:34:17 14.6 C 25 %
4019 07-05-2020 21:43:17 14.2 C 25 %
4020 07-05-2020 21:54:17 13.7 C 26 %
4021 07-05-2020 22:04:17 13.2 C 27 %
4022 07-05-2020 22:14:17 13.2 C 27 %
4023 07-05-2020 22:24:17 12.8 C 30 %
4024 07-05-2020 22:34:17 12.3 C 30 %
4025 07-05-2020 22:44:17 12.3 C 30 %
Sensor: Nr:Datum:Temp:Feuchte:
Aussen-T/F 4026 07-05-2020 22:53:18 12.2 C 30 %
4027 07-05-2020 23:04:17 11.7 C 31 %
4028 07-05-2020 23:14:17 11.4 C 31 %
4029 07-05-2020 23:24:17 11.4 C 30 %
4030 07-05-2020 23:34:17 11.6 C 31 %
4031 07-05-2020 23:44:17 11.2 C 32 %
4032 07-05-2020 23:54:17 11.1 C 32 %
4033 08-05-2020 00:04:17 10.7 C 33 %
4034 08-05-2020 00:14:17 10.4 C 33 %
4035 08-05-2020 00:24:17 10.2 C 33 %
4036 08-05-2020 00:34:17 9.7 C 35 %
4037 08-05-2020 00:44:17 9.6 C 35 %
4038 08-05-2020 00:54:17 9.4 C 35 %
4039 08-05-2020 01:04:17 9.4 C 35 %
4040 08-05-2020 01:14:17 9.6 C 35 %
4041 08-05-2020 01:24:17 9.6 C 35 %
4042 08-05-2020 01:34:17 9.3 C 36 %
4043 08-05-2020 01:44:17 9.8 C 36 %
4044 08-05-2020 01:54:18 9.5 C 36 %
4045 08-05-2020 02:04:18 9.2 C 36 %
4046 08-05-2020 02:13:18 8.9 C 37 %
4047 08-05-2020 02:24:17 8.6 C 38 %
4048 08-05-2020 02:34:17 8.4 C 38 %
4049 08-05-2020 02:44:17 8.2 C 38 %
4050 08-05-2020 02:54:17 7.9 C 39 %
Sensor: Nr:Datum:Temp:Feuchte:
Aussen-T/F 4051 08-05-2020 03:04:17 7.9 C 39 %
4052 08-05-2020 03:14:17 7.9 C 39 %
4053 08-05-2020 03:24:17 7.8 C 40 %
4054 08-05-2020 03:34:18 7.7 C 40 %
4055 08-05-2020 03:44:18 7.5 C 40 %
4056 08-05-2020 03:54:17 7.4 C 40 %
4057 08-05-2020 04:04:18 7.5 C 40 %
4058 08-05-2020 04:14:18 7 C 40 %
4059 08-05-2020 04:24:18 6.9 C 41 %
4060 08-05-2020 04:34:18 6.8 C 42 %
4061 08-05-2020 04:44:18 7 C 41 %
4062 08-05-2020 04:54:18 7.3 C 41 %
4063 08-05-2020 05:04:18 7.3 C 41 %
4064 08-05-2020 05:14:18 7.4 C 41 %
4065 08-05-2020 05:24:17 7.5 C 41 %
4066 08-05-2020 05:34:17 7.2 C 41 %
4067 08-05-2020 05:44:17 7 C 41 %
4068 08-05-2020 05:54:18 7.1 C 41 %
4069 08-05-2020 06:04:17 6.9 C 42 %
4070 08-05-2020 06:14:17 6.9 C 42 %
4071 08-05-2020 06:24:17 6.8 C 42 %
4072 08-05-2020 06:34:17 6.7 C 43 %
4073 08-05-2020 06:44:17 6.4 C 42 %
4074 08-05-2020 06:54:17 6.3 C 43 %
4075 08-05-2020 07:04:17 6.5 C 43 %
Sensor: Nr:Datum:Temp:Feuchte:
Aussen-T/F 4076 08-05-2020 07:14:17 6.9 C 44 %
4077 08-05-2020 07:24:17 7.3 C 42 %
4078 08-05-2020 07:34:18 7.3 C 41 %
4079 08-05-2020 07:44:18 7.4 C 42 %
4080 08-05-2020 07:54:17 7.9 C 41 %
4081 08-05-2020 08:04:17 8.2 C 40 %
4082 08-05-2020 08:14:17 8.4 C 40 %
4083 08-05-2020 08:24:17 8.4 C 40 %
4084 08-05-2020 08:34:17 8.5 C 40 %
4085 08-05-2020 08:44:17 8.7 C 40 %
4086 08-05-2020 08:54:17 9 C 40 %
4087 08-05-2020 09:04:17 9.5 C 39 %
4088 08-05-2020 09:14:17 10.2 C 37 %
4089 08-05-2020 09:24:17 10.7 C 37 %
4090 08-05-2020 09:34:17 11.1 C 36 %
4091 08-05-2020 09:44:17 11.8 C 36 %
4092 08-05-2020 09:54:17 12.2 C 35 %
4093 08-05-2020 10:04:17 12.5 C 35 %
4094 08-05-2020 10:14:17 13.1 C 34 %
4095 08-05-2020 10:24:17 14 C 33 %
4096 08-05-2020 10:34:17 14.6 C 32 %
4097 08-05-2020 10:44:18 15.8 C 28 %
4098 08-05-2020 10:54:17 16.7 C 27 %
4099 08-05-2020 11:04:17 17.1 C 26 %
4100 08-05-2020 11:14:17 17.5 C 27 %
Sensor: Nr:Datum:Temp:Feuchte:
Aussen-T/F 4101 08-05-2020 11:24:17 17.7 C 27 %
4102 08-05-2020 11:34:17 18.2 C 25 %
4103 08-05-2020 11:44:18 18.9 C 22 %
4104 08-05-2020 11:54:17 19 C 21 %
4105 08-05-2020 12:04:17 19.3 C 20 %
4106 08-05-2020 12:14:18 19.4 C 20 %
4107 08-05-2020 12:24:17 19.5 C 20 %
4108 08-05-2020 12:34:17 19.8 C 20 %
4109 08-05-2020 12:44:17 20 C 20 %
4110 08-05-2020 12:54:17 20.3 C 20 %
4111 08-05-2020 13:04:16 20.7 C 20 %
4112 08-05-2020 13:14:16 21.4 C 20 %
4113 08-05-2020 13:24:17 21.9 C 20 %
4114 08-05-2020 13:34:17 22.3 C 20 %
4115 08-05-2020 13:44:17 22.5 C 20 %
4116 08-05-2020 13:54:16 24 C 20 %
4117 08-05-2020 14:04:17 26.1 C 20 %
4118 08-05-2020 14:14:17 27.5 C 20 %
4119 08-05-2020 14:24:17 28.2 C 20 %
4120 08-05-2020 14:34:16 30 C 20 %
4121 08-05-2020 14:44:16 27.5 C 20 %
4122 08-05-2020 14:54:17 27.3 C 20 %
4123 08-05-2020 15:04:17 26 C 20 %
4124 08-05-2020 15:14:18 25.2 C 20 %
4125 08-05-2020 15:24:17 25.8 C 20 %
Sensor: Nr:Datum:Temp:Feuchte:
Aussen-T/F 4126 08-05-2020 15:34:16 27.1 C 20 %
4127 08-05-2020 15:44:16 28.3 C 20 %
4128 08-05-2020 15:54:17 30.6 C 20 %
4129 08-05-2020 16:04:17 31.3 C 20 %
4130 08-05-2020 16:14:17 29.3 C 20 %
4131 08-05-2020 16:24:17 32 C 20 %
4132 08-05-2020 16:34:16 30.5 C 20 %
4133 08-05-2020 16:44:16 27.4 C 20 %
4134 08-05-2020 16:54:16 26.3 C 20 %
4135 08-05-2020 17:04:17 26.8 C 20 %
4136 08-05-2020 17:14:17 26.3 C 20 %
4137 08-05-2020 17:24:16 28.5 C 20 %
4138 08-05-2020 17:34:16 26.8 C 20 %
4139 08-05-2020 17:44:16 28.8 C 20 %
4140 08-05-2020 17:54:16 27.5 C 20 %
4141 08-05-2020 18:04:17 26.5 C 20 %
4142 08-05-2020 18:14:17 25.5 C 20 %
4143 08-05-2020 18:24:16 25.1 C 20 %
4144 08-05-2020 18:34:17 25.1 C 20 %
4145 08-05-2020 18:44:18 24.4 C 20 %
4146 08-05-2020 18:54:16 24 C 20 %
4147 08-05-2020 19:04:16 23.5 C 20 %
4148 08-05-2020 19:14:16 23.7 C 20 %
4149 08-05-2020 19:24:16 23.6 C 20 %
4150 08-05-2020 19:34:16 22.9 C 20 %
Sensor: Nr:Datum:Temp:Feuchte:
Aussen-T/F 4151 08-05-2020 19:44:16 22.4 C 20 %
4152 08-05-2020 19:54:16 21.6 C 20 %
4153 08-05-2020 20:04:17 19.7 C 20 %
4154 08-05-2020 20:14:17 18.8 C 20 %
4155 08-05-2020 20:24:16 18.5 C 20 %
4156 08-05-2020 20:34:17 18.2 C 20 %
4157 08-05-2020 20:44:17 17.7 C 20 %
4158 08-05-2020 20:54:17 17.3 C 20 %
4159 08-05-2020 21:04:17 17.1 C 20 %
4160 08-05-2020 21:14:17 16.9 C 20 %
4161 08-05-2020 21:24:16 16.4 C 21 %
4162 08-05-2020 21:34:16 16 C 22 %
4163 08-05-2020 21:44:16 15.7 C 24 %
4164 08-05-2020 21:54:16 15.2 C 25 %
4165 08-05-2020 22:04:17 14.9 C 26 %
4166 08-05-2020 22:14:17 15 C 26 %
4167 08-05-2020 22:24:16 14.9 C 27 %
4168 08-05-2020 22:34:16 14.7 C 27 %
4169 08-05-2020 22:44:16 14.3 C 28 %
4170 08-05-2020 22:54:16 14.1 C 27 %
4171 08-05-2020 23:04:17 14 C 27 %
4172 08-05-2020 23:14:17 13.7 C 28 %
4173 08-05-2020 23:24:16 13.6 C 29 %
4174 08-05-2020 23:34:16 13.3 C 29 %
4175 08-05-2020 23:44:16 13.2 C 29 %
Sensor: Nr:Datum:Temp:Feuchte:
Aussen-T/F 4176 08-05-2020 23:54:16 13.3 C 29 %
Sensor: Nr:Datum:Temp:Feuchte:
G-T/H 1 10-04-2020 00:01:17 14.7 C 57 %
2 10-04-2020 00:11:17 14.7 C 57 %
3 10-04-2020 00:21:18 14.7 C 57 %
4 10-04-2020 00:31:18 14.6 C 57 %
5 10-04-2020 00:41:18 14.6 C 58 %
6 10-04-2020 00:51:17 14.6 C 58 %
7 10-04-2020 01:01:17 14.5 C 58 %
8 10-04-2020 01:11:17 14.5 C 58 %
9 10-04-2020 01:21:17 14.5 C 58 %
10 10-04-2020 01:31:17 14.5 C 58 %
11 10-04-2020 01:41:17 14.4 C 58 %
12 10-04-2020 01:51:17 14.5 C 58 %
13 10-04-2020 02:01:17 14.4 C 58 %
14 10-04-2020 02:11:17 14.4 C 58 %
15 10-04-2020 02:21:18 14.4 C 58 %
16 10-04-2020 02:31:18 14.3 C 58 %
17 10-04-2020 02:41:18 14.3 C 58 %
18 10-04-2020 02:51:17 14.3 C 58 %
19 10-04-2020 03:01:18 14.2 C 58 %
20 10-04-2020 03:11:18 14.2 C 58 %
21 10-04-2020 03:21:17 14.2 C 58 %
22 10-04-2020 03:31:17 14.2 C 58 %
23 10-04-2020 03:41:17 14.2 C 58 %
24 10-04-2020 03:51:17 14.1 C 58 %
25 10-04-2020 04:01:18 14.1 C 58 %
Sensor: Nr:Datum:Temp:Feuchte:
G-T/H 26 10-04-2020 04:11:18 14.1 C 58 %
27 10-04-2020 04:21:17 14.1 C 58 %
28 10-04-2020 04:31:17 14.1 C 58 %
29 10-04-2020 04:41:17 14 C 58 %
30 10-04-2020 04:51:18 14 C 58 %
31 10-04-2020 05:01:17 14 C 58 %
32 10-04-2020 05:11:17 14 C 58 %
33 10-04-2020 05:21:18 14 C 58 %
34 10-04-2020 05:31:17 13.9 C 59 %
35 10-04-2020 05:41:17 13.9 C 59 %
36 10-04-2020 05:51:17 13.9 C 59 %
37 10-04-2020 06:01:17 13.8 C 59 %
38 10-04-2020 06:11:17 13.8 C 59 %
39 10-04-2020 06:21:17 13.8 C 59 %
40 10-04-2020 06:31:18 13.8 C 59 %
41 10-04-2020 06:41:18 13.8 C 59 %
42 10-04-2020 06:51:17 13.8 C 59 %
43 10-04-2020 07:01:18 13.7 C 59 %
44 10-04-2020 07:11:18 13.7 C 59 %
45 10-04-2020 07:21:17 13.7 C 59 %
46 10-04-2020 07:31:18 13.7 C 59 %
47 10-04-2020 07:41:18 13.6 C 59 %
48 10-04-2020 07:51:17 13.6 C 59 %
49 10-04-2020 08:01:17 13.6 C 59 %
50 10-04-2020 08:11:17 13.6 C 59 %
Sensor: Nr:Datum:Temp:Feuchte:
G-T/H 51 10-04-2020 08:21:17 13.6 C 59 %
52 10-04-2020 08:31:17 13.5 C 59 %
53 10-04-2020 08:41:17 13.5 C 59 %
54 10-04-2020 08:51:17 13.5 C 59 %
55 10-04-2020 09:01:17 13.4 C 59 %
56 10-04-2020 09:11:17 13.5 C 59 %
57 10-04-2020 09:21:18 13.4 C 59 %
58 10-04-2020 09:31:18 13.4 C 60 %
59 10-04-2020 09:41:18 13.4 C 60 %
60 10-04-2020 09:51:17 13.4 C 60 %
61 10-04-2020 10:01:17 13.3 C 60 %
62 10-04-2020 10:11:17 13.4 C 60 %
63 10-04-2020 10:21:17 13.3 C 60 %
64 10-04-2020 10:31:17 13.4 C 60 %
65 10-04-2020 10:41:17 13.3 C 61 %
66 10-04-2020 10:51:17 13.3 C 61 %
67 10-04-2020 11:01:17 13.3 C 61 %
68 10-04-2020 11:11:17 13.3 C 61 %
69 10-04-2020 11:21:17 13.3 C 61 %
70 10-04-2020 11:31:17 13.3 C 62 %
71 10-04-2020 11:41:17 13.3 C 62 %
72 10-04-2020 11:51:17 13.2 C 62 %
73 10-04-2020 12:01:17 13.3 C 62 %
74 10-04-2020 12:11:17 13.2 C 62 %
75 10-04-2020 12:21:17 13.2 C 62 %
Sensor: Nr:Datum:Temp:Feuchte:
G-T/H 76 10-04-2020 12:31:17 13.2 C 62 %
77 10-04-2020 12:41:17 13.2 C 62 %
78 10-04-2020 12:51:17 13.2 C 62 %
79 10-04-2020 13:01:17 13.3 C 62 %
80 10-04-2020 13:11:17 13.3 C 62 %
81 10-04-2020 13:21:17 13.3 C 62 %
82 10-04-2020 13:31:17 13.3 C 62 %
83 10-04-2020 13:41:17 13.3 C 62 %
84 10-04-2020 13:51:17 13.3 C 62 %
85 10-04-2020 14:01:17 13.3 C 63 %
86 10-04-2020 14:11:17 13.3 C 63 %
87 10-04-2020 14:21:18 13.4 C 63 %
88 10-04-2020 14:31:18 13.4 C 63 %
89 10-04-2020 14:41:18 13.4 C 63 %
90 10-04-2020 14:51:17 13.4 C 63 %
91 10-04-2020 15:01:17 13.4 C 63 %
92 10-04-2020 15:11:17 13.4 C 63 %
93 10-04-2020 15:21:17 13.4 C 63 %
94 10-04-2020 15:31:17 13.4 C 63 %
95 10-04-2020 15:41:17 13.4 C 63 %
96 10-04-2020 15:51:17 13.4 C 63 %
97 10-04-2020 16:01:17 13.4 C 63 %
98 10-04-2020 16:11:17 13.5 C 63 %
99 10-04-2020 16:21:17 13.5 C 63 %
100 10-04-2020 16:31:17 13.5 C 63 %
Sensor: Nr:Datum:Temp:Feuchte:
G-T/H 101 10-04-2020 16:41:17 13.5 C 63 %
102 10-04-2020 16:51:17 13.5 C 63 %
103 10-04-2020 17:01:17 13.5 C 63 %
104 10-04-2020 17:11:17 13.5 C 63 %
105 10-04-2020 17:21:17 13.5 C 63 %
106 10-04-2020 17:31:17 13.5 C 63 %
107 10-04-2020 17:41:17 13.6 C 63 %
108 10-04-2020 17:51:18 13.6 C 63 %
109 10-04-2020 18:01:17 13.6 C 63 %
110 10-04-2020 18:11:17 13.6 C 63 %
111 10-04-2020 18:21:18 13.6 C 63 %
112 10-04-2020 18:31:18 13.7 C 63 %
113 10-04-2020 18:41:18 13.8 C 62 %
114 10-04-2020 18:51:17 13.8 C 62 %
115 10-04-2020 19:01:17 13.8 C 62 %
116 10-04-2020 19:11:17 13.8 C 62 %
117 10-04-2020 19:21:17 13.8 C 62 %
118 10-04-2020 19:31:17 13.8 C 62 %
119 10-04-2020 19:41:17 13.8 C 62 %
120 10-04-2020 19:51:18 13.8 C 62 %
121 10-04-2020 20:01:17 13.8 C 63 %
122 10-04-2020 20:11:17 13.8 C 63 %
123 10-04-2020 20:21:18 13.8 C 63 %
124 10-04-2020 20:31:17 13.8 C 63 %
125 10-04-2020 20:41:17 13.8 C 63 %
Sensor: Nr:Datum:Temp:Feuchte:
G-T/H 126 10-04-2020 20:51:17 13.8 C 63 %
127 10-04-2020 21:01:17 13.8 C 63 %
128 10-04-2020 21:11:17 13.8 C 63 %
129 10-04-2020 21:21:17 13.8 C 63 %
130 10-04-2020 21:31:17 13.8 C 63 %
131 10-04-2020 21:41:17 13.8 C 63 %
132 10-04-2020 21:51:17 13.8 C 63 %
133 10-04-2020 22:01:18 13.8 C 63 %
134 10-04-2020 22:11:18 13.8 C 63 %
135 10-04-2020 22:21:18 13.8 C 63 %
136 10-04-2020 22:31:17 13.8 C 63 %
137 10-04-2020 22:41:17 13.8 C 63 %
138 10-04-2020 22:51:17 13.8 C 63 %
139 10-04-2020 23:01:17 13.8 C 63 %
140 10-04-2020 23:11:17 13.8 C 63 %
141 10-04-2020 23:21:17 13.8 C 63 %
142 10-04-2020 23:31:17 13.7 C 63 %
143 10-04-2020 23:41:17 13.7 C 63 %
144 10-04-2020 23:51:17 13.8 C 63 %
145 11-04-2020 00:01:18 13.8 C 63 %
146 11-04-2020 00:11:18 13.7 C 63 %
147 11-04-2020 00:21:17 13.8 C 63 %
148 11-04-2020 00:31:17 13.7 C 63 %
149 11-04-2020 00:41:18 13.7 C 63 %
150 11-04-2020 00:51:18 13.7 C 63 %
Sensor: Nr:Datum:Temp:Feuchte:
G-T/H 151 11-04-2020 01:01:17 13.7 C 63 %
152 11-04-2020 01:11:17 13.7 C 63 %
153 11-04-2020 01:21:17 13.7 C 63 %
154 11-04-2020 01:31:18 13.7 C 63 %
155 11-04-2020 01:41:18 13.7 C 63 %
156 11-04-2020 01:51:18 13.7 C 63 %
157 11-04-2020 02:01:17 13.7 C 63 %
158 11-04-2020 02:11:17 13.7 C 63 %
159 11-04-2020 02:21:18 13.7 C 62 %
160 11-04-2020 02:31:17 13.7 C 62 %
161 11-04-2020 02:41:17 13.6 C 62 %
162 11-04-2020 02:51:17 13.6 C 62 %
163 11-04-2020 03:01:17 13.6 C 62 %
164 11-04-2020 03:11:17 13.6 C 62 %
165 11-04-2020 03:21:17 13.5 C 61 %
166 11-04-2020 03:31:18 13.6 C 61 %
167 11-04-2020 03:41:18 13.5 C 61 %
168 11-04-2020 03:51:17 13.5 C 61 %
169 11-04-2020 04:01:17 13.5 C 61 %
170 11-04-2020 04:11:17 13.5 C 61 %
171 11-04-2020 04:21:17 13.5 C 60 %
172 11-04-2020 04:31:17 13.5 C 60 %
173 11-04-2020 04:41:17 13.4 C 59 %
174 11-04-2020 04:51:17 13.4 C 59 %
175 11-04-2020 05:01:17 13.4 C 58 %
Sensor: Nr:Datum:Temp:Feuchte:
G-T/H 176 11-04-2020 05:11:17 13.4 C 58 %
177 11-04-2020 05:21:17 13.4 C 58 %
178 11-04-2020 05:31:18 13.4 C 58 %
179 11-04-2020 05:41:18 13.3 C 58 %
180 11-04-2020 05:51:17 13.3 C 58 %
181 11-04-2020 06:01:17 13.3 C 58 %
182 11-04-2020 06:11:17 13.3 C 58 %
183 11-04-2020 06:21:17 13.3 C 58 %
184 11-04-2020 06:31:18 13.3 C 58 %
185 11-04-2020 06:41:18 13.2 C 58 %
186 11-04-2020 06:51:17 13.2 C 58 %
187 11-04-2020 07:01:18 13.2 C 58 %
188 11-04-2020 07:11:18 13.2 C 58 %
189 11-04-2020 07:21:17 13.2 C 58 %
190 11-04-2020 07:31:18 13.1 C 58 %
191 11-04-2020 07:41:18 13.2 C 58 %
192 11-04-2020 07:51:17 13.1 C 58 %
193 11-04-2020 08:01:18 13.1 C 58 %
194 11-04-2020 08:11:18 13.1 C 58 %
195 11-04-2020 08:21:18 13.1 C 58 %
196 11-04-2020 08:31:18 13.1 C 58 %
197 11-04-2020 08:41:18 13 C 58 %
198 11-04-2020 08:51:18 13 C 58 %
199 11-04-2020 09:01:17 13.1 C 58 %
200 11-04-2020 09:11:18 13 C 59 %
Sensor: Nr:Datum:Temp:Feuchte:
G-T/H 201 11-04-2020 09:21:17 13 C 59 %
202 11-04-2020 09:31:18 13 C 59 %
203 11-04-2020 09:41:18 13 C 59 %
204 11-04-2020 09:51:17 13 C 59 %
205 11-04-2020 10:01:17 12.9 C 60 %
206 11-04-2020 10:11:17 13 C 59 %
207 11-04-2020 10:21:17 13 C 59 %
208 11-04-2020 10:31:17 12.9 C 60 %
209 11-04-2020 10:41:17 12.9 C 60 %
210 11-04-2020 10:51:17 12.9 C 61 %
211 11-04-2020 11:01:18 12.9 C 61 %
212 11-04-2020 11:11:18 12.9 C 61 %
213 11-04-2020 11:21:17 12.9 C 61 %
214 11-04-2020 11:31:17 12.9 C 62 %
215 11-04-2020 11:41:18 12.9 C 62 %
216 11-04-2020 11:51:17 12.9 C 62 %
217 11-04-2020 12:01:17 12.9 C 62 %
218 11-04-2020 12:11:17 13 C 61 %
219 11-04-2020 12:21:18 12.9 C 62 %
220 11-04-2020 12:31:17 13 C 62 %
221 11-04-2020 12:41:17 13 C 62 %
222 11-04-2020 12:51:17 13 C 62 %
223 11-04-2020 13:01:17 13 C 62 %
224 11-04-2020 13:11:17 13 C 62 %
225 11-04-2020 13:21:17 13 C 62 %
Sensor: Nr:Datum:Temp:Feuchte:
G-T/H 226 11-04-2020 13:31:17 13 C 62 %
227 11-04-2020 13:41:17 13 C 62 %
228 11-04-2020 13:51:17 13 C 62 %
229 11-04-2020 14:01:18 13 C 61 %
230 11-04-2020 14:11:18 13 C 61 %
231 11-04-2020 14:21:17 13 C 61 %
232 11-04-2020 14:31:17 13 C 62 %
233 11-04-2020 14:41:17 13.1 C 62 %
234 11-04-2020 14:51:18 13 C 62 %
235 11-04-2020 15:01:18 13.1 C 62 %
236 11-04-2020 15:11:18 13.1 C 62 %
237 11-04-2020 15:21:17 13.1 C 62 %
238 11-04-2020 15:31:17 13.1 C 62 %
239 11-04-2020 15:41:17 13.1 C 62 %
240 11-04-2020 15:51:18 13.1 C 62 %
241 11-04-2020 16:01:17 13.2 C 62 %
242 11-04-2020 16:11:17 13.2 C 62 %
243 11-04-2020 16:21:18 13.2 C 62 %
244 11-04-2020 16:31:17 13.2 C 63 %
245 11-04-2020 16:41:17 13.2 C 63 %
246 11-04-2020 16:51:17 13.2 C 63 %
247 11-04-2020 17:01:17 13.2 C 63 %
248 11-04-2020 17:11:17 13.2 C 63 %
249 11-04-2020 17:21:17 13.2 C 63 %
250 11-04-2020 17:31:17 13.3 C 63 %
Sensor: Nr:Datum:Temp:Feuchte:
G-T/H 251 11-04-2020 17:41:17 13.3 C 63 %
252 11-04-2020 17:51:17 13.3 C 63 %
253 11-04-2020 18:01:17 13.3 C 63 %
254 11-04-2020 18:11:17 13.3 C 63 %
255 11-04-2020 18:21:17 13.4 C 63 %
256 11-04-2020 18:31:17 13.4 C 63 %
257 11-04-2020 18:41:17 13.4 C 63 %
258 11-04-2020 18:51:17 13.5 C 63 %
259 11-04-2020 19:01:17 13.5 C 63 %
260 11-04-2020 19:11:17 13.5 C 63 %
261 11-04-2020 19:21:18 13.6 C 63 %
262 11-04-2020 19:31:17 13.5 C 63 %
263 11-04-2020 19:41:17 13.6 C 63 %
264 11-04-2020 19:51:17 13.6 C 63 %
265 11-04-2020 20:01:17 13.5 C 63 %
266 11-04-2020 20:11:17 13.5 C 63 %
267 11-04-2020 20:21:17 13.5 C 63 %
268 11-04-2020 20:31:17 13.5 C 63 %
269 11-04-2020 20:41:17 13.5 C 63 %
270 11-04-2020 20:51:17 13.5 C 63 %
271 11-04-2020 21:01:18 13.5 C 63 %
272 11-04-2020 21:11:18 13.5 C 63 %
273 11-04-2020 21:21:18 13.5 C 63 %
274 11-04-2020 21:31:17 13.6 C 63 %
275 11-04-2020 21:41:17 13.6 C 63 %
Sensor: Nr:Datum:Temp:Feuchte:
G-T/H 276 11-04-2020 21:51:17 13.6 C 63 %
277 11-04-2020 22:01:17 13.6 C 63 %
278 11-04-2020 22:11:17 13.6 C 63 %
279 11-04-2020 22:21:17 13.5 C 63 %
280 11-04-2020 22:31:18 13.5 C 63 %
281 11-04-2020 22:41:18 13.6 C 63 %
282 11-04-2020 22:51:17 13.6 C 63 %
283 11-04-2020 23:01:17 13.6 C 63 %
284 11-04-2020 23:11:17 13.6 C 63 %
285 11-04-2020 23:21:18 13.6 C 63 %
286 11-04-2020 23:31:18 13.5 C 63 %
287 11-04-2020 23:41:18 13.6 C 63 %
288 11-04-2020 23:51:17 13.6 C 63 %
289 12-04-2020 00:01:17 13.6 C 63 %
290 12-04-2020 00:11:17 13.6 C 63 %
291 12-04-2020 00:21:17 13.6 C 63 %
292 12-04-2020 00:31:17 13.6 C 63 %
293 12-04-2020 00:41:17 13.6 C 63 %
294 12-04-2020 00:51:17 13.5 C 63 %
295 12-04-2020 01:01:17 13.6 C 63 %
296 12-04-2020 01:11:17 13.5 C 63 %
297 12-04-2020 01:21:17 13.6 C 64 %
298 12-04-2020 01:31:18 13.6 C 64 %
299 12-04-2020 01:41:18 13.5 C 64 %
300 12-04-2020 01:51:17 13.5 C 63 %
Sensor: Nr:Datum:Temp:Feuchte:
G-T/H 301 12-04-2020 02:01:18 13.5 C 63 %
302 12-04-2020 02:11:18 13.5 C 63 %
303 12-04-2020 02:21:18 13.5 C 63 %
304 12-04-2020 02:31:17 13.5 C 63 %
305 12-04-2020 02:41:17 13.5 C 63 %
306 12-04-2020 02:51:17 13.5 C 63 %
307 12-04-2020 03:01:17 13.5 C 63 %
308 12-04-2020 03:11:17 13.5 C 63 %
309 12-04-2020 03:21:17 13.5 C 63 %
310 12-04-2020 03:31:17 13.5 C 63 %
311 12-04-2020 03:41:18 13.5 C 63 %
312 12-04-2020 03:51:17 13.5 C 63 %
313 12-04-2020 04:01:17 13.5 C 63 %
314 12-04-2020 04:11:17 13.4 C 63 %
315 12-04-2020 04:21:17 13.5 C 63 %
316 12-04-2020 04:31:17 13.5 C 63 %
317 12-04-2020 04:41:17 13.4 C 63 %
318 12-04-2020 04:51:17 13.4 C 63 %
319 12-04-2020 05:01:18 13.4 C 62 %
320 12-04-2020 05:11:18 13.4 C 62 %
321 12-04-2020 05:21:17 13.4 C 62 %
322 12-04-2020 05:31:17 13.4 C 62 %
323 12-04-2020 05:41:17 13.4 C 62 %
324 12-04-2020 05:51:17 13.4 C 62 %
325 12-04-2020 06:01:17 13.4 C 62 %
Sensor: Nr:Datum:Temp:Feuchte:
G-T/H 326 12-04-2020 06:11:17 13.4 C 62 %
327 12-04-2020 06:21:17 13.3 C 62 %
328 12-04-2020 06:31:17 13.3 C 62 %
329 12-04-2020 06:41:17 13.3 C 62 %
330 12-04-2020 06:51:17 13.3 C 62 %
331 12-04-2020 07:01:17 13.3 C 61 %
332 12-04-2020 07:11:17 13.3 C 61 %
333 12-04-2020 07:21:17 13.3 C 61 %
334 12-04-2020 07:31:17 13.2 C 61 %
335 12-04-2020 07:41:17 13.2 C 61 %
336 12-04-2020 07:51:18 13.2 C 61 %
337 12-04-2020 08:01:17 13.2 C 61 %
338 12-04-2020 08:11:17 13.2 C 61 %
339 12-04-2020 08:21:17 13.2 C 61 %
340 12-04-2020 08:31:17 13.2 C 61 %
341 12-04-2020 08:41:18 13.2 C 61 %
342 12-04-2020 08:51:17 13.2 C 62 %
343 12-04-2020 09:01:18 13.2 C 62 %
344 12-04-2020 09:11:18 13.2 C 62 %
345 12-04-2020 09:21:17 13.1 C 62 %
346 12-04-2020 09:31:17 13.1 C 62 %
347 12-04-2020 09:41:17 13.1 C 62 %
348 12-04-2020 09:51:17 13.1 C 62 %
349 12-04-2020 10:01:17 13.1 C 62 %
350 12-04-2020 10:11:17 13.1 C 63 %
Sensor: Nr:Datum:Temp:Feuchte:
G-T/H 351 12-04-2020 10:21:17 13.1 C 63 %
352 12-04-2020 10:31:18 13.1 C 63 %
353 12-04-2020 10:41:18 13.1 C 63 %
354 12-04-2020 10:51:17 13.1 C 63 %
355 12-04-2020 11:01:17 13.1 C 63 %
356 12-04-2020 11:11:17 13.1 C 63 %
357 12-04-2020 11:21:17 13.1 C 63 %
358 12-04-2020 11:31:17 13.1 C 64 %
359 12-04-2020 11:41:17 13.1 C 64 %
360 12-04-2020 11:51:17 13.1 C 64 %
361 12-04-2020 12:01:17 13.1 C 64 %
362 12-04-2020 12:11:17 13.1 C 64 %
363 12-04-2020 12:21:17 13.1 C 64 %
364 12-04-2020 12:31:17 13.1 C 64 %
365 12-04-2020 12:41:17 13.2 C 64 %
366 12-04-2020 12:51:18 13.2 C 64 %
367 12-04-2020 13:01:17 13.2 C 64 %
368 12-04-2020 13:11:17 13.2 C 64 %
369 12-04-2020 13:21:17 13.2 C 64 %
370 12-04-2020 13:31:17 13.2 C 64 %
371 12-04-2020 13:41:17 13.2 C 64 %
372 12-04-2020 13:51:17 13.2 C 64 %
373 12-04-2020 14:01:17 13.2 C 64 %
374 12-04-2020 14:11:17 13.2 C 64 %
375 12-04-2020 14:21:17 13.3 C 64 %
Sensor: Nr:Datum:Temp:Feuchte:
G-T/H 376 12-04-2020 14:31:17 13.3 C 64 %
377 12-04-2020 14:41:17 13.3 C 64 %
378 12-04-2020 14:51:17 13.3 C 64 %
379 12-04-2020 15:01:17 13.4 C 64 %
380 12-04-2020 15:11:17 13.3 C 64 %
381 12-04-2020 15:21:17 13.4 C 64 %
382 12-04-2020 15:31:18 13.4 C 64 %
383 12-04-2020 15:41:18 13.4 C 64 %
384 12-04-2020 15:51:18 13.4 C 64 %
385 12-04-2020 16:01:17 13.4 C 64 %
386 12-04-2020 16:11:17 13.4 C 64 %
387 12-04-2020 16:21:17 13.4 C 64 %
388 12-04-2020 16:31:17 13.5 C 64 %
389 12-04-2020 16:41:17 13.5 C 64 %
390 12-04-2020 16:51:17 13.5 C 64 %
391 12-04-2020 17:01:17 13.5 C 64 %
392 12-04-2020 17:11:18 13.6 C 64 %
393 12-04-2020 17:21:17 13.6 C 64 %
394 12-04-2020 17:31:17 13.6 C 64 %
395 12-04-2020 17:41:17 13.6 C 64 %
396 12-04-2020 17:51:17 13.6 C 64 %
397 12-04-2020 18:01:18 13.6 C 64 %
398 12-04-2020 18:11:18 13.7 C 64 %
399 12-04-2020 18:21:17 13.7 C 64 %
400 12-04-2020 18:31:17 13.7 C 64 %
Sensor: Nr:Datum:Temp:Feuchte:
G-T/H 401 12-04-2020 18:41:17 13.7 C 64 %
402 12-04-2020 18:51:17 13.7 C 64 %
403 12-04-2020 19:01:17 13.8 C 64 %
404 12-04-2020 19:11:17 13.8 C 64 %
405 12-04-2020 19:21:17 13.8 C 64 %
406 12-04-2020 19:31:17 13.8 C 64 %
407 12-04-2020 19:41:17 13.8 C 64 %
408 12-04-2020 19:51:18 13.8 C 64 %
409 12-04-2020 20:01:18 13.8 C 64 %
410 12-04-2020 20:11:18 13.8 C 64 %
411 12-04-2020 20:21:17 13.8 C 64 %
412 12-04-2020 20:31:18 13.8 C 64 %
413 12-04-2020 20:41:18 13.8 C 64 %
414 12-04-2020 20:51:17 13.8 C 64 %
415 12-04-2020 21:01:17 13.8 C 64 %
416 12-04-2020 21:11:17 13.8 C 64 %
417 12-04-2020 21:22:17 13.8 C 64 %
418 12-04-2020 21:31:17 13.8 C 64 %
419 12-04-2020 21:41:17 13.8 C 64 %
420 12-04-2020 21:51:17 13.8 C 64 %
421 12-04-2020 22:01:17 13.8 C 64 %
422 12-04-2020 22:11:17 13.8 C 64 %
423 12-04-2020 22:22:17 13.8 C 64 %
424 12-04-2020 22:32:17 13.8 C 64 %
425 12-04-2020 22:42:17 13.8 C 64 %
Sensor: Nr:Datum:Temp:Feuchte:
G-T/H 426 12-04-2020 22:51:17 13.8 C 64 %
427 12-04-2020 23:01:18 13.8 C 64 %
428 12-04-2020 23:11:18 13.8 C 64 %
429 12-04-2020 23:21:17 13.8 C 64 %
430 12-04-2020 23:32:17 13.8 C 64 %
431 12-04-2020 23:41:17 13.8 C 64 %
432 12-04-2020 23:52:17 13.8 C 64 %
433 13-04-2020 00:01:17 13.8 C 64 %
434 13-04-2020 00:11:17 13.8 C 64 %
435 13-04-2020 00:21:18 13.8 C 64 %
436 13-04-2020 00:31:17 13.8 C 64 %
437 13-04-2020 00:41:17 13.8 C 64 %
438 13-04-2020 00:51:17 13.8 C 63 %
439 13-04-2020 01:01:18 13.8 C 63 %
440 13-04-2020 01:11:18 13.8 C 63 %
441 13-04-2020 01:21:18 13.8 C 63 %
442 13-04-2020 01:31:18 13.8 C 63 %
443 13-04-2020 01:41:18 13.8 C 63 %
444 13-04-2020 01:51:18 13.8 C 63 %
445 13-04-2020 02:02:17 13.8 C 63 %
446 13-04-2020 02:12:17 13.8 C 62 %
447 13-04-2020 02:21:17 13.7 C 62 %
448 13-04-2020 02:31:18 13.7 C 62 %
449 13-04-2020 02:41:18 13.7 C 62 %
450 13-04-2020 02:51:17 13.7 C 62 %
Sensor: Nr:Datum:Temp:Feuchte:
G-T/H 451 13-04-2020 03:01:18 13.7 C 62 %
452 13-04-2020 03:11:18 13.7 C 62 %
453 13-04-2020 03:22:17 13.7 C 62 %
454 13-04-2020 03:32:17 13.7 C 62 %
455 13-04-2020 03:42:17 13.7 C 61 %
456 13-04-2020 03:51:17 13.6 C 61 %
457 13-04-2020 04:02:17 13.7 C 61 %
458 13-04-2020 04:12:17 13.6 C 61 %
459 13-04-2020 04:21:18 13.6 C 61 %
460 13-04-2020 04:32:17 13.6 C 61 %
461 13-04-2020 04:41:17 13.6 C 61 %
462 13-04-2020 04:52:17 13.6 C 61 %
463 13-04-2020 05:02:17 13.6 C 61 %
464 13-04-2020 05:12:17 13.6 C 61 %
465 13-04-2020 05:22:17 13.5 C 61 %
466 13-04-2020 05:32:17 13.5 C 61 %
467 13-04-2020 05:42:17 13.5 C 61 %
468 13-04-2020 05:52:17 13.5 C 61 %
469 13-04-2020 06:02:17 13.5 C 61 %
470 13-04-2020 06:12:17 13.5 C 61 %
471 13-04-2020 06:22:17 13.5 C 61 %
472 13-04-2020 06:32:17 13.5 C 61 %
473 13-04-2020 06:42:17 13.4 C 61 %
474 13-04-2020 06:52:17 13.4 C 61 %
475 13-04-2020 07:02:17 13.4 C 61 %
Sensor: Nr:Datum:Temp:Feuchte:
G-T/H 476 13-04-2020 07:12:17 13.4 C 61 %
477 13-04-2020 07:22:17 13.4 C 61 %
478 13-04-2020 07:32:17 13.4 C 61 %
479 13-04-2020 07:42:17 13.4 C 61 %
480 13-04-2020 07:52:17 13.4 C 61 %
481 13-04-2020 08:02:17 13.3 C 61 %